<?xml version="1.0" encoding="UTF-8" standalone="no" ?>
<gpx xmlns="http://www.topografix.com/GPX/1/1" xmlns:xsi="http://www.w3.org/2001/XMLSchema-instance" xsi:schemaLocation="http://www.topografix.com/GPX/1/1 http://www.topografix.com/GPX/1/1/gpx.xsd" version="1.1" creator="VisuGPX - https://www.visugpx.com">
  <metadata>
    <name>Sorgente della Maira - Lago Visaisa - Passo della Cavalla</name>
    <desc><![CDATA[2015-07 - Sorgente della Maira - Lago Visaisa - Colle delle Munie - Monte Soubeyran - Passo della Cavalla - Grange Pausa - Saretto - Ponte Maira

[b]album[/b] : [url]https://goo.gl/photos/4SvHsnRbtt9dbQQ17[/url]
[img]https://blogger.googleusercontent.com/img/b/R29vZ2xl/AVvXsEgDhyphenhyphenIqIVoCdy7FV3EahXhZbSC_Zk33Md66PaZb_M_FpG_ivGals2qBxKkNifJeuopCUCX27hIf_wp5NYny2lGT9w6-HaSccpKTv3Yc5bkvJbZhjKc1vLPjO1nwcyikZkGy5mJfQWcij0tyedKqnY5_Gu6s0R5u_G4EwDBxmOF6F9C3pReBXd8et3OvchNM/s400/2019-07-16%20%20Visaisa.JPG[/img][img]https://1.bp.blogspot.com/-Z_T34t4WXMc/WMrOuhCF2HI/AAAAAAAAQzc/r3w0VZaoMmUoeqWYGpynDNgdGk8vqZ5eACLcB/s1600/2015-07_Valle-Maira_photos_i2.JPG[/img]
[b]Idées de randonnées dans la même région[/b]
Parcours : [url]https://www.visugpx.com/membres/24856/montagne/alpes/[/url]
Photos : [url]https://jcvertygo.blogspot.com/p/les-alpes.html[/url]]]></desc>
  </metadata>
  <trk>
    <name><![CDATA[Sorgente della Maira - Lago Visaisa - Passo della Cavalla_1]]></name>
    <trkseg>
      <trkpt lat="44.47318" lon="6.9385">
        <ele>1655</ele>
        <time>2015-07-16T10:20:31Z</time>
      </trkpt>
      <trkpt lat="44.47321" lon="6.93852">
        <ele>1655</ele>
        <time>2015-07-16T10:20:36Z</time>
      </trkpt>
      <trkpt lat="44.47321" lon="6.93852">
        <ele>1655</ele>
        <time>2015-07-16T10:20:41Z</time>
      </trkpt>
      <trkpt lat="44.47319" lon="6.93853">
        <ele>1655</ele>
        <time>2015-07-16T10:21:01Z</time>
      </trkpt>
      <trkpt lat="44.47321" lon="6.93853">
        <ele>1655</ele>
        <time>2015-07-16T10:21:06Z</time>
      </trkpt>
      <trkpt lat="44.47321" lon="6.93853">
        <ele>1655</ele>
        <time>2015-07-16T10:21:11Z</time>
      </trkpt>
      <trkpt lat="44.47324" lon="6.9385">
        <ele>1656.0505641245</ele>
        <time>2015-07-16T10:21:36Z</time>
      </trkpt>
      <trkpt lat="44.47328" lon="6.93847">
        <ele>1656.0505641245</ele>
        <time>2015-07-16T10:21:41Z</time>
      </trkpt>
      <trkpt lat="44.47328" lon="6.93848">
        <ele>1656.0505641245</ele>
        <time>2015-07-16T10:21:46Z</time>
      </trkpt>
      <trkpt lat="44.47329" lon="6.93847">
        <ele>1656.0505641245</ele>
        <time>2015-07-16T10:22:06Z</time>
      </trkpt>
      <trkpt lat="44.47333" lon="6.93846">
        <ele>1664.3487054848</ele>
        <time>2015-07-16T10:22:19Z</time>
      </trkpt>
      <trkpt lat="44.47352" lon="6.93833">
        <ele>1673.1311174138</ele>
        <time>2015-07-16T10:22:36Z</time>
      </trkpt>
      <trkpt lat="44.47353" lon="6.93832">
        <ele>1673.1311174138</ele>
        <time>2015-07-16T10:22:36Z</time>
      </trkpt>
      <trkpt lat="44.47358" lon="6.93829">
        <ele>1673.1311174138</ele>
        <time>2015-07-16T10:22:57Z</time>
      </trkpt>
      <trkpt lat="44.47357" lon="6.93815">
        <ele>1681.6526554369</ele>
        <time>2015-07-16T10:23:36Z</time>
      </trkpt>
      <trkpt lat="44.47355" lon="6.93829">
        <ele>1687.9834777865</ele>
        <time>2015-07-16T10:25:06Z</time>
      </trkpt>
      <trkpt lat="44.47353" lon="6.93794">
        <ele>1693.3291007757</ele>
        <time>2015-07-16T10:26:05Z</time>
      </trkpt>
      <trkpt lat="44.47355" lon="6.93792">
        <ele>1693.3291007757</ele>
        <time>2015-07-16T10:26:06Z</time>
      </trkpt>
      <trkpt lat="44.47352" lon="6.9374">
        <ele>1696.004710797</ele>
        <time>2015-07-16T10:26:52Z</time>
      </trkpt>
      <trkpt lat="44.47351" lon="6.93735">
        <ele>1696.004710797</ele>
        <time>2015-07-16T10:26:56Z</time>
      </trkpt>
      <trkpt lat="44.4735" lon="6.9373">
        <ele>1696.004710797</ele>
        <time>2015-07-16T10:27:01Z</time>
      </trkpt>
      <trkpt lat="44.47349" lon="6.93724">
        <ele>1697.8526976232</ele>
        <time>2015-07-16T10:27:07Z</time>
      </trkpt>
      <trkpt lat="44.47346" lon="6.93697">
        <ele>1698.9008723166</ele>
        <time>2015-07-16T10:28:02Z</time>
      </trkpt>
      <trkpt lat="44.47341" lon="6.93685">
        <ele>1699.1104042743</ele>
        <time>2015-07-16T10:28:06Z</time>
      </trkpt>
      <trkpt lat="44.47338" lon="6.93681">
        <ele>1699.1104042743</ele>
        <time>2015-07-16T10:28:11Z</time>
      </trkpt>
      <trkpt lat="44.47338" lon="6.93675">
        <ele>1699.1104042743</ele>
        <time>2015-07-16T10:28:16Z</time>
      </trkpt>
      <trkpt lat="44.47331" lon="6.93667">
        <ele>1698.472947013</ele>
        <time>2015-07-16T10:29:03Z</time>
      </trkpt>
      <trkpt lat="44.47327" lon="6.93657">
        <ele>1698.472947013</ele>
        <time>2015-07-16T10:29:06Z</time>
      </trkpt>
      <trkpt lat="44.47335" lon="6.93642">
        <ele>1698.2573237353</ele>
        <time>2015-07-16T10:29:38Z</time>
      </trkpt>
      <trkpt lat="44.47323" lon="6.93603">
        <ele>1697.7102882707</ele>
        <time>2015-07-16T10:30:12Z</time>
      </trkpt>
      <trkpt lat="44.47312" lon="6.9359">
        <ele>1696.5784840599</ele>
        <time>2015-07-16T10:30:50Z</time>
      </trkpt>
      <trkpt lat="44.47312" lon="6.9358">
        <ele>1696.5784840599</ele>
        <time>2015-07-16T10:32:06Z</time>
      </trkpt>
      <trkpt lat="44.47327" lon="6.93565">
        <ele>1696.3657224787</ele>
        <time>2015-07-16T10:32:52Z</time>
      </trkpt>
      <trkpt lat="44.47352" lon="6.93559">
        <ele>1696.4934844218</ele>
        <time>2015-07-16T10:33:06Z</time>
      </trkpt>
      <trkpt lat="44.47352" lon="6.93557">
        <ele>1696.4934844218</ele>
        <time>2015-07-16T10:33:17Z</time>
      </trkpt>
      <trkpt lat="44.47355" lon="6.93542">
        <ele>1696.3593626165</ele>
        <time>2015-07-16T10:33:36Z</time>
      </trkpt>
      <trkpt lat="44.47356" lon="6.93544">
        <ele>1696.3593626165</ele>
        <time>2015-07-16T10:34:07Z</time>
      </trkpt>
      <trkpt lat="44.47366" lon="6.93533">
        <ele>1697.1143451301</ele>
        <time>2015-07-16T10:35:06Z</time>
      </trkpt>
      <trkpt lat="44.47378" lon="6.93492">
        <ele>1697.9034998987</ele>
        <time>2015-07-16T10:36:07Z</time>
      </trkpt>
      <trkpt lat="44.47386" lon="6.93494">
        <ele>1697.9034998987</ele>
        <time>2015-07-16T10:36:11Z</time>
      </trkpt>
      <trkpt lat="44.47425" lon="6.93466">
        <ele>1699.0039940774</ele>
        <time>2015-07-16T10:37:01Z</time>
      </trkpt>
      <trkpt lat="44.47427" lon="6.9346">
        <ele>1699.0039940774</ele>
        <time>2015-07-16T10:37:08Z</time>
      </trkpt>
      <trkpt lat="44.47425" lon="6.93456">
        <ele>1699.0039940774</ele>
        <time>2015-07-16T10:37:11Z</time>
      </trkpt>
      <trkpt lat="44.47425" lon="6.93452">
        <ele>1699.9375234422</ele>
        <time>2015-07-16T10:37:16Z</time>
      </trkpt>
      <trkpt lat="44.47427" lon="6.93446">
        <ele>1699.9375234422</ele>
        <time>2015-07-16T10:37:33Z</time>
      </trkpt>
      <trkpt lat="44.47436" lon="6.93405">
        <ele>1701.4537306299</ele>
        <time>2015-07-16T10:38:07Z</time>
      </trkpt>
      <trkpt lat="44.47436" lon="6.93398">
        <ele>1701.4537306299</ele>
        <time>2015-07-16T10:38:48Z</time>
      </trkpt>
      <trkpt lat="44.47447" lon="6.93386">
        <ele>1702.6859587743</ele>
        <time>2015-07-16T10:39:05Z</time>
      </trkpt>
      <trkpt lat="44.47453" lon="6.93378">
        <ele>1702.6859587743</ele>
        <time>2015-07-16T10:39:07Z</time>
      </trkpt>
      <trkpt lat="44.47445" lon="6.93369">
        <ele>1704.49856923</ele>
        <time>2015-07-16T10:39:30Z</time>
      </trkpt>
      <trkpt lat="44.47445" lon="6.93369">
        <ele>1704.49856923</ele>
        <time>2015-07-16T10:39:31Z</time>
      </trkpt>
      <trkpt lat="44.47447" lon="6.93362">
        <ele>1704.49856923</ele>
        <time>2015-07-16T10:40:08Z</time>
      </trkpt>
      <trkpt lat="44.47448" lon="6.93353">
        <ele>1706.2471790646</ele>
        <time>2015-07-16T10:40:18Z</time>
      </trkpt>
      <trkpt lat="44.47448" lon="6.93349">
        <ele>1706.2471790646</ele>
        <time>2015-07-16T10:40:21Z</time>
      </trkpt>
      <trkpt lat="44.47449" lon="6.93345">
        <ele>1706.2471790646</ele>
        <time>2015-07-16T10:40:28Z</time>
      </trkpt>
      <trkpt lat="44.47452" lon="6.93343">
        <ele>1706.2471790646</ele>
        <time>2015-07-16T10:40:31Z</time>
      </trkpt>
      <trkpt lat="44.47454" lon="6.9334">
        <ele>1707.8804154811</ele>
        <time>2015-07-16T10:40:52Z</time>
      </trkpt>
      <trkpt lat="44.4746" lon="6.93302">
        <ele>1710.1057221076</ele>
        <time>2015-07-16T10:41:34Z</time>
      </trkpt>
      <trkpt lat="44.47459" lon="6.93293">
        <ele>1710.1057221076</ele>
        <time>2015-07-16T10:41:51Z</time>
      </trkpt>
      <trkpt lat="44.47462" lon="6.93279">
        <ele>1712.1989214907</ele>
        <time>2015-07-16T10:42:07Z</time>
      </trkpt>
      <trkpt lat="44.47461" lon="6.93279">
        <ele>1712.1989214907</ele>
        <time>2015-07-16T10:42:08Z</time>
      </trkpt>
      <trkpt lat="44.47464" lon="6.93259">
        <ele>1714.8548536678</ele>
        <time>2015-07-16T10:43:08Z</time>
      </trkpt>
      <trkpt lat="44.47462" lon="6.93253">
        <ele>1714.8548536678</ele>
        <time>2015-07-16T10:43:20Z</time>
      </trkpt>
      <trkpt lat="44.47462" lon="6.93251">
        <ele>1714.8548536678</ele>
        <time>2015-07-16T10:43:21Z</time>
      </trkpt>
      <trkpt lat="44.47458" lon="6.93242">
        <ele>1717.6855627859</ele>
        <time>2015-07-16T10:43:56Z</time>
      </trkpt>
      <trkpt lat="44.47455" lon="6.9324">
        <ele>1717.6855627859</ele>
        <time>2015-07-16T10:44:21Z</time>
      </trkpt>
      <trkpt lat="44.47441" lon="6.93257">
        <ele>1720.2693823643</ele>
        <time>2015-07-16T10:44:54Z</time>
      </trkpt>
      <trkpt lat="44.47439" lon="6.93256">
        <ele>1720.2693823643</ele>
        <time>2015-07-16T10:45:00Z</time>
      </trkpt>
      <trkpt lat="44.47431" lon="6.93239">
        <ele>1723.1763670468</ele>
        <time>2015-07-16T10:46:11Z</time>
      </trkpt>
      <trkpt lat="44.47427" lon="6.93232">
        <ele>1723.1763670468</ele>
        <time>2015-07-16T10:47:02Z</time>
      </trkpt>
      <trkpt lat="44.47428" lon="6.93224">
        <ele>1726.6984675948</ele>
        <time>2015-07-16T10:47:19Z</time>
      </trkpt>
      <trkpt lat="44.47423" lon="6.93213">
        <ele>1729.8720124671</ele>
        <time>2015-07-16T10:47:35Z</time>
      </trkpt>
      <trkpt lat="44.47429" lon="6.93201">
        <ele>1732.8284530692</ele>
        <time>2015-07-16T10:47:51Z</time>
      </trkpt>
      <trkpt lat="44.4743" lon="6.93182">
        <ele>1735.7053960059</ele>
        <time>2015-07-16T10:48:36Z</time>
      </trkpt>
      <trkpt lat="44.47422" lon="6.9316">
        <ele>1738.534649978</ele>
        <time>2015-07-16T10:49:11Z</time>
      </trkpt>
      <trkpt lat="44.47422" lon="6.93156">
        <ele>1738.534649978</ele>
        <time>2015-07-16T10:49:16Z</time>
      </trkpt>
      <trkpt lat="44.47422" lon="6.93151">
        <ele>1738.534649978</ele>
        <time>2015-07-16T10:49:21Z</time>
      </trkpt>
      <trkpt lat="44.47418" lon="6.93147">
        <ele>1741.1769595562</ele>
        <time>2015-07-16T10:50:17Z</time>
      </trkpt>
      <trkpt lat="44.47417" lon="6.93117">
        <ele>1744.1293261411</ele>
        <time>2015-07-16T10:51:17Z</time>
      </trkpt>
      <trkpt lat="44.47406" lon="6.93108">
        <ele>1747.0014512836</ele>
        <time>2015-07-16T10:52:11Z</time>
      </trkpt>
      <trkpt lat="44.474" lon="6.93119">
        <ele>1750.0165627925</ele>
        <time>2015-07-16T10:52:31Z</time>
      </trkpt>
      <trkpt lat="44.47396" lon="6.93117">
        <ele>1750.0165627925</ele>
        <time>2015-07-16T10:52:36Z</time>
      </trkpt>
      <trkpt lat="44.47397" lon="6.93112">
        <ele>1750.0165627925</ele>
        <time>2015-07-16T10:53:11Z</time>
      </trkpt>
      <trkpt lat="44.47399" lon="6.93087">
        <ele>1754.231651937</ele>
        <time>2015-07-16T10:54:11Z</time>
      </trkpt>
      <trkpt lat="44.47409" lon="6.93061">
        <ele>1758.5327302677</ele>
        <time>2015-07-16T10:55:01Z</time>
      </trkpt>
      <trkpt lat="44.47408" lon="6.93063">
        <ele>1758.5327302677</ele>
        <time>2015-07-16T10:55:11Z</time>
      </trkpt>
      <trkpt lat="44.47411" lon="6.93057">
        <ele>1758.5327302677</ele>
        <time>2015-07-16T10:55:36Z</time>
      </trkpt>
      <trkpt lat="44.47402" lon="6.93053">
        <ele>1762.9405015102</ele>
        <time>2015-07-16T10:56:00Z</time>
      </trkpt>
      <trkpt lat="44.47393" lon="6.93048">
        <ele>1768.1858349746</ele>
        <time>2015-07-16T10:57:26Z</time>
      </trkpt>
      <trkpt lat="44.47393" lon="6.93048">
        <ele>1768.1858349746</ele>
        <time>2015-07-16T10:57:31Z</time>
      </trkpt>
      <trkpt lat="44.4739" lon="6.93046">
        <ele>1768.1858349746</ele>
        <time>2015-07-16T10:57:41Z</time>
      </trkpt>
      <trkpt lat="44.47389" lon="6.93046">
        <ele>1768.1858349746</ele>
        <time>2015-07-16T10:57:46Z</time>
      </trkpt>
      <trkpt lat="44.47384" lon="6.93047">
        <ele>1772.8226257789</ele>
        <time>2015-07-16T10:57:51Z</time>
      </trkpt>
      <trkpt lat="44.47382" lon="6.93044">
        <ele>1772.8226257789</ele>
        <time>2015-07-16T10:57:56Z</time>
      </trkpt>
      <trkpt lat="44.47381" lon="6.93043">
        <ele>1772.8226257789</ele>
        <time>2015-07-16T10:58:01Z</time>
      </trkpt>
      <trkpt lat="44.47378" lon="6.9304">
        <ele>1772.8226257789</ele>
        <time>2015-07-16T10:58:06Z</time>
      </trkpt>
      <trkpt lat="44.47375" lon="6.93039">
        <ele>1776.9006609447</ele>
        <time>2015-07-16T10:58:11Z</time>
      </trkpt>
      <trkpt lat="44.47373" lon="6.9304">
        <ele>1776.9006609447</ele>
        <time>2015-07-16T10:58:16Z</time>
      </trkpt>
      <trkpt lat="44.4737" lon="6.93042">
        <ele>1776.9006609447</ele>
        <time>2015-07-16T10:58:21Z</time>
      </trkpt>
      <trkpt lat="44.4737" lon="6.93045">
        <ele>1776.9006609447</ele>
        <time>2015-07-16T10:58:26Z</time>
      </trkpt>
      <trkpt lat="44.47365" lon="6.93045">
        <ele>1780.5155809377</ele>
        <time>2015-07-16T10:58:31Z</time>
      </trkpt>
      <trkpt lat="44.47361" lon="6.93053">
        <ele>1780.5155809377</ele>
        <time>2015-07-16T10:58:36Z</time>
      </trkpt>
      <trkpt lat="44.47353" lon="6.93057">
        <ele>1783.7900973421</ele>
        <time>2015-07-16T10:58:43Z</time>
      </trkpt>
      <trkpt lat="44.47342" lon="6.93057">
        <ele>1786.9162218654</ele>
        <time>2015-07-16T10:59:04Z</time>
      </trkpt>
      <trkpt lat="44.47341" lon="6.93053">
        <ele>1786.9162218654</ele>
        <time>2015-07-16T10:59:06Z</time>
      </trkpt>
      <trkpt lat="44.47352" lon="6.93071">
        <ele>1791.310683762</ele>
        <time>2015-07-16T11:00:11Z</time>
      </trkpt>
      <trkpt lat="44.47334" lon="6.93055">
        <ele>1796.2571966833</ele>
        <time>2015-07-16T11:00:50Z</time>
      </trkpt>
      <trkpt lat="44.47322" lon="6.93055">
        <ele>1800.6974363576</ele>
        <time>2015-07-16T11:00:51Z</time>
      </trkpt>
      <trkpt lat="44.47347" lon="6.93064">
        <ele>1805.1809865336</ele>
        <time>2015-07-16T11:01:16Z</time>
      </trkpt>
      <trkpt lat="44.4735" lon="6.93062">
        <ele>1805.1809865336</ele>
        <time>2015-07-16T11:01:21Z</time>
      </trkpt>
      <trkpt lat="44.47364" lon="6.93052">
        <ele>1809.2195206456</ele>
        <time>2015-07-16T11:01:46Z</time>
      </trkpt>
      <trkpt lat="44.47365" lon="6.93046">
        <ele>1809.2195206456</ele>
        <time>2015-07-16T11:02:16Z</time>
      </trkpt>
      <trkpt lat="44.47361" lon="6.93043">
        <ele>1809.2195206456</ele>
        <time>2015-07-16T11:02:31Z</time>
      </trkpt>
      <trkpt lat="44.47339" lon="6.93043">
        <ele>1814.6388835649</ele>
        <time>2015-07-16T11:03:16Z</time>
      </trkpt>
      <trkpt lat="44.47337" lon="6.93044">
        <ele>1814.6388835649</ele>
        <time>2015-07-16T11:03:21Z</time>
      </trkpt>
      <trkpt lat="44.47334" lon="6.93047">
        <ele>1814.6388835649</ele>
        <time>2015-07-16T11:03:36Z</time>
      </trkpt>
      <trkpt lat="44.4733" lon="6.93058">
        <ele>1819.6546473267</ele>
        <time>2015-07-16T11:04:17Z</time>
      </trkpt>
      <trkpt lat="44.47335" lon="6.93045">
        <ele>1825.4204120991</ele>
        <time>2015-07-16T11:04:49Z</time>
      </trkpt>
      <trkpt lat="44.47329" lon="6.93037">
        <ele>1825.4204120991</ele>
        <time>2015-07-16T11:05:21Z</time>
      </trkpt>
      <trkpt lat="44.47323" lon="6.93029">
        <ele>1830.8813965216</ele>
        <time>2015-07-16T11:06:17Z</time>
      </trkpt>
      <trkpt lat="44.47308" lon="6.93052">
        <ele>1836.3861555754</ele>
        <time>2015-07-16T11:06:21Z</time>
      </trkpt>
      <trkpt lat="44.47305" lon="6.93053">
        <ele>1836.3861555754</ele>
        <time>2015-07-16T11:06:26Z</time>
      </trkpt>
      <trkpt lat="44.47299" lon="6.93057">
        <ele>1841.8519397997</ele>
        <time>2015-07-16T11:07:18Z</time>
      </trkpt>
      <trkpt lat="44.4729" lon="6.93047">
        <ele>1846.8764395639</ele>
        <time>2015-07-16T11:07:51Z</time>
      </trkpt>
      <trkpt lat="44.47284" lon="6.93042">
        <ele>1846.8764395639</ele>
        <time>2015-07-16T11:07:56Z</time>
      </trkpt>
      <trkpt lat="44.4728" lon="6.9304">
        <ele>1851.2705174794</ele>
        <time>2015-07-16T11:08:01Z</time>
      </trkpt>
      <trkpt lat="44.47277" lon="6.93038">
        <ele>1851.2705174794</ele>
        <time>2015-07-16T11:08:06Z</time>
      </trkpt>
      <trkpt lat="44.47271" lon="6.93036">
        <ele>1854.9810566471</ele>
        <time>2015-07-16T11:08:20Z</time>
      </trkpt>
      <trkpt lat="44.47272" lon="6.93041">
        <ele>1854.9810566471</ele>
        <time>2015-07-16T11:08:41Z</time>
      </trkpt>
      <trkpt lat="44.47267" lon="6.93049">
        <ele>1859.3179250802</ele>
        <time>2015-07-16T11:09:16Z</time>
      </trkpt>
      <trkpt lat="44.47266" lon="6.93047">
        <ele>1859.3179250802</ele>
        <time>2015-07-16T11:09:21Z</time>
      </trkpt>
      <trkpt lat="44.4727" lon="6.93032">
        <ele>1863.1261267324</ele>
        <time>2015-07-16T11:10:06Z</time>
      </trkpt>
      <trkpt lat="44.47268" lon="6.93024">
        <ele>1863.1261267324</ele>
        <time>2015-07-16T11:10:11Z</time>
      </trkpt>
      <trkpt lat="44.47266" lon="6.93022">
        <ele>1863.1261267324</ele>
        <time>2015-07-16T11:10:16Z</time>
      </trkpt>
      <trkpt lat="44.47262" lon="6.9302">
        <ele>1866.3608264327</ele>
        <time>2015-07-16T11:10:21Z</time>
      </trkpt>
      <trkpt lat="44.4726" lon="6.93019">
        <ele>1866.3608264327</ele>
        <time>2015-07-16T11:10:26Z</time>
      </trkpt>
      <trkpt lat="44.47257" lon="6.93019">
        <ele>1866.3608264327</ele>
        <time>2015-07-16T11:10:31Z</time>
      </trkpt>
      <trkpt lat="44.47255" lon="6.93019">
        <ele>1866.3608264327</ele>
        <time>2015-07-16T11:10:36Z</time>
      </trkpt>
      <trkpt lat="44.47253" lon="6.93021">
        <ele>1869.1433570352</ele>
        <time>2015-07-16T11:10:41Z</time>
      </trkpt>
      <trkpt lat="44.47254" lon="6.93024">
        <ele>1869.1433570352</ele>
        <time>2015-07-16T11:10:46Z</time>
      </trkpt>
      <trkpt lat="44.47251" lon="6.93024">
        <ele>1869.1433570352</ele>
        <time>2015-07-16T11:10:51Z</time>
      </trkpt>
      <trkpt lat="44.47248" lon="6.93024">
        <ele>1869.1433570352</ele>
        <time>2015-07-16T11:10:56Z</time>
      </trkpt>
      <trkpt lat="44.47239" lon="6.93025">
        <ele>1871.4545588239</ele>
        <time>2015-07-16T11:11:09Z</time>
      </trkpt>
      <trkpt lat="44.4723" lon="6.93028">
        <ele>1873.5259180493</ele>
        <time>2015-07-16T11:11:22Z</time>
      </trkpt>
      <trkpt lat="44.47228" lon="6.93029">
        <ele>1873.5259180493</ele>
        <time>2015-07-16T11:11:26Z</time>
      </trkpt>
      <trkpt lat="44.47197" lon="6.93036">
        <ele>1875.5853021693</ele>
        <time>2015-07-16T11:12:25Z</time>
      </trkpt>
      <trkpt lat="44.47196" lon="6.93035">
        <ele>1875.5853021693</ele>
        <time>2015-07-16T11:12:35Z</time>
      </trkpt>
      <trkpt lat="44.47186" lon="6.93029">
        <ele>1877.4351640143</ele>
        <time>2015-07-16T11:13:20Z</time>
      </trkpt>
      <trkpt lat="44.47191" lon="6.93043">
        <ele>1879.2281725597</ele>
        <time>2015-07-16T11:14:21Z</time>
      </trkpt>
      <trkpt lat="44.47159" lon="6.93049">
        <ele>1881.105091452</ele>
        <time>2015-07-16T11:15:10Z</time>
      </trkpt>
      <trkpt lat="44.47158" lon="6.9305">
        <ele>1881.105091452</ele>
        <time>2015-07-16T11:15:20Z</time>
      </trkpt>
      <trkpt lat="44.47158" lon="6.93062">
        <ele>1883.1230648183</ele>
        <time>2015-07-16T11:16:21Z</time>
      </trkpt>
      <trkpt lat="44.47135" lon="6.93065">
        <ele>1884.9581955431</ele>
        <time>2015-07-16T11:16:46Z</time>
      </trkpt>
      <trkpt lat="44.47128" lon="6.93069">
        <ele>1884.9581955431</ele>
        <time>2015-07-16T11:17:21Z</time>
      </trkpt>
      <trkpt lat="44.4712" lon="6.93068">
        <ele>1887.6569151536</ele>
        <time>2015-07-16T11:17:52Z</time>
      </trkpt>
      <trkpt lat="44.47116" lon="6.93065">
        <ele>1887.6569151536</ele>
        <time>2015-07-16T11:17:59Z</time>
      </trkpt>
      <trkpt lat="44.47113" lon="6.93063">
        <ele>1887.6569151536</ele>
        <time>2015-07-16T11:18:07Z</time>
      </trkpt>
      <trkpt lat="44.47095" lon="6.93062">
        <ele>1890.3337100888</ele>
        <time>2015-07-16T11:18:16Z</time>
      </trkpt>
      <trkpt lat="44.47089" lon="6.93061">
        <ele>1890.3337100888</ele>
        <time>2015-07-16T11:18:21Z</time>
      </trkpt>
      <trkpt lat="44.4709" lon="6.93065">
        <ele>1890.3337100888</ele>
        <time>2015-07-16T11:18:33Z</time>
      </trkpt>
      <trkpt lat="44.47091" lon="6.93066">
        <ele>1892.9360207679</ele>
        <time>2015-07-16T11:18:36Z</time>
      </trkpt>
      <trkpt lat="44.47073" lon="6.93082">
        <ele>1896.021685521</ele>
        <time>2015-07-16T11:19:22Z</time>
      </trkpt>
      <trkpt lat="44.47079" lon="6.93084">
        <ele>1896.021685521</ele>
        <time>2015-07-16T11:19:38Z</time>
      </trkpt>
      <trkpt lat="44.47063" lon="6.93089">
        <ele>1898.5179929645</ele>
        <time>2015-07-16T11:20:26Z</time>
      </trkpt>
      <trkpt lat="44.47066" lon="6.93088">
        <ele>1898.5179929645</ele>
        <time>2015-07-16T11:20:36Z</time>
      </trkpt>
      <trkpt lat="44.47067" lon="6.9309">
        <ele>1898.5179929645</ele>
        <time>2015-07-16T11:20:44Z</time>
      </trkpt>
      <trkpt lat="44.47072" lon="6.93098">
        <ele>1900.6601919211</ele>
        <time>2015-07-16T11:21:23Z</time>
      </trkpt>
      <trkpt lat="44.47062" lon="6.93089">
        <ele>1902.3062010067</ele>
        <time>2015-07-16T11:21:32Z</time>
      </trkpt>
      <trkpt lat="44.47061" lon="6.93089">
        <ele>1902.3062010067</ele>
        <time>2015-07-16T11:22:10Z</time>
      </trkpt>
      <trkpt lat="44.47048" lon="6.93088">
        <ele>1903.9890061027</ele>
        <time>2015-07-16T11:22:24Z</time>
      </trkpt>
      <trkpt lat="44.47049" lon="6.93089">
        <ele>1903.9890061027</ele>
        <time>2015-07-16T11:22:34Z</time>
      </trkpt>
      <trkpt lat="44.47045" lon="6.93092">
        <ele>1903.9890061027</ele>
        <time>2015-07-16T11:22:36Z</time>
      </trkpt>
      <trkpt lat="44.47045" lon="6.93095">
        <ele>1903.9890061027</ele>
        <time>2015-07-16T11:22:41Z</time>
      </trkpt>
      <trkpt lat="44.47043" lon="6.93097">
        <ele>1907.0814621435</ele>
        <time>2015-07-16T11:22:46Z</time>
      </trkpt>
      <trkpt lat="44.47037" lon="6.93097">
        <ele>1907.0814621435</ele>
        <time>2015-07-16T11:22:51Z</time>
      </trkpt>
      <trkpt lat="44.47034" lon="6.931">
        <ele>1910.3280690408</ele>
        <time>2015-07-16T11:22:56Z</time>
      </trkpt>
      <trkpt lat="44.47032" lon="6.93104">
        <ele>1910.3280690408</ele>
        <time>2015-07-16T11:23:01Z</time>
      </trkpt>
      <trkpt lat="44.4703" lon="6.93108">
        <ele>1910.3280690408</ele>
        <time>2015-07-16T11:23:06Z</time>
      </trkpt>
      <trkpt lat="44.47021" lon="6.93116">
        <ele>1913.5746154981</ele>
        <time>2015-07-16T11:23:23Z</time>
      </trkpt>
      <trkpt lat="44.4702" lon="6.93118">
        <ele>1913.5746154981</ele>
        <time>2015-07-16T11:23:26Z</time>
      </trkpt>
      <trkpt lat="44.47016" lon="6.9312">
        <ele>1913.5746154981</ele>
        <time>2015-07-16T11:23:31Z</time>
      </trkpt>
      <trkpt lat="44.47012" lon="6.9312">
        <ele>1916.4330171928</ele>
        <time>2015-07-16T11:23:36Z</time>
      </trkpt>
      <trkpt lat="44.47011" lon="6.93123">
        <ele>1916.4330171928</ele>
        <time>2015-07-16T11:23:43Z</time>
      </trkpt>
      <trkpt lat="44.4701" lon="6.93123">
        <ele>1916.4330171928</ele>
        <time>2015-07-16T11:23:46Z</time>
      </trkpt>
      <trkpt lat="44.46977" lon="6.93153">
        <ele>1919.4962378027</ele>
        <time>2015-07-16T11:25:26Z</time>
      </trkpt>
      <trkpt lat="44.46968" lon="6.93157">
        <ele>1922.4479116414</ele>
        <time>2015-07-16T11:26:26Z</time>
      </trkpt>
      <trkpt lat="44.46966" lon="6.93171">
        <ele>1925.2690516524</ele>
        <time>2015-07-16T11:26:36Z</time>
      </trkpt>
      <trkpt lat="44.46966" lon="6.93169">
        <ele>1925.2690516524</ele>
        <time>2015-07-16T11:26:41Z</time>
      </trkpt>
      <trkpt lat="44.46939" lon="6.93168">
        <ele>1928.0000016665</ele>
        <time>2015-07-16T11:27:26Z</time>
      </trkpt>
      <trkpt lat="44.46938" lon="6.93167">
        <ele>1928.0000016665</ele>
        <time>2015-07-16T11:27:39Z</time>
      </trkpt>
      <trkpt lat="44.46925" lon="6.93161">
        <ele>1930.7648241694</ele>
        <time>2015-07-16T11:28:26Z</time>
      </trkpt>
      <trkpt lat="44.46941" lon="6.93177">
        <ele>1933.7215557177</ele>
        <time>2015-07-16T11:29:08Z</time>
      </trkpt>
      <trkpt lat="44.46948" lon="6.93179">
        <ele>1933.7215557177</ele>
        <time>2015-07-16T11:29:26Z</time>
      </trkpt>
      <trkpt lat="44.46941" lon="6.93173">
        <ele>1936.9150452453</ele>
        <time>2015-07-16T11:29:31Z</time>
      </trkpt>
      <trkpt lat="44.46943" lon="6.9318">
        <ele>1936.9150452453</ele>
        <time>2015-07-16T11:29:39Z</time>
      </trkpt>
      <trkpt lat="44.46942" lon="6.93179">
        <ele>1936.9150452453</ele>
        <time>2015-07-16T11:29:41Z</time>
      </trkpt>
      <trkpt lat="44.46926" lon="6.93183">
        <ele>1940.2562762202</ele>
        <time>2015-07-16T11:29:56Z</time>
      </trkpt>
      <trkpt lat="44.46918" lon="6.93186">
        <ele>1940.2562762202</ele>
        <time>2015-07-16T11:30:08Z</time>
      </trkpt>
      <trkpt lat="44.46896" lon="6.93181">
        <ele>1943.6911009648</ele>
        <time>2015-07-16T11:30:15Z</time>
      </trkpt>
      <trkpt lat="44.46889" lon="6.93176">
        <ele>1943.6911009648</ele>
        <time>2015-07-16T11:30:27Z</time>
      </trkpt>
      <trkpt lat="44.46889" lon="6.93175">
        <ele>1946.9959082239</ele>
        <time>2015-07-16T11:30:34Z</time>
      </trkpt>
      <trkpt lat="44.46895" lon="6.93176">
        <ele>1946.9959082239</ele>
        <time>2015-07-16T11:30:57Z</time>
      </trkpt>
      <trkpt lat="44.46888" lon="6.93184">
        <ele>1950.9879303174</ele>
        <time>2015-07-16T11:31:07Z</time>
      </trkpt>
      <trkpt lat="44.46887" lon="6.93183">
        <ele>1950.9879303174</ele>
        <time>2015-07-16T11:31:28Z</time>
      </trkpt>
      <trkpt lat="44.46885" lon="6.93184">
        <ele>1950.9879303174</ele>
        <time>2015-07-16T11:31:47Z</time>
      </trkpt>
      <trkpt lat="44.46881" lon="6.93182">
        <ele>1950.9879303174</ele>
        <time>2015-07-16T11:32:01Z</time>
      </trkpt>
      <trkpt lat="44.46881" lon="6.93178">
        <ele>1955.5280242524</ele>
        <time>2015-07-16T11:32:06Z</time>
      </trkpt>
      <trkpt lat="44.46878" lon="6.93174">
        <ele>1955.5280242524</ele>
        <time>2015-07-16T11:32:11Z</time>
      </trkpt>
      <trkpt lat="44.46872" lon="6.93174">
        <ele>1959.5625013331</ele>
        <time>2015-07-16T11:32:16Z</time>
      </trkpt>
      <trkpt lat="44.46871" lon="6.93173">
        <ele>1959.5625013331</ele>
        <time>2015-07-16T11:32:21Z</time>
      </trkpt>
      <trkpt lat="44.46868" lon="6.93172">
        <ele>1959.5625013331</ele>
        <time>2015-07-16T11:32:26Z</time>
      </trkpt>
      <trkpt lat="44.46869" lon="6.9317">
        <ele>1959.5625013331</ele>
        <time>2015-07-16T11:32:31Z</time>
      </trkpt>
      <trkpt lat="44.46868" lon="6.93173">
        <ele>1959.5625013331</ele>
        <time>2015-07-16T11:32:36Z</time>
      </trkpt>
      <trkpt lat="44.46865" lon="6.93176">
        <ele>1963.1406681938</ele>
        <time>2015-07-16T11:32:41Z</time>
      </trkpt>
      <trkpt lat="44.46863" lon="6.93176">
        <ele>1963.1406681938</ele>
        <time>2015-07-16T11:32:52Z</time>
      </trkpt>
      <trkpt lat="44.46851" lon="6.93178">
        <ele>1966.3815906937</ele>
        <time>2015-07-16T11:33:09Z</time>
      </trkpt>
      <trkpt lat="44.46836" lon="6.9317">
        <ele>1969.2378463589</ele>
        <time>2015-07-16T11:33:13Z</time>
      </trkpt>
      <trkpt lat="44.46834" lon="6.9317">
        <ele>1969.2378463589</ele>
        <time>2015-07-16T11:33:22Z</time>
      </trkpt>
      <trkpt lat="44.46834" lon="6.93171">
        <ele>1969.2378463589</ele>
        <time>2015-07-16T11:33:33Z</time>
      </trkpt>
      <trkpt lat="44.4683" lon="6.9317">
        <ele>1969.2378463589</ele>
        <time>2015-07-16T11:33:36Z</time>
      </trkpt>
      <trkpt lat="44.4681" lon="6.93174">
        <ele>1972.1857954025</ele>
        <time>2015-07-16T11:33:52Z</time>
      </trkpt>
      <trkpt lat="44.46809" lon="6.93173">
        <ele>1972.1857954025</ele>
        <time>2015-07-16T11:34:12Z</time>
      </trkpt>
      <trkpt lat="44.4681" lon="6.93174">
        <ele>1972.1857954025</ele>
        <time>2015-07-16T11:34:24Z</time>
      </trkpt>
      <trkpt lat="44.46805" lon="6.93175">
        <ele>1972.1857954025</ele>
        <time>2015-07-16T11:34:32Z</time>
      </trkpt>
      <trkpt lat="44.46796" lon="6.93176">
        <ele>1975.969308039</ele>
        <time>2015-07-16T11:35:00Z</time>
      </trkpt>
      <trkpt lat="44.46783" lon="6.93175">
        <ele>1979.6021681938</ele>
        <time>2015-07-16T11:35:19Z</time>
      </trkpt>
      <trkpt lat="44.4677" lon="6.93167">
        <ele>1982.9643720935</ele>
        <time>2015-07-16T11:35:31Z</time>
      </trkpt>
      <trkpt lat="44.46764" lon="6.9317">
        <ele>1982.9643720935</ele>
        <time>2015-07-16T11:35:57Z</time>
      </trkpt>
      <trkpt lat="44.46755" lon="6.93162">
        <ele>1986.8251453969</ele>
        <time>2015-07-16T11:36:29Z</time>
      </trkpt>
      <trkpt lat="44.46754" lon="6.93188">
        <ele>1990.424836743</ele>
        <time>2015-07-16T11:37:31Z</time>
      </trkpt>
      <trkpt lat="44.46744" lon="6.93194">
        <ele>1993.4786390327</ele>
        <time>2015-07-16T11:38:31Z</time>
      </trkpt>
      <trkpt lat="44.46755" lon="6.93188">
        <ele>1996.1135447636</ele>
        <time>2015-07-16T11:38:42Z</time>
      </trkpt>
      <trkpt lat="44.46755" lon="6.93187">
        <ele>1996.1135447636</ele>
        <time>2015-07-16T11:38:49Z</time>
      </trkpt>
      <trkpt lat="44.46743" lon="6.93182">
        <ele>1998.8808816483</ele>
        <time>2015-07-16T11:40:31Z</time>
      </trkpt>
      <trkpt lat="44.46739" lon="6.93182">
        <ele>1998.8808816483</ele>
        <time>2015-07-16T11:40:43Z</time>
      </trkpt>
      <trkpt lat="44.46732" lon="6.93184">
        <ele>2001.1809063548</ele>
        <time>2015-07-16T11:40:54Z</time>
      </trkpt>
      <trkpt lat="44.46726" lon="6.93183">
        <ele>2001.1809063548</ele>
        <time>2015-07-16T11:41:31Z</time>
      </trkpt>
      <trkpt lat="44.46735" lon="6.93183">
        <ele>2003.0648170774</ele>
        <time>2015-07-16T11:42:09Z</time>
      </trkpt>
      <trkpt lat="44.46738" lon="6.93184">
        <ele>2003.0648170774</ele>
        <time>2015-07-16T11:42:10Z</time>
      </trkpt>
      <trkpt lat="44.46742" lon="6.93184">
        <ele>2003.0648170774</ele>
        <time>2015-07-16T11:42:27Z</time>
      </trkpt>
      <trkpt lat="44.46751" lon="6.93177">
        <ele>2004.5956019051</ele>
        <time>2015-07-16T11:42:37Z</time>
      </trkpt>
      <trkpt lat="44.46757" lon="6.9317">
        <ele>2004.5956019051</ele>
        <time>2015-07-16T11:42:51Z</time>
      </trkpt>
      <trkpt lat="44.46756" lon="6.9317">
        <ele>2004.5956019051</ele>
        <time>2015-07-16T11:42:51Z</time>
      </trkpt>
      <trkpt lat="44.46757" lon="6.93169">
        <ele>2005.7893262597</ele>
        <time>2015-07-16T11:43:37Z</time>
      </trkpt>
      <trkpt lat="44.46751" lon="6.93164">
        <ele>2005.7893262597</ele>
        <time>2015-07-16T11:44:36Z</time>
      </trkpt>
      <trkpt lat="44.46758" lon="6.93155">
        <ele>2006.4023191934</ele>
        <time>2015-07-16T11:47:56Z</time>
      </trkpt>
      <trkpt lat="44.46758" lon="6.93148">
        <ele>2006.4023191934</ele>
        <time>2015-07-16T11:48:23Z</time>
      </trkpt>
      <trkpt lat="44.46759" lon="6.93148">
        <ele>2006.4023191934</ele>
        <time>2015-07-16T11:48:33Z</time>
      </trkpt>
      <trkpt lat="44.4676" lon="6.93142">
        <ele>2006.729309371</ele>
        <time>2015-07-16T11:48:42Z</time>
      </trkpt>
      <trkpt lat="44.46759" lon="6.93139">
        <ele>2006.729309371</ele>
        <time>2015-07-16T11:48:53Z</time>
      </trkpt>
      <trkpt lat="44.46756" lon="6.93132">
        <ele>2006.729309371</ele>
        <time>2015-07-16T11:49:07Z</time>
      </trkpt>
      <trkpt lat="44.46747" lon="6.93112">
        <ele>2006.6404931927</ele>
        <time>2015-07-16T11:49:36Z</time>
      </trkpt>
      <trkpt lat="44.46738" lon="6.93097">
        <ele>2006.2328865847</ele>
        <time>2015-07-16T11:50:20Z</time>
      </trkpt>
      <trkpt lat="44.46747" lon="6.93091">
        <ele>2005.2368381186</ele>
        <time>2015-07-16T11:51:32Z</time>
      </trkpt>
      <trkpt lat="44.4675" lon="6.93093">
        <ele>2005.2368381186</ele>
        <time>2015-07-16T11:52:20Z</time>
      </trkpt>
      <trkpt lat="44.46754" lon="6.93094">
        <ele>2005.2368381186</ele>
        <time>2015-07-16T11:52:34Z</time>
      </trkpt>
      <trkpt lat="44.46761" lon="6.93091">
        <ele>2003.778765064</ele>
        <time>2015-07-16T11:52:57Z</time>
      </trkpt>
      <trkpt lat="44.46766" lon="6.93095">
        <ele>2003.778765064</ele>
        <time>2015-07-16T11:53:36Z</time>
      </trkpt>
      <trkpt lat="44.46754" lon="6.93108">
        <ele>2001.7463351882</ele>
        <time>2015-07-16T11:55:35Z</time>
      </trkpt>
      <trkpt lat="44.46753" lon="6.93108">
        <ele>2001.7463351882</ele>
        <time>2015-07-16T11:55:36Z</time>
      </trkpt>
      <trkpt lat="44.46752" lon="6.9311">
        <ele>2001.7463351882</ele>
        <time>2015-07-16T11:55:51Z</time>
      </trkpt>
      <trkpt lat="44.46748" lon="6.93114">
        <ele>2001.7463351882</ele>
        <time>2015-07-16T11:56:09Z</time>
      </trkpt>
      <trkpt lat="44.46737" lon="6.93115">
        <ele>1999.7574974984</ele>
        <time>2015-07-16T11:56:36Z</time>
      </trkpt>
      <trkpt lat="44.46735" lon="6.93112">
        <ele>1999.7574974984</ele>
        <time>2015-07-16T11:57:16Z</time>
      </trkpt>
      <trkpt lat="44.46736" lon="6.93119">
        <ele>1999.7574974984</ele>
        <time>2015-07-16T11:58:40Z</time>
      </trkpt>
      <trkpt lat="44.46739" lon="6.93119">
        <ele>1998.3412172904</ele>
        <time>2015-07-16T11:59:42Z</time>
      </trkpt>
      <trkpt lat="44.4674" lon="6.93115">
        <ele>1998.3412172904</ele>
        <time>2015-07-16T12:02:39Z</time>
      </trkpt>
      <trkpt lat="44.46731" lon="6.93117">
        <ele>1997.6831160917</ele>
        <time>2015-07-16T12:11:15Z</time>
      </trkpt>
      <trkpt lat="44.4674" lon="6.93113">
        <ele>1997.016072109</ele>
        <time>2015-07-16T12:12:21Z</time>
      </trkpt>
      <trkpt lat="44.46743" lon="6.93112">
        <ele>1997.016072109</ele>
        <time>2015-07-16T12:21:01Z</time>
      </trkpt>
      <trkpt lat="44.46757" lon="6.9314">
        <ele>1995.8308693743</ele>
        <time>2015-07-16T12:22:02Z</time>
      </trkpt>
      <trkpt lat="44.46755" lon="6.93142">
        <ele>1995.8308693743</ele>
        <time>2015-07-16T12:22:06Z</time>
      </trkpt>
      <trkpt lat="44.46753" lon="6.93144">
        <ele>1995.8308693743</ele>
        <time>2015-07-16T12:22:12Z</time>
      </trkpt>
      <trkpt lat="44.46754" lon="6.93146">
        <ele>1995.8308693743</ele>
        <time>2015-07-16T12:22:16Z</time>
      </trkpt>
      <trkpt lat="44.46758" lon="6.93148">
        <ele>1994.6945102688</ele>
        <time>2015-07-16T12:22:21Z</time>
      </trkpt>
      <trkpt lat="44.46752" lon="6.93172">
        <ele>1993.7140019187</ele>
        <time>2015-07-16T12:22:51Z</time>
      </trkpt>
      <trkpt lat="44.46742" lon="6.9319">
        <ele>1992.5842587494</ele>
        <time>2015-07-16T12:23:05Z</time>
      </trkpt>
      <trkpt lat="44.46742" lon="6.93189">
        <ele>1992.5842587494</ele>
        <time>2015-07-16T12:23:06Z</time>
      </trkpt>
      <trkpt lat="44.46713" lon="6.93219">
        <ele>1991.5703675278</ele>
        <time>2015-07-16T12:24:05Z</time>
      </trkpt>
      <trkpt lat="44.46707" lon="6.93221">
        <ele>1991.5703675278</ele>
        <time>2015-07-16T12:24:22Z</time>
      </trkpt>
      <trkpt lat="44.46687" lon="6.93234">
        <ele>1990.8452691644</ele>
        <time>2015-07-16T12:24:41Z</time>
      </trkpt>
      <trkpt lat="44.46686" lon="6.93235">
        <ele>1990.8452691644</ele>
        <time>2015-07-16T12:24:41Z</time>
      </trkpt>
      <trkpt lat="44.46674" lon="6.93246">
        <ele>1990.1645811921</ele>
        <time>2015-07-16T12:25:03Z</time>
      </trkpt>
      <trkpt lat="44.46671" lon="6.93251">
        <ele>1990.1645811921</ele>
        <time>2015-07-16T12:25:06Z</time>
      </trkpt>
      <trkpt lat="44.46665" lon="6.93259">
        <ele>1989.7193808844</ele>
        <time>2015-07-16T12:25:16Z</time>
      </trkpt>
      <trkpt lat="44.46653" lon="6.9326">
        <ele>1989.6281111975</ele>
        <time>2015-07-16T12:25:37Z</time>
      </trkpt>
      <trkpt lat="44.46649" lon="6.93268">
        <ele>1989.6281111975</ele>
        <time>2015-07-16T12:25:45Z</time>
      </trkpt>
      <trkpt lat="44.46648" lon="6.93271">
        <ele>1989.5813044214</ele>
        <time>2015-07-16T12:25:49Z</time>
      </trkpt>
      <trkpt lat="44.46643" lon="6.93278">
        <ele>1989.5813044214</ele>
        <time>2015-07-16T12:25:59Z</time>
      </trkpt>
      <trkpt lat="44.46637" lon="6.93292">
        <ele>1989.7962158779</ele>
        <time>2015-07-16T12:26:06Z</time>
      </trkpt>
      <trkpt lat="44.46628" lon="6.93305">
        <ele>1990.1560841124</ele>
        <time>2015-07-16T12:26:32Z</time>
      </trkpt>
      <trkpt lat="44.46592" lon="6.93343">
        <ele>1990.5520545583</ele>
        <time>2015-07-16T12:27:06Z</time>
      </trkpt>
      <trkpt lat="44.46587" lon="6.9335">
        <ele>1990.5520545583</ele>
        <time>2015-07-16T12:27:13Z</time>
      </trkpt>
      <trkpt lat="44.46567" lon="6.93366">
        <ele>1990.7243892632</ele>
        <time>2015-07-16T12:27:36Z</time>
      </trkpt>
      <trkpt lat="44.46565" lon="6.93369">
        <ele>1990.7243892632</ele>
        <time>2015-07-16T12:27:36Z</time>
      </trkpt>
      <trkpt lat="44.46545" lon="6.93376">
        <ele>1990.7354566365</ele>
        <time>2015-07-16T12:28:06Z</time>
      </trkpt>
      <trkpt lat="44.46542" lon="6.93377">
        <ele>1990.7354566365</ele>
        <time>2015-07-16T12:28:11Z</time>
      </trkpt>
      <trkpt lat="44.4651" lon="6.93396">
        <ele>1990.6576768309</ele>
        <time>2015-07-16T12:29:01Z</time>
      </trkpt>
      <trkpt lat="44.46504" lon="6.93397">
        <ele>1990.6576768309</ele>
        <time>2015-07-16T12:29:16Z</time>
      </trkpt>
      <trkpt lat="44.46499" lon="6.93399">
        <ele>1990.601412387</ele>
        <time>2015-07-16T12:29:16Z</time>
      </trkpt>
      <trkpt lat="44.46495" lon="6.93401">
        <ele>1990.601412387</ele>
        <time>2015-07-16T12:29:33Z</time>
      </trkpt>
      <trkpt lat="44.46495" lon="6.93398">
        <ele>1990.601412387</ele>
        <time>2015-07-16T12:30:00Z</time>
      </trkpt>
      <trkpt lat="44.46489" lon="6.93377">
        <ele>1990.5245304427</ele>
        <time>2015-07-16T12:30:12Z</time>
      </trkpt>
      <trkpt lat="44.46465" lon="6.93364">
        <ele>1990.4887266045</ele>
        <time>2015-07-16T12:30:31Z</time>
      </trkpt>
      <trkpt lat="44.46454" lon="6.93365">
        <ele>1990.4643833793</ele>
        <time>2015-07-16T12:30:50Z</time>
      </trkpt>
      <trkpt lat="44.46435" lon="6.93356">
        <ele>1990.5391303333</ele>
        <time>2015-07-16T12:30:52Z</time>
      </trkpt>
      <trkpt lat="44.46432" lon="6.93356">
        <ele>1990.5391303333</ele>
        <time>2015-07-16T12:31:04Z</time>
      </trkpt>
      <trkpt lat="44.4642" lon="6.93355">
        <ele>1990.6495870758</ele>
        <time>2015-07-16T12:31:11Z</time>
      </trkpt>
      <trkpt lat="44.46419" lon="6.93354">
        <ele>1990.6495870758</ele>
        <time>2015-07-16T12:31:16Z</time>
      </trkpt>
      <trkpt lat="44.46406" lon="6.93349">
        <ele>1990.9529303274</ele>
        <time>2015-07-16T12:31:38Z</time>
      </trkpt>
      <trkpt lat="44.46404" lon="6.93349">
        <ele>1990.9529303274</ele>
        <time>2015-07-16T12:31:44Z</time>
      </trkpt>
      <trkpt lat="44.46391" lon="6.93345">
        <ele>1991.4643850805</ele>
        <time>2015-07-16T12:32:00Z</time>
      </trkpt>
      <trkpt lat="44.4639" lon="6.93345">
        <ele>1991.4643850805</ele>
        <time>2015-07-16T12:32:06Z</time>
      </trkpt>
      <trkpt lat="44.46387" lon="6.93344">
        <ele>1991.4643850805</ele>
        <time>2015-07-16T12:32:06Z</time>
      </trkpt>
      <trkpt lat="44.46365" lon="6.93349">
        <ele>1992.2117354851</ele>
        <time>2015-07-16T12:32:35Z</time>
      </trkpt>
      <trkpt lat="44.46365" lon="6.93348">
        <ele>1992.2117354851</ele>
        <time>2015-07-16T12:32:36Z</time>
      </trkpt>
      <trkpt lat="44.46366" lon="6.93347">
        <ele>1992.2117354851</ele>
        <time>2015-07-16T12:32:48Z</time>
      </trkpt>
      <trkpt lat="44.46347" lon="6.93357">
        <ele>1993.7243249155</ele>
        <time>2015-07-16T12:33:16Z</time>
      </trkpt>
      <trkpt lat="44.46327" lon="6.93358">
        <ele>1995.3374289395</ele>
        <time>2015-07-16T12:33:36Z</time>
      </trkpt>
      <trkpt lat="44.46303" lon="6.93359">
        <ele>1997.0112244719</ele>
        <time>2015-07-16T12:34:06Z</time>
      </trkpt>
      <trkpt lat="44.46291" lon="6.93359">
        <ele>1998.780613113</ele>
        <time>2015-07-16T12:34:11Z</time>
      </trkpt>
      <trkpt lat="44.46226" lon="6.93339">
        <ele>2001.8737370961</ele>
        <time>2015-07-16T12:36:12Z</time>
      </trkpt>
      <trkpt lat="44.46226" lon="6.93328">
        <ele>2001.8737370961</ele>
        <time>2015-07-16T12:36:38Z</time>
      </trkpt>
      <trkpt lat="44.46206" lon="6.9331">
        <ele>2004.9171878287</ele>
        <time>2015-07-16T12:37:11Z</time>
      </trkpt>
      <trkpt lat="44.46197" lon="6.93306">
        <ele>2007.9788204362</ele>
        <time>2015-07-16T12:37:21Z</time>
      </trkpt>
      <trkpt lat="44.46193" lon="6.93302">
        <ele>2007.9788204362</ele>
        <time>2015-07-16T12:37:28Z</time>
      </trkpt>
      <trkpt lat="44.46191" lon="6.93301">
        <ele>2007.9788204362</ele>
        <time>2015-07-16T12:37:40Z</time>
      </trkpt>
      <trkpt lat="44.46173" lon="6.93279">
        <ele>2011.2511572243</ele>
        <time>2015-07-16T12:38:12Z</time>
      </trkpt>
      <trkpt lat="44.46153" lon="6.93237">
        <ele>2015.3587621063</ele>
        <time>2015-07-16T12:39:03Z</time>
      </trkpt>
      <trkpt lat="44.4615" lon="6.93231">
        <ele>2015.3587621063</ele>
        <time>2015-07-16T12:39:08Z</time>
      </trkpt>
      <trkpt lat="44.46146" lon="6.93226">
        <ele>2019.3216130877</ele>
        <time>2015-07-16T12:39:16Z</time>
      </trkpt>
      <trkpt lat="44.46135" lon="6.93193">
        <ele>2023.8462249713</ele>
        <time>2015-07-16T12:40:08Z</time>
      </trkpt>
      <trkpt lat="44.46132" lon="6.93189">
        <ele>2023.8462249713</ele>
        <time>2015-07-16T12:40:37Z</time>
      </trkpt>
      <trkpt lat="44.46126" lon="6.93182">
        <ele>2029.0092917285</ele>
        <time>2015-07-16T12:40:44Z</time>
      </trkpt>
      <trkpt lat="44.46114" lon="6.93172">
        <ele>2034.0731894506</ele>
        <time>2015-07-16T12:40:56Z</time>
      </trkpt>
      <trkpt lat="44.46111" lon="6.93169">
        <ele>2034.0731894506</ele>
        <time>2015-07-16T12:41:02Z</time>
      </trkpt>
      <trkpt lat="44.46107" lon="6.93166">
        <ele>2034.0731894506</ele>
        <time>2015-07-16T12:41:10Z</time>
      </trkpt>
      <trkpt lat="44.46105" lon="6.93164">
        <ele>2038.6431435711</ele>
        <time>2015-07-16T12:41:13Z</time>
      </trkpt>
      <trkpt lat="44.46089" lon="6.93152">
        <ele>2042.513472372</ele>
        <time>2015-07-16T12:41:36Z</time>
      </trkpt>
      <trkpt lat="44.46066" lon="6.93142">
        <ele>2045.7263472303</ele>
        <time>2015-07-16T12:42:02Z</time>
      </trkpt>
      <trkpt lat="44.46063" lon="6.93142">
        <ele>2045.7263472303</ele>
        <time>2015-07-16T12:42:18Z</time>
      </trkpt>
      <trkpt lat="44.46042" lon="6.9313">
        <ele>2047.9049764798</ele>
        <time>2015-07-16T12:42:41Z</time>
      </trkpt>
      <trkpt lat="44.46022" lon="6.93102">
        <ele>2050.14448271</ele>
        <time>2015-07-16T12:43:02Z</time>
      </trkpt>
      <trkpt lat="44.46013" lon="6.93093">
        <ele>2052.1914081902</ele>
        <time>2015-07-16T12:43:09Z</time>
      </trkpt>
      <trkpt lat="44.46012" lon="6.93093">
        <ele>2052.1914081902</ele>
        <time>2015-07-16T12:43:11Z</time>
      </trkpt>
      <trkpt lat="44.46009" lon="6.93089">
        <ele>2052.1914081902</ele>
        <time>2015-07-16T12:43:16Z</time>
      </trkpt>
      <trkpt lat="44.46008" lon="6.93087">
        <ele>2052.1914081902</ele>
        <time>2015-07-16T12:43:21Z</time>
      </trkpt>
      <trkpt lat="44.45984" lon="6.9307">
        <ele>2054.0566587798</ele>
        <time>2015-07-16T12:44:07Z</time>
      </trkpt>
      <trkpt lat="44.45982" lon="6.93069">
        <ele>2054.0566587798</ele>
        <time>2015-07-16T12:44:07Z</time>
      </trkpt>
      <trkpt lat="44.45975" lon="6.9307">
        <ele>2055.6213565034</ele>
        <time>2015-07-16T12:44:20Z</time>
      </trkpt>
      <trkpt lat="44.4596" lon="6.93061">
        <ele>2057.1366769025</ele>
        <time>2015-07-16T12:44:37Z</time>
      </trkpt>
      <trkpt lat="44.45928" lon="6.93086">
        <ele>2058.7347948139</ele>
        <time>2015-07-16T12:46:01Z</time>
      </trkpt>
      <trkpt lat="44.45928" lon="6.93091">
        <ele>2058.7347948139</ele>
        <time>2015-07-16T12:46:11Z</time>
      </trkpt>
      <trkpt lat="44.4593" lon="6.93097">
        <ele>2058.7347948139</ele>
        <time>2015-07-16T12:46:20Z</time>
      </trkpt>
      <trkpt lat="44.45929" lon="6.93106">
        <ele>2060.4228343112</ele>
        <time>2015-07-16T12:46:49Z</time>
      </trkpt>
      <trkpt lat="44.45924" lon="6.93108">
        <ele>2060.4228343112</ele>
        <time>2015-07-16T12:46:54Z</time>
      </trkpt>
      <trkpt lat="44.45917" lon="6.93108">
        <ele>2062.3658366722</ele>
        <time>2015-07-16T12:47:08Z</time>
      </trkpt>
      <trkpt lat="44.45915" lon="6.93109">
        <ele>2062.3658366722</ele>
        <time>2015-07-16T12:47:19Z</time>
      </trkpt>
      <trkpt lat="44.45908" lon="6.93131">
        <ele>2064.7305776566</ele>
        <time>2015-07-16T12:47:59Z</time>
      </trkpt>
      <trkpt lat="44.45908" lon="6.93132">
        <ele>2064.7305776566</ele>
        <time>2015-07-16T12:48:01Z</time>
      </trkpt>
      <trkpt lat="44.45908" lon="6.93132">
        <ele>2064.7305776566</ele>
        <time>2015-07-16T12:48:11Z</time>
      </trkpt>
      <trkpt lat="44.45911" lon="6.93134">
        <ele>2064.7305776566</ele>
        <time>2015-07-16T12:48:37Z</time>
      </trkpt>
      <trkpt lat="44.45908" lon="6.93134">
        <ele>2064.7305776566</ele>
        <time>2015-07-16T12:48:51Z</time>
      </trkpt>
      <trkpt lat="44.45901" lon="6.93138">
        <ele>2067.3967438788</ele>
        <time>2015-07-16T12:49:08Z</time>
      </trkpt>
      <trkpt lat="44.45904" lon="6.93145">
        <ele>2067.3967438788</ele>
        <time>2015-07-16T12:49:11Z</time>
      </trkpt>
      <trkpt lat="44.45892" lon="6.93159">
        <ele>2070.5692124596</ele>
        <time>2015-07-16T12:50:06Z</time>
      </trkpt>
      <trkpt lat="44.45885" lon="6.93156">
        <ele>2070.5692124596</ele>
        <time>2015-07-16T12:50:11Z</time>
      </trkpt>
      <trkpt lat="44.45874" lon="6.93179">
        <ele>2074.4653658859</ele>
        <time>2015-07-16T12:51:11Z</time>
      </trkpt>
      <trkpt lat="44.45872" lon="6.9318">
        <ele>2074.4653658859</ele>
        <time>2015-07-16T12:51:24Z</time>
      </trkpt>
      <trkpt lat="44.45862" lon="6.93172">
        <ele>2078.3768436889</ele>
        <time>2015-07-16T12:51:49Z</time>
      </trkpt>
      <trkpt lat="44.45857" lon="6.93158">
        <ele>2082.0365398171</ele>
        <time>2015-07-16T12:52:11Z</time>
      </trkpt>
      <trkpt lat="44.45857" lon="6.93159">
        <ele>2082.0365398171</ele>
        <time>2015-07-16T12:52:19Z</time>
      </trkpt>
      <trkpt lat="44.45849" lon="6.93169">
        <ele>2085.6013544663</ele>
        <time>2015-07-16T12:52:31Z</time>
      </trkpt>
      <trkpt lat="44.45848" lon="6.93174">
        <ele>2085.6013544663</ele>
        <time>2015-07-16T12:52:36Z</time>
      </trkpt>
      <trkpt lat="44.45846" lon="6.93179">
        <ele>2085.6013544663</ele>
        <time>2015-07-16T12:52:41Z</time>
      </trkpt>
      <trkpt lat="44.45848" lon="6.93183">
        <ele>2089.2026892918</ele>
        <time>2015-07-16T12:53:03Z</time>
      </trkpt>
      <trkpt lat="44.45831" lon="6.93191">
        <ele>2093.2217675672</ele>
        <time>2015-07-16T12:53:53Z</time>
      </trkpt>
      <trkpt lat="44.4583" lon="6.93189">
        <ele>2093.2217675672</ele>
        <time>2015-07-16T12:54:04Z</time>
      </trkpt>
      <trkpt lat="44.45824" lon="6.93197">
        <ele>2097.2470267142</ele>
        <time>2015-07-16T12:54:46Z</time>
      </trkpt>
      <trkpt lat="44.45814" lon="6.93213">
        <ele>2101.5458046661</ele>
        <time>2015-07-16T12:55:09Z</time>
      </trkpt>
      <trkpt lat="44.4581" lon="6.93221">
        <ele>2101.5458046661</ele>
        <time>2015-07-16T12:55:52Z</time>
      </trkpt>
      <trkpt lat="44.45804" lon="6.93233">
        <ele>2107.0425471109</ele>
        <time>2015-07-16T12:56:08Z</time>
      </trkpt>
      <trkpt lat="44.458" lon="6.93228">
        <ele>2107.0425471109</ele>
        <time>2015-07-16T12:56:12Z</time>
      </trkpt>
      <trkpt lat="44.45792" lon="6.93238">
        <ele>2112.7171825851</ele>
        <time>2015-07-16T12:56:56Z</time>
      </trkpt>
      <trkpt lat="44.45786" lon="6.93234">
        <ele>2112.7171825851</ele>
        <time>2015-07-16T12:57:17Z</time>
      </trkpt>
      <trkpt lat="44.4578" lon="6.93247">
        <ele>2118.7195301934</ele>
        <time>2015-07-16T12:57:29Z</time>
      </trkpt>
      <trkpt lat="44.4578" lon="6.93246">
        <ele>2118.7195301934</ele>
        <time>2015-07-16T12:57:36Z</time>
      </trkpt>
      <trkpt lat="44.45768" lon="6.93264">
        <ele>2124.9715409723</ele>
        <time>2015-07-16T12:58:14Z</time>
      </trkpt>
      <trkpt lat="44.45766" lon="6.93265">
        <ele>2124.9715409723</ele>
        <time>2015-07-16T12:58:16Z</time>
      </trkpt>
      <trkpt lat="44.45752" lon="6.93253">
        <ele>2131.2130930071</ele>
        <time>2015-07-16T12:58:57Z</time>
      </trkpt>
      <trkpt lat="44.45752" lon="6.9324">
        <ele>2131.2130930071</ele>
        <time>2015-07-16T12:59:06Z</time>
      </trkpt>
      <trkpt lat="44.45749" lon="6.93227">
        <ele>2137.0161097756</ele>
        <time>2015-07-16T12:59:17Z</time>
      </trkpt>
      <trkpt lat="44.45749" lon="6.93223">
        <ele>2137.0161097756</ele>
        <time>2015-07-16T12:59:24Z</time>
      </trkpt>
      <trkpt lat="44.45752" lon="6.932">
        <ele>2142.3889664891</ele>
        <time>2015-07-16T13:00:01Z</time>
      </trkpt>
      <trkpt lat="44.45748" lon="6.93198">
        <ele>2142.3889664891</ele>
        <time>2015-07-16T13:00:12Z</time>
      </trkpt>
      <trkpt lat="44.45742" lon="6.93198">
        <ele>2148.1335146921</ele>
        <time>2015-07-16T13:00:37Z</time>
      </trkpt>
      <trkpt lat="44.45736" lon="6.93194">
        <ele>2148.1335146921</ele>
        <time>2015-07-16T13:00:49Z</time>
      </trkpt>
      <trkpt lat="44.45736" lon="6.93194">
        <ele>2148.1335146921</ele>
        <time>2015-07-16T13:00:58Z</time>
      </trkpt>
      <trkpt lat="44.45731" lon="6.93191">
        <ele>2154.0552160851</ele>
        <time>2015-07-16T13:01:09Z</time>
      </trkpt>
      <trkpt lat="44.45729" lon="6.93188">
        <ele>2154.0552160851</ele>
        <time>2015-07-16T13:01:13Z</time>
      </trkpt>
      <trkpt lat="44.45728" lon="6.93188">
        <ele>2154.0552160851</ele>
        <time>2015-07-16T13:01:16Z</time>
      </trkpt>
      <trkpt lat="44.45725" lon="6.93186">
        <ele>2154.0552160851</ele>
        <time>2015-07-16T13:01:24Z</time>
      </trkpt>
      <trkpt lat="44.45717" lon="6.93185">
        <ele>2159.5845096087</ele>
        <time>2015-07-16T13:01:26Z</time>
      </trkpt>
      <trkpt lat="44.45714" lon="6.93184">
        <ele>2159.5845096087</ele>
        <time>2015-07-16T13:01:31Z</time>
      </trkpt>
      <trkpt lat="44.45704" lon="6.93188">
        <ele>2166.4287882571</ele>
        <time>2015-07-16T13:02:16Z</time>
      </trkpt>
      <trkpt lat="44.4569" lon="6.93189">
        <ele>2173.1258794296</ele>
        <time>2015-07-16T13:02:47Z</time>
      </trkpt>
      <trkpt lat="44.45673" lon="6.93189">
        <ele>2179.604324714</ele>
        <time>2015-07-16T13:03:13Z</time>
      </trkpt>
      <trkpt lat="44.45669" lon="6.9319">
        <ele>2179.604324714</ele>
        <time>2015-07-16T13:03:18Z</time>
      </trkpt>
      <trkpt lat="44.45656" lon="6.93191">
        <ele>2185.7267788777</ele>
        <time>2015-07-16T13:03:35Z</time>
      </trkpt>
      <trkpt lat="44.45655" lon="6.93191">
        <ele>2185.7267788777</ele>
        <time>2015-07-16T13:03:36Z</time>
      </trkpt>
      <trkpt lat="44.45651" lon="6.9319">
        <ele>2185.7267788777</ele>
        <time>2015-07-16T13:03:46Z</time>
      </trkpt>
      <trkpt lat="44.45638" lon="6.9319">
        <ele>2191.6266952326</ele>
        <time>2015-07-16T13:04:00Z</time>
      </trkpt>
      <trkpt lat="44.45635" lon="6.93187">
        <ele>2191.6266952326</ele>
        <time>2015-07-16T13:04:04Z</time>
      </trkpt>
      <trkpt lat="44.45626" lon="6.93184">
        <ele>2197.1404365083</ele>
        <time>2015-07-16T13:04:16Z</time>
      </trkpt>
      <trkpt lat="44.45605" lon="6.93147">
        <ele>2203.3859580975</ele>
        <time>2015-07-16T13:05:14Z</time>
      </trkpt>
      <trkpt lat="44.45596" lon="6.93136">
        <ele>2209.7977111705</ele>
        <time>2015-07-16T13:05:51Z</time>
      </trkpt>
      <trkpt lat="44.45584" lon="6.93148">
        <ele>2216.182986352</ele>
        <time>2015-07-16T13:06:14Z</time>
      </trkpt>
      <trkpt lat="44.45582" lon="6.93149">
        <ele>2216.182986352</ele>
        <time>2015-07-16T13:06:18Z</time>
      </trkpt>
      <trkpt lat="44.45567" lon="6.93163">
        <ele>2222.7815307807</ele>
        <time>2015-07-16T13:07:07Z</time>
      </trkpt>
      <trkpt lat="44.45565" lon="6.93165">
        <ele>2222.7815307807</ele>
        <time>2015-07-16T13:07:16Z</time>
      </trkpt>
      <trkpt lat="44.45536" lon="6.93154">
        <ele>2229.8440071939</ele>
        <time>2015-07-16T13:08:15Z</time>
      </trkpt>
      <trkpt lat="44.45538" lon="6.93154">
        <ele>2229.8440071939</ele>
        <time>2015-07-16T13:08:22Z</time>
      </trkpt>
      <trkpt lat="44.45531" lon="6.93148">
        <ele>2237.068455793</ele>
        <time>2015-07-16T13:08:56Z</time>
      </trkpt>
      <trkpt lat="44.45518" lon="6.93144">
        <ele>2243.3391027205</ele>
        <time>2015-07-16T13:09:06Z</time>
      </trkpt>
      <trkpt lat="44.45515" lon="6.93139">
        <ele>2243.3391027205</ele>
        <time>2015-07-16T13:09:19Z</time>
      </trkpt>
      <trkpt lat="44.45508" lon="6.93107">
        <ele>2251.2855432287</ele>
        <time>2015-07-16T13:10:16Z</time>
      </trkpt>
      <trkpt lat="44.45507" lon="6.93103">
        <ele>2251.2855432287</ele>
        <time>2015-07-16T13:10:24Z</time>
      </trkpt>
      <trkpt lat="44.45502" lon="6.93104">
        <ele>2251.2855432287</ele>
        <time>2015-07-16T13:10:33Z</time>
      </trkpt>
      <trkpt lat="44.45501" lon="6.93102">
        <ele>2259.7514423788</ele>
        <time>2015-07-16T13:10:49Z</time>
      </trkpt>
      <trkpt lat="44.45493" lon="6.93069">
        <ele>2268.8747990318</ele>
        <time>2015-07-16T13:11:03Z</time>
      </trkpt>
      <trkpt lat="44.45499" lon="6.93059">
        <ele>2277.3264276487</ele>
        <time>2015-07-16T13:11:16Z</time>
      </trkpt>
      <trkpt lat="44.45497" lon="6.92999">
        <ele>2286.0530767781</ele>
        <time>2015-07-16T13:12:16Z</time>
      </trkpt>
      <trkpt lat="44.45492" lon="6.92994">
        <ele>2286.0530767781</ele>
        <time>2015-07-16T13:12:21Z</time>
      </trkpt>
      <trkpt lat="44.45482" lon="6.92947">
        <ele>2294.5768689811</ele>
        <time>2015-07-16T13:13:03Z</time>
      </trkpt>
      <trkpt lat="44.45483" lon="6.92945">
        <ele>2294.5768689811</ele>
        <time>2015-07-16T13:13:07Z</time>
      </trkpt>
      <trkpt lat="44.45485" lon="6.92932">
        <ele>2302.2397770905</ele>
        <time>2015-07-16T13:13:17Z</time>
      </trkpt>
      <trkpt lat="44.4549" lon="6.92925">
        <ele>2302.2397770905</ele>
        <time>2015-07-16T13:13:21Z</time>
      </trkpt>
      <trkpt lat="44.45476" lon="6.92905">
        <ele>2309.38600523</ele>
        <time>2015-07-16T13:13:46Z</time>
      </trkpt>
      <trkpt lat="44.45489" lon="6.9289">
        <ele>2316.2786185248</ele>
        <time>2015-07-16T13:14:08Z</time>
      </trkpt>
      <trkpt lat="44.45482" lon="6.92884">
        <ele>2316.2786185248</ele>
        <time>2015-07-16T13:14:15Z</time>
      </trkpt>
      <trkpt lat="44.45482" lon="6.92884">
        <ele>2316.2786185248</ele>
        <time>2015-07-16T13:14:16Z</time>
      </trkpt>
      <trkpt lat="44.45486" lon="6.9288">
        <ele>2323.5659146399</ele>
        <time>2015-07-16T13:14:34Z</time>
      </trkpt>
      <trkpt lat="44.45494" lon="6.92872">
        <ele>2330.2337393746</ele>
        <time>2015-07-16T13:14:52Z</time>
      </trkpt>
      <trkpt lat="44.45507" lon="6.92847">
        <ele>2336.4253205903</ele>
        <time>2015-07-16T13:15:16Z</time>
      </trkpt>
      <trkpt lat="44.45511" lon="6.92823">
        <ele>2341.957952208</ele>
        <time>2015-07-16T13:15:36Z</time>
      </trkpt>
      <trkpt lat="44.45511" lon="6.92822">
        <ele>2341.957952208</ele>
        <time>2015-07-16T13:15:41Z</time>
      </trkpt>
      <trkpt lat="44.45514" lon="6.92818">
        <ele>2341.957952208</ele>
        <time>2015-07-16T13:16:14Z</time>
      </trkpt>
      <trkpt lat="44.45516" lon="6.92814">
        <ele>2341.957952208</ele>
        <time>2015-07-16T13:16:16Z</time>
      </trkpt>
      <trkpt lat="44.45517" lon="6.92809">
        <ele>2347.0535760752</ele>
        <time>2015-07-16T13:16:21Z</time>
      </trkpt>
      <trkpt lat="44.4552" lon="6.92804">
        <ele>2347.0535760752</ele>
        <time>2015-07-16T13:16:27Z</time>
      </trkpt>
      <trkpt lat="44.45522" lon="6.92799">
        <ele>2347.0535760752</ele>
        <time>2015-07-16T13:16:38Z</time>
      </trkpt>
      <trkpt lat="44.45523" lon="6.92784">
        <ele>2351.5590335645</ele>
        <time>2015-07-16T13:16:41Z</time>
      </trkpt>
      <trkpt lat="44.45529" lon="6.92767">
        <ele>2355.3487124559</ele>
        <time>2015-07-16T13:17:08Z</time>
      </trkpt>
      <trkpt lat="44.45527" lon="6.92763">
        <ele>2355.3487124559</ele>
        <time>2015-07-16T13:17:16Z</time>
      </trkpt>
      <trkpt lat="44.45524" lon="6.92755">
        <ele>2358.2652007032</ele>
        <time>2015-07-16T13:17:16Z</time>
      </trkpt>
      <trkpt lat="44.4552" lon="6.92747">
        <ele>2358.2652007032</ele>
        <time>2015-07-16T13:17:21Z</time>
      </trkpt>
      <trkpt lat="44.45519" lon="6.92739">
        <ele>2360.539952007</ele>
        <time>2015-07-16T13:17:26Z</time>
      </trkpt>
      <trkpt lat="44.45519" lon="6.92732">
        <ele>2360.539952007</ele>
        <time>2015-07-16T13:17:31Z</time>
      </trkpt>
      <trkpt lat="44.45518" lon="6.92722">
        <ele>2362.1731766092</ele>
        <time>2015-07-16T13:17:39Z</time>
      </trkpt>
      <trkpt lat="44.45518" lon="6.92721">
        <ele>2362.1731766092</ele>
        <time>2015-07-16T13:17:46Z</time>
      </trkpt>
      <trkpt lat="44.45512" lon="6.92716">
        <ele>2362.1731766092</ele>
        <time>2015-07-16T13:17:52Z</time>
      </trkpt>
      <trkpt lat="44.45506" lon="6.92704">
        <ele>2363.2390084341</ele>
        <time>2015-07-16T13:17:56Z</time>
      </trkpt>
      <trkpt lat="44.45503" lon="6.92699">
        <ele>2363.2390084341</ele>
        <time>2015-07-16T13:18:01Z</time>
      </trkpt>
      <trkpt lat="44.455" lon="6.92688">
        <ele>2363.8654116092</ele>
        <time>2015-07-16T13:18:12Z</time>
      </trkpt>
      <trkpt lat="44.45497" lon="6.92681">
        <ele>2363.8654116092</ele>
        <time>2015-07-16T13:18:17Z</time>
      </trkpt>
      <trkpt lat="44.45496" lon="6.92673">
        <ele>2364.0857106007</ele>
        <time>2015-07-16T13:18:27Z</time>
      </trkpt>
      <trkpt lat="44.45492" lon="6.92661">
        <ele>2363.8454027441</ele>
        <time>2015-07-16T13:18:37Z</time>
      </trkpt>
      <trkpt lat="44.45491" lon="6.92656">
        <ele>2363.8454027441</ele>
        <time>2015-07-16T13:18:41Z</time>
      </trkpt>
      <trkpt lat="44.4549" lon="6.92639">
        <ele>2363.2104722367</ele>
        <time>2015-07-16T13:19:08Z</time>
      </trkpt>
      <trkpt lat="44.45489" lon="6.92633">
        <ele>2363.2104722367</ele>
        <time>2015-07-16T13:19:18Z</time>
      </trkpt>
      <trkpt lat="44.45489" lon="6.9263">
        <ele>2363.2104722367</ele>
        <time>2015-07-16T13:19:21Z</time>
      </trkpt>
      <trkpt lat="44.45494" lon="6.92625">
        <ele>2362.2286081565</ele>
        <time>2015-07-16T13:19:26Z</time>
      </trkpt>
      <trkpt lat="44.45504" lon="6.926">
        <ele>2360.9736027644</ele>
        <time>2015-07-16T13:19:52Z</time>
      </trkpt>
      <trkpt lat="44.45512" lon="6.92578">
        <ele>2359.4999495523</ele>
        <time>2015-07-16T13:20:08Z</time>
      </trkpt>
      <trkpt lat="44.45513" lon="6.92562">
        <ele>2357.815243364</ele>
        <time>2015-07-16T13:20:17Z</time>
      </trkpt>
      <trkpt lat="44.45504" lon="6.92546">
        <ele>2355.9556193872</ele>
        <time>2015-07-16T13:20:21Z</time>
      </trkpt>
      <trkpt lat="44.45499" lon="6.9254">
        <ele>2355.9556193872</ele>
        <time>2015-07-16T13:20:33Z</time>
      </trkpt>
      <trkpt lat="44.45497" lon="6.92537">
        <ele>2353.9835171626</ele>
        <time>2015-07-16T13:20:50Z</time>
      </trkpt>
      <trkpt lat="44.45492" lon="6.92514">
        <ele>2351.79819291</ele>
        <time>2015-07-16T13:20:53Z</time>
      </trkpt>
      <trkpt lat="44.45491" lon="6.92513">
        <ele>2351.79819291</ele>
        <time>2015-07-16T13:21:02Z</time>
      </trkpt>
      <trkpt lat="44.45491" lon="6.92512">
        <ele>2351.79819291</ele>
        <time>2015-07-16T13:21:13Z</time>
      </trkpt>
      <trkpt lat="44.4549" lon="6.92501">
        <ele>2349.2488337394</ele>
        <time>2015-07-16T13:21:16Z</time>
      </trkpt>
      <trkpt lat="44.45493" lon="6.92458">
        <ele>2346.5421386509</ele>
        <time>2015-07-16T13:21:52Z</time>
      </trkpt>
      <trkpt lat="44.4549" lon="6.92446">
        <ele>2346.5421386509</ele>
        <time>2015-07-16T13:22:08Z</time>
      </trkpt>
      <trkpt lat="44.45483" lon="6.92428">
        <ele>2343.6822353137</ele>
        <time>2015-07-16T13:22:18Z</time>
      </trkpt>
      <trkpt lat="44.45477" lon="6.92422">
        <ele>2343.6822353137</ele>
        <time>2015-07-16T13:22:21Z</time>
      </trkpt>
      <trkpt lat="44.45475" lon="6.9242">
        <ele>2340.8025665311</ele>
        <time>2015-07-16T13:22:26Z</time>
      </trkpt>
      <trkpt lat="44.45472" lon="6.92418">
        <ele>2340.8025665311</ele>
        <time>2015-07-16T13:22:31Z</time>
      </trkpt>
      <trkpt lat="44.45464" lon="6.92416">
        <ele>2337.9974695039</ele>
        <time>2015-07-16T13:22:40Z</time>
      </trkpt>
      <trkpt lat="44.45463" lon="6.92416">
        <ele>2337.9974695039</ele>
        <time>2015-07-16T13:22:50Z</time>
      </trkpt>
      <trkpt lat="44.45459" lon="6.92395">
        <ele>2335.1950621714</ele>
        <time>2015-07-16T13:22:56Z</time>
      </trkpt>
      <trkpt lat="44.4546" lon="6.92383">
        <ele>2335.1950621714</ele>
        <time>2015-07-16T13:23:06Z</time>
      </trkpt>
      <trkpt lat="44.45459" lon="6.92377">
        <ele>2332.5010927145</ele>
        <time>2015-07-16T13:23:11Z</time>
      </trkpt>
      <trkpt lat="44.45456" lon="6.92369">
        <ele>2332.5010927145</ele>
        <time>2015-07-16T13:23:21Z</time>
      </trkpt>
      <trkpt lat="44.45446" lon="6.92357">
        <ele>2329.9117684511</ele>
        <time>2015-07-16T13:23:40Z</time>
      </trkpt>
      <trkpt lat="44.45439" lon="6.92344">
        <ele>2327.4515023133</ele>
        <time>2015-07-16T13:24:00Z</time>
      </trkpt>
      <trkpt lat="44.45432" lon="6.92334">
        <ele>2325.0987092465</ele>
        <time>2015-07-16T13:24:00Z</time>
      </trkpt>
      <trkpt lat="44.45432" lon="6.92333">
        <ele>2325.0987092465</ele>
        <time>2015-07-16T13:24:05Z</time>
      </trkpt>
      <trkpt lat="44.45428" lon="6.92332">
        <ele>2325.0987092465</ele>
        <time>2015-07-16T13:24:08Z</time>
      </trkpt>
      <trkpt lat="44.45423" lon="6.92328">
        <ele>2322.9333528612</ele>
        <time>2015-07-16T13:24:11Z</time>
      </trkpt>
      <trkpt lat="44.45417" lon="6.92321">
        <ele>2322.9333528612</ele>
        <time>2015-07-16T13:24:22Z</time>
      </trkpt>
      <trkpt lat="44.45417" lon="6.9232">
        <ele>2322.9333528612</ele>
        <time>2015-07-16T13:24:35Z</time>
      </trkpt>
      <trkpt lat="44.45405" lon="6.92309">
        <ele>2321.2445501535</ele>
        <time>2015-07-16T13:25:06Z</time>
      </trkpt>
      <trkpt lat="44.45401" lon="6.92305">
        <ele>2321.2445501535</ele>
        <time>2015-07-16T13:25:17Z</time>
      </trkpt>
      <trkpt lat="44.45391" lon="6.92296">
        <ele>2319.7794326945</ele>
        <time>2015-07-16T13:25:23Z</time>
      </trkpt>
      <trkpt lat="44.4539" lon="6.92294">
        <ele>2319.7794326945</ele>
        <time>2015-07-16T13:25:26Z</time>
      </trkpt>
      <trkpt lat="44.45389" lon="6.92292">
        <ele>2319.7794326945</ele>
        <time>2015-07-16T13:25:37Z</time>
      </trkpt>
      <trkpt lat="44.45383" lon="6.92281">
        <ele>2318.5906998178</ele>
        <time>2015-07-16T13:26:08Z</time>
      </trkpt>
      <trkpt lat="44.45369" lon="6.92264">
        <ele>2317.5672902691</ele>
        <time>2015-07-16T13:26:21Z</time>
      </trkpt>
      <trkpt lat="44.45366" lon="6.92261">
        <ele>2317.5672902691</ele>
        <time>2015-07-16T13:26:26Z</time>
      </trkpt>
      <trkpt lat="44.45364" lon="6.92253">
        <ele>2316.6629042553</ele>
        <time>2015-07-16T13:27:00Z</time>
      </trkpt>
      <trkpt lat="44.45376" lon="6.92246">
        <ele>2316.0210925146</ele>
        <time>2015-07-16T13:27:23Z</time>
      </trkpt>
      <trkpt lat="44.45378" lon="6.92248">
        <ele>2316.0210925146</ele>
        <time>2015-07-16T13:27:26Z</time>
      </trkpt>
      <trkpt lat="44.4538" lon="6.9224">
        <ele>2316.0210925146</ele>
        <time>2015-07-16T13:27:52Z</time>
      </trkpt>
      <trkpt lat="44.45382" lon="6.9222">
        <ele>2316.1770936621</ele>
        <time>2015-07-16T13:28:24Z</time>
      </trkpt>
      <trkpt lat="44.4538" lon="6.92219">
        <ele>2316.1770936621</ele>
        <time>2015-07-16T13:28:26Z</time>
      </trkpt>
      <trkpt lat="44.45377" lon="6.92215">
        <ele>2316.1770936621</ele>
        <time>2015-07-16T13:28:31Z</time>
      </trkpt>
      <trkpt lat="44.45376" lon="6.92212">
        <ele>2316.1770936621</ele>
        <time>2015-07-16T13:28:42Z</time>
      </trkpt>
      <trkpt lat="44.45367" lon="6.92192">
        <ele>2316.5432366957</ele>
        <time>2015-07-16T13:29:17Z</time>
      </trkpt>
      <trkpt lat="44.45373" lon="6.92184">
        <ele>2316.5432366957</ele>
        <time>2015-07-16T13:29:24Z</time>
      </trkpt>
      <trkpt lat="44.45374" lon="6.92183">
        <ele>2316.9198031148</ele>
        <time>2015-07-16T13:29:26Z</time>
      </trkpt>
      <trkpt lat="44.45373" lon="6.92173">
        <ele>2316.9198031148</ele>
        <time>2015-07-16T13:29:42Z</time>
      </trkpt>
      <trkpt lat="44.45377" lon="6.92154">
        <ele>2318.288550503</ele>
        <time>2015-07-16T13:30:26Z</time>
      </trkpt>
      <trkpt lat="44.45393" lon="6.92129">
        <ele>2320.1724316401</ele>
        <time>2015-07-16T13:31:16Z</time>
      </trkpt>
      <trkpt lat="44.45401" lon="6.92127">
        <ele>2320.1724316401</ele>
        <time>2015-07-16T13:31:26Z</time>
      </trkpt>
      <trkpt lat="44.45404" lon="6.92123">
        <ele>2322.6752197947</ele>
        <time>2015-07-16T13:31:31Z</time>
      </trkpt>
      <trkpt lat="44.45405" lon="6.92112">
        <ele>2322.6752197947</ele>
        <time>2015-07-16T13:31:44Z</time>
      </trkpt>
      <trkpt lat="44.45403" lon="6.9211">
        <ele>2325.2136429455</ele>
        <time>2015-07-16T13:31:44Z</time>
      </trkpt>
      <trkpt lat="44.45402" lon="6.92101">
        <ele>2325.2136429455</ele>
        <time>2015-07-16T13:31:46Z</time>
      </trkpt>
      <trkpt lat="44.45403" lon="6.92094">
        <ele>2327.6503625076</ele>
        <time>2015-07-16T13:31:51Z</time>
      </trkpt>
      <trkpt lat="44.45405" lon="6.92087">
        <ele>2327.6503625076</ele>
        <time>2015-07-16T13:31:56Z</time>
      </trkpt>
      <trkpt lat="44.45427" lon="6.92074">
        <ele>2330.2184061565</ele>
        <time>2015-07-16T13:32:26Z</time>
      </trkpt>
      <trkpt lat="44.45425" lon="6.92078">
        <ele>2330.2184061565</ele>
        <time>2015-07-16T13:32:31Z</time>
      </trkpt>
      <trkpt lat="44.45434" lon="6.92059">
        <ele>2333.1907121658</ele>
        <time>2015-07-16T13:33:11Z</time>
      </trkpt>
      <trkpt lat="44.45442" lon="6.92039">
        <ele>2336.0262126714</ele>
        <time>2015-07-16T13:33:26Z</time>
      </trkpt>
      <trkpt lat="44.45446" lon="6.92033">
        <ele>2336.0262126714</ele>
        <time>2015-07-16T13:33:32Z</time>
      </trkpt>
      <trkpt lat="44.45448" lon="6.92027">
        <ele>2338.7137723095</ele>
        <time>2015-07-16T13:33:38Z</time>
      </trkpt>
      <trkpt lat="44.45463" lon="6.92013">
        <ele>2341.6180357238</ele>
        <time>2015-07-16T13:34:01Z</time>
      </trkpt>
      <trkpt lat="44.45463" lon="6.92015">
        <ele>2341.6180357238</ele>
        <time>2015-07-16T13:34:24Z</time>
      </trkpt>
      <trkpt lat="44.45473" lon="6.92001">
        <ele>2344.8887989925</ele>
        <time>2015-07-16T13:34:26Z</time>
      </trkpt>
      <trkpt lat="44.45476" lon="6.91993">
        <ele>2344.8887989925</ele>
        <time>2015-07-16T13:34:31Z</time>
      </trkpt>
      <trkpt lat="44.45479" lon="6.91987">
        <ele>2348.0296580144</ele>
        <time>2015-07-16T13:34:41Z</time>
      </trkpt>
      <trkpt lat="44.45485" lon="6.9198">
        <ele>2348.0296580144</ele>
        <time>2015-07-16T13:34:49Z</time>
      </trkpt>
      <trkpt lat="44.45488" lon="6.91956">
        <ele>2351.1142001994</ele>
        <time>2015-07-16T13:34:56Z</time>
      </trkpt>
      <trkpt lat="44.45489" lon="6.9195">
        <ele>2351.1142001994</ele>
        <time>2015-07-16T13:35:01Z</time>
      </trkpt>
      <trkpt lat="44.45487" lon="6.91935">
        <ele>2354.1819210157</ele>
        <time>2015-07-16T13:35:27Z</time>
      </trkpt>
      <trkpt lat="44.45489" lon="6.91932">
        <ele>2354.1819210157</ele>
        <time>2015-07-16T13:35:38Z</time>
      </trkpt>
      <trkpt lat="44.45505" lon="6.91899">
        <ele>2357.0965319569</ele>
        <time>2015-07-16T13:35:56Z</time>
      </trkpt>
      <trkpt lat="44.4551" lon="6.91885">
        <ele>2359.8042675507</ele>
        <time>2015-07-16T13:36:09Z</time>
      </trkpt>
      <trkpt lat="44.45534" lon="6.91862">
        <ele>2362.3279939673</ele>
        <time>2015-07-16T13:36:33Z</time>
      </trkpt>
      <trkpt lat="44.45539" lon="6.9186">
        <ele>2362.3279939673</ele>
        <time>2015-07-16T13:36:38Z</time>
      </trkpt>
      <trkpt lat="44.45541" lon="6.91862">
        <ele>2362.3279939673</ele>
        <time>2015-07-16T13:36:41Z</time>
      </trkpt>
      <trkpt lat="44.45541" lon="6.91861">
        <ele>2362.3279939673</ele>
        <time>2015-07-16T13:37:04Z</time>
      </trkpt>
      <trkpt lat="44.45552" lon="6.91853">
        <ele>2364.8912328957</ele>
        <time>2015-07-16T13:37:09Z</time>
      </trkpt>
      <trkpt lat="44.45553" lon="6.91852">
        <ele>2364.8912328957</ele>
        <time>2015-07-16T13:37:18Z</time>
      </trkpt>
      <trkpt lat="44.45561" lon="6.91833">
        <ele>2367.2831309802</ele>
        <time>2015-07-16T13:37:28Z</time>
      </trkpt>
      <trkpt lat="44.45563" lon="6.9183">
        <ele>2367.2831309802</ele>
        <time>2015-07-16T13:37:31Z</time>
      </trkpt>
      <trkpt lat="44.45564" lon="6.91828">
        <ele>2367.2831309802</ele>
        <time>2015-07-16T13:37:36Z</time>
      </trkpt>
      <trkpt lat="44.45572" lon="6.91796">
        <ele>2369.7412286525</ele>
        <time>2015-07-16T13:38:06Z</time>
      </trkpt>
      <trkpt lat="44.45583" lon="6.91778">
        <ele>2372.2837768767</ele>
        <time>2015-07-16T13:38:31Z</time>
      </trkpt>
      <trkpt lat="44.45604" lon="6.91747">
        <ele>2374.7113933177</ele>
        <time>2015-07-16T13:39:04Z</time>
      </trkpt>
      <trkpt lat="44.45615" lon="6.91717">
        <ele>2377.3441735304</ele>
        <time>2015-07-16T13:39:31Z</time>
      </trkpt>
      <trkpt lat="44.45635" lon="6.91699">
        <ele>2379.9306289378</ele>
        <time>2015-07-16T13:39:58Z</time>
      </trkpt>
      <trkpt lat="44.4565" lon="6.91706">
        <ele>2382.3965323183</ele>
        <time>2015-07-16T13:40:26Z</time>
      </trkpt>
      <trkpt lat="44.45652" lon="6.91704">
        <ele>2382.3965323183</ele>
        <time>2015-07-16T13:40:26Z</time>
      </trkpt>
      <trkpt lat="44.45655" lon="6.91697">
        <ele>2382.3965323183</ele>
        <time>2015-07-16T13:40:31Z</time>
      </trkpt>
      <trkpt lat="44.4566" lon="6.91694">
        <ele>2384.6591768535</ele>
        <time>2015-07-16T13:40:36Z</time>
      </trkpt>
      <trkpt lat="44.45665" lon="6.91686">
        <ele>2384.6591768535</ele>
        <time>2015-07-16T13:40:43Z</time>
      </trkpt>
      <trkpt lat="44.45667" lon="6.91683">
        <ele>2386.7867576366</ele>
        <time>2015-07-16T13:40:46Z</time>
      </trkpt>
      <trkpt lat="44.4567" lon="6.91677">
        <ele>2386.7867576366</ele>
        <time>2015-07-16T13:40:51Z</time>
      </trkpt>
      <trkpt lat="44.45673" lon="6.91673">
        <ele>2388.7565196918</ele>
        <time>2015-07-16T13:40:56Z</time>
      </trkpt>
      <trkpt lat="44.45683" lon="6.91638">
        <ele>2390.8938374116</ele>
        <time>2015-07-16T13:41:31Z</time>
      </trkpt>
      <trkpt lat="44.45685" lon="6.91634">
        <ele>2390.8938374116</ele>
        <time>2015-07-16T13:41:36Z</time>
      </trkpt>
      <trkpt lat="44.45689" lon="6.91623">
        <ele>2393.0387056859</ele>
        <time>2015-07-16T13:42:03Z</time>
      </trkpt>
      <trkpt lat="44.45691" lon="6.91621">
        <ele>2393.0387056859</ele>
        <time>2015-07-16T13:42:31Z</time>
      </trkpt>
      <trkpt lat="44.45734" lon="6.91615">
        <ele>2396.8443918927</ele>
        <time>2015-07-16T13:42:36Z</time>
      </trkpt>
      <trkpt lat="44.45801" lon="6.91606">
        <ele>2402.6565022741</ele>
        <time>2015-07-16T13:43:36Z</time>
      </trkpt>
      <trkpt lat="44.45807" lon="6.91604">
        <ele>2402.6565022741</ele>
        <time>2015-07-16T13:43:41Z</time>
      </trkpt>
      <trkpt lat="44.45838" lon="6.91589">
        <ele>2409.1757528278</ele>
        <time>2015-07-16T13:44:09Z</time>
      </trkpt>
      <trkpt lat="44.45849" lon="6.91594">
        <ele>2415.0668114942</ele>
        <time>2015-07-16T13:44:33Z</time>
      </trkpt>
      <trkpt lat="44.45871" lon="6.91592">
        <ele>2421.5010741212</ele>
        <time>2015-07-16T13:44:42Z</time>
      </trkpt>
      <trkpt lat="44.45877" lon="6.91585">
        <ele>2421.5010741212</ele>
        <time>2015-07-16T13:44:43Z</time>
      </trkpt>
      <trkpt lat="44.45878" lon="6.91585">
        <ele>2421.5010741212</ele>
        <time>2015-07-16T13:44:50Z</time>
      </trkpt>
      <trkpt lat="44.45869" lon="6.91576">
        <ele>2427.8044489998</ele>
        <time>2015-07-16T13:45:37Z</time>
      </trkpt>
      <trkpt lat="44.4587" lon="6.91576">
        <ele>2427.8044489998</ele>
        <time>2015-07-16T13:45:41Z</time>
      </trkpt>
      <trkpt lat="44.45873" lon="6.91578">
        <ele>2427.8044489998</ele>
        <time>2015-07-16T13:45:48Z</time>
      </trkpt>
      <trkpt lat="44.45873" lon="6.91578">
        <ele>2427.8044489998</ele>
        <time>2015-07-16T13:46:14Z</time>
      </trkpt>
      <trkpt lat="44.45872" lon="6.91577">
        <ele>2427.8044489998</ele>
        <time>2015-07-16T13:46:36Z</time>
      </trkpt>
      <trkpt lat="44.45876" lon="6.91577">
        <ele>2433.23770615</ele>
        <time>2015-07-16T13:46:41Z</time>
      </trkpt>
      <trkpt lat="44.45882" lon="6.91574">
        <ele>2433.23770615</ele>
        <time>2015-07-16T13:46:46Z</time>
      </trkpt>
      <trkpt lat="44.45891" lon="6.91574">
        <ele>2438.1562433388</ele>
        <time>2015-07-16T13:47:01Z</time>
      </trkpt>
      <trkpt lat="44.45896" lon="6.91573">
        <ele>2438.1562433388</ele>
        <time>2015-07-16T13:47:04Z</time>
      </trkpt>
      <trkpt lat="44.4594" lon="6.91576">
        <ele>2442.1849453929</ele>
        <time>2015-07-16T13:47:42Z</time>
      </trkpt>
      <trkpt lat="44.45941" lon="6.91574">
        <ele>2442.1849453929</ele>
        <time>2015-07-16T13:47:53Z</time>
      </trkpt>
      <trkpt lat="44.45951" lon="6.91542">
        <ele>2445.4834382404</ele>
        <time>2015-07-16T13:48:01Z</time>
      </trkpt>
      <trkpt lat="44.45953" lon="6.91535">
        <ele>2445.4834382404</ele>
        <time>2015-07-16T13:48:08Z</time>
      </trkpt>
      <trkpt lat="44.4596" lon="6.91501">
        <ele>2448.0146229953</ele>
        <time>2015-07-16T13:48:27Z</time>
      </trkpt>
      <trkpt lat="44.45961" lon="6.91496">
        <ele>2448.0146229953</ele>
        <time>2015-07-16T13:48:31Z</time>
      </trkpt>
      <trkpt lat="44.45961" lon="6.9149">
        <ele>2448.0146229953</ele>
        <time>2015-07-16T13:48:39Z</time>
      </trkpt>
      <trkpt lat="44.4597" lon="6.91433">
        <ele>2450.395067379</ele>
        <time>2015-07-16T13:49:28Z</time>
      </trkpt>
      <trkpt lat="44.45975" lon="6.91422">
        <ele>2452.4041324286</ele>
        <time>2015-07-16T13:49:37Z</time>
      </trkpt>
      <trkpt lat="44.45977" lon="6.91418">
        <ele>2452.4041324286</ele>
        <time>2015-07-16T13:49:41Z</time>
      </trkpt>
      <trkpt lat="44.45979" lon="6.91412">
        <ele>2452.4041324286</ele>
        <time>2015-07-16T13:49:46Z</time>
      </trkpt>
      <trkpt lat="44.45982" lon="6.91408">
        <ele>2454.0692637496</ele>
        <time>2015-07-16T13:49:52Z</time>
      </trkpt>
      <trkpt lat="44.45985" lon="6.91406">
        <ele>2454.0692637496</ele>
        <time>2015-07-16T13:49:56Z</time>
      </trkpt>
      <trkpt lat="44.45989" lon="6.91401">
        <ele>2454.0692637496</ele>
        <time>2015-07-16T13:50:01Z</time>
      </trkpt>
      <trkpt lat="44.45993" lon="6.91395">
        <ele>2455.4170922639</ele>
        <time>2015-07-16T13:50:06Z</time>
      </trkpt>
      <trkpt lat="44.45998" lon="6.9139">
        <ele>2455.4170922639</ele>
        <time>2015-07-16T13:50:11Z</time>
      </trkpt>
      <trkpt lat="44.46014" lon="6.91353">
        <ele>2456.5598641963</ele>
        <time>2015-07-16T13:50:41Z</time>
      </trkpt>
      <trkpt lat="44.46015" lon="6.91347">
        <ele>2456.5598641963</ele>
        <time>2015-07-16T13:50:51Z</time>
      </trkpt>
      <trkpt lat="44.46001" lon="6.91339">
        <ele>2457.6023471112</ele>
        <time>2015-07-16T13:51:01Z</time>
      </trkpt>
      <trkpt lat="44.45972" lon="6.9134">
        <ele>2459.2329185922</ele>
        <time>2015-07-16T13:51:26Z</time>
      </trkpt>
      <trkpt lat="44.45964" lon="6.91324">
        <ele>2460.7476520315</ele>
        <time>2015-07-16T13:51:41Z</time>
      </trkpt>
      <trkpt lat="44.45963" lon="6.91318">
        <ele>2460.7476520315</ele>
        <time>2015-07-16T13:51:47Z</time>
      </trkpt>
      <trkpt lat="44.45961" lon="6.91315">
        <ele>2460.7476520315</ele>
        <time>2015-07-16T13:51:57Z</time>
      </trkpt>
      <trkpt lat="44.45957" lon="6.913">
        <ele>2462.3018056173</ele>
        <time>2015-07-16T13:52:07Z</time>
      </trkpt>
      <trkpt lat="44.45957" lon="6.9127">
        <ele>2463.7077751297</ele>
        <time>2015-07-16T13:52:31Z</time>
      </trkpt>
      <trkpt lat="44.4595" lon="6.91252">
        <ele>2464.8787119481</ele>
        <time>2015-07-16T13:52:36Z</time>
      </trkpt>
      <trkpt lat="44.45947" lon="6.91249">
        <ele>2464.8787119481</ele>
        <time>2015-07-16T13:52:41Z</time>
      </trkpt>
      <trkpt lat="44.45941" lon="6.91248">
        <ele>2465.8645814661</ele>
        <time>2015-07-16T13:52:46Z</time>
      </trkpt>
      <trkpt lat="44.45936" lon="6.91245">
        <ele>2465.8645814661</ele>
        <time>2015-07-16T13:52:51Z</time>
      </trkpt>
      <trkpt lat="44.45923" lon="6.91224">
        <ele>2466.9860670311</ele>
        <time>2015-07-16T13:53:46Z</time>
      </trkpt>
      <trkpt lat="44.45928" lon="6.91191">
        <ele>2468.1076222885</ele>
        <time>2015-07-16T13:54:16Z</time>
      </trkpt>
      <trkpt lat="44.45929" lon="6.91157">
        <ele>2469.1469166819</ele>
        <time>2015-07-16T13:54:37Z</time>
      </trkpt>
      <trkpt lat="44.45928" lon="6.91157">
        <ele>2469.1469166819</ele>
        <time>2015-07-16T13:54:42Z</time>
      </trkpt>
      <trkpt lat="44.45926" lon="6.91149">
        <ele>2469.1469166819</ele>
        <time>2015-07-16T13:54:58Z</time>
      </trkpt>
      <trkpt lat="44.45925" lon="6.911">
        <ele>2470.0279086746</ele>
        <time>2015-07-16T13:55:43Z</time>
      </trkpt>
      <trkpt lat="44.45927" lon="6.91098">
        <ele>2470.0279086746</ele>
        <time>2015-07-16T13:55:46Z</time>
      </trkpt>
      <trkpt lat="44.45929" lon="6.91091">
        <ele>2470.0279086746</ele>
        <time>2015-07-16T13:55:51Z</time>
      </trkpt>
      <trkpt lat="44.45927" lon="6.91086">
        <ele>2470.6805824251</ele>
        <time>2015-07-16T13:55:56Z</time>
      </trkpt>
      <trkpt lat="44.45929" lon="6.91081">
        <ele>2470.6805824251</ele>
        <time>2015-07-16T13:56:05Z</time>
      </trkpt>
      <trkpt lat="44.45933" lon="6.91074">
        <ele>2471.0983312943</ele>
        <time>2015-07-16T13:56:06Z</time>
      </trkpt>
      <trkpt lat="44.45943" lon="6.91046">
        <ele>2471.2468364484</ele>
        <time>2015-07-16T13:56:46Z</time>
      </trkpt>
      <trkpt lat="44.45947" lon="6.91041">
        <ele>2471.2468364484</ele>
        <time>2015-07-16T13:57:00Z</time>
      </trkpt>
      <trkpt lat="44.45952" lon="6.91013">
        <ele>2471.3688167791</ele>
        <time>2015-07-16T13:57:18Z</time>
      </trkpt>
      <trkpt lat="44.45947" lon="6.90997">
        <ele>2471.4297699973</ele>
        <time>2015-07-16T13:57:38Z</time>
      </trkpt>
      <trkpt lat="44.45946" lon="6.90993">
        <ele>2471.4297699973</ele>
        <time>2015-07-16T13:57:44Z</time>
      </trkpt>
      <trkpt lat="44.45946" lon="6.90991">
        <ele>2471.4297699973</ele>
        <time>2015-07-16T13:57:46Z</time>
      </trkpt>
      <trkpt lat="44.45949" lon="6.90981">
        <ele>2471.4986965933</ele>
        <time>2015-07-16T13:58:00Z</time>
      </trkpt>
      <trkpt lat="44.45955" lon="6.90975">
        <ele>2471.4986965933</ele>
        <time>2015-07-16T13:58:06Z</time>
      </trkpt>
      <trkpt lat="44.45963" lon="6.90956">
        <ele>2471.6394109493</ele>
        <time>2015-07-16T13:58:42Z</time>
      </trkpt>
      <trkpt lat="44.45962" lon="6.90949">
        <ele>2471.6394109493</ele>
        <time>2015-07-16T13:58:47Z</time>
      </trkpt>
      <trkpt lat="44.45961" lon="6.90946">
        <ele>2471.6394109493</ele>
        <time>2015-07-16T13:58:51Z</time>
      </trkpt>
      <trkpt lat="44.45958" lon="6.90944">
        <ele>2471.8242637442</ele>
        <time>2015-07-16T13:59:24Z</time>
      </trkpt>
      <trkpt lat="44.45963" lon="6.90934">
        <ele>2471.8242637442</ele>
        <time>2015-07-16T13:59:26Z</time>
      </trkpt>
      <trkpt lat="44.45966" lon="6.90923">
        <ele>2472.1715051374</ele>
        <time>2015-07-16T13:59:45Z</time>
      </trkpt>
      <trkpt lat="44.4597" lon="6.90915">
        <ele>2472.1715051374</ele>
        <time>2015-07-16T13:59:46Z</time>
      </trkpt>
      <trkpt lat="44.45972" lon="6.90913">
        <ele>2472.61718151</ele>
        <time>2015-07-16T13:59:51Z</time>
      </trkpt>
      <trkpt lat="44.45978" lon="6.90917">
        <ele>2472.61718151</ele>
        <time>2015-07-16T14:00:38Z</time>
      </trkpt>
      <trkpt lat="44.45972" lon="6.9091">
        <ele>2473.9662938975</ele>
        <time>2015-07-16T14:00:46Z</time>
      </trkpt>
      <trkpt lat="44.45976" lon="6.90909">
        <ele>2473.9662938975</ele>
        <time>2015-07-16T14:00:56Z</time>
      </trkpt>
      <trkpt lat="44.4598" lon="6.90908">
        <ele>2473.9662938975</ele>
        <time>2015-07-16T14:01:06Z</time>
      </trkpt>
      <trkpt lat="44.45986" lon="6.90891">
        <ele>2476.1550154548</ele>
        <time>2015-07-16T14:01:47Z</time>
      </trkpt>
      <trkpt lat="44.45988" lon="6.90889">
        <ele>2476.1550154548</ele>
        <time>2015-07-16T14:01:51Z</time>
      </trkpt>
      <trkpt lat="44.45992" lon="6.90882">
        <ele>2478.1849958839</ele>
        <time>2015-07-16T14:01:56Z</time>
      </trkpt>
      <trkpt lat="44.45996" lon="6.90879">
        <ele>2478.1849958839</ele>
        <time>2015-07-16T14:02:08Z</time>
      </trkpt>
      <trkpt lat="44.45988" lon="6.90863">
        <ele>2480.442951791</ele>
        <time>2015-07-16T14:02:47Z</time>
      </trkpt>
      <trkpt lat="44.45984" lon="6.90862">
        <ele>2480.442951791</ele>
        <time>2015-07-16T14:02:51Z</time>
      </trkpt>
      <trkpt lat="44.45981" lon="6.90863">
        <ele>2480.442951791</ele>
        <time>2015-07-16T14:02:56Z</time>
      </trkpt>
      <trkpt lat="44.45979" lon="6.90864">
        <ele>2482.6811658479</ele>
        <time>2015-07-16T14:03:18Z</time>
      </trkpt>
      <trkpt lat="44.45968" lon="6.9087">
        <ele>2485.4914980912</ele>
        <time>2015-07-16T14:03:18Z</time>
      </trkpt>
      <trkpt lat="44.45958" lon="6.90879">
        <ele>2488.6856619573</ele>
        <time>2015-07-16T14:03:36Z</time>
      </trkpt>
      <trkpt lat="44.45956" lon="6.90878">
        <ele>2488.6856619573</ele>
        <time>2015-07-16T14:03:41Z</time>
      </trkpt>
      <trkpt lat="44.45951" lon="6.90878">
        <ele>2488.6856619573</ele>
        <time>2015-07-16T14:03:50Z</time>
      </trkpt>
      <trkpt lat="44.45947" lon="6.90878">
        <ele>2492.5059652017</ele>
        <time>2015-07-16T14:04:16Z</time>
      </trkpt>
      <trkpt lat="44.45946" lon="6.90856">
        <ele>2497.2759722148</ele>
        <time>2015-07-16T14:04:50Z</time>
      </trkpt>
      <trkpt lat="44.45949" lon="6.9086">
        <ele>2497.2759722148</ele>
        <time>2015-07-16T14:05:01Z</time>
      </trkpt>
      <trkpt lat="44.45945" lon="6.90863">
        <ele>2497.2759722148</ele>
        <time>2015-07-16T14:05:06Z</time>
      </trkpt>
      <trkpt lat="44.45944" lon="6.90865">
        <ele>2502.8027935715</ele>
        <time>2015-07-16T14:05:11Z</time>
      </trkpt>
      <trkpt lat="44.4594" lon="6.90873">
        <ele>2502.8027935715</ele>
        <time>2015-07-16T14:05:52Z</time>
      </trkpt>
      <trkpt lat="44.45938" lon="6.9087">
        <ele>2508.7038137939</ele>
        <time>2015-07-16T14:06:00Z</time>
      </trkpt>
      <trkpt lat="44.45943" lon="6.90866">
        <ele>2508.7038137939</ele>
        <time>2015-07-16T14:06:33Z</time>
      </trkpt>
      <trkpt lat="44.45972" lon="6.90842">
        <ele>2514.5802529067</ele>
        <time>2015-07-16T14:06:53Z</time>
      </trkpt>
      <trkpt lat="44.45987" lon="6.90844">
        <ele>2520.1347910057</ele>
        <time>2015-07-16T14:07:26Z</time>
      </trkpt>
      <trkpt lat="44.46006" lon="6.90825">
        <ele>2525.3234991997</ele>
        <time>2015-07-16T14:07:51Z</time>
      </trkpt>
      <trkpt lat="44.46011" lon="6.90823">
        <ele>2525.3234991997</ele>
        <time>2015-07-16T14:07:56Z</time>
      </trkpt>
      <trkpt lat="44.46016" lon="6.9082">
        <ele>2530.0203282315</ele>
        <time>2015-07-16T14:08:01Z</time>
      </trkpt>
      <trkpt lat="44.4602" lon="6.90821">
        <ele>2530.0203282315</ele>
        <time>2015-07-16T14:08:08Z</time>
      </trkpt>
      <trkpt lat="44.46024" lon="6.90822">
        <ele>2530.0203282315</ele>
        <time>2015-07-16T14:08:11Z</time>
      </trkpt>
      <trkpt lat="44.46028" lon="6.90825">
        <ele>2534.3261470837</ele>
        <time>2015-07-16T14:08:16Z</time>
      </trkpt>
      <trkpt lat="44.46029" lon="6.90827">
        <ele>2534.3261470837</ele>
        <time>2015-07-16T14:08:21Z</time>
      </trkpt>
      <trkpt lat="44.46038" lon="6.90818">
        <ele>2538.4653382834</ele>
        <time>2015-07-16T14:08:44Z</time>
      </trkpt>
      <trkpt lat="44.46039" lon="6.90817">
        <ele>2538.4653382834</ele>
        <time>2015-07-16T14:08:50Z</time>
      </trkpt>
      <trkpt lat="44.46043" lon="6.90812">
        <ele>2538.4653382834</ele>
        <time>2015-07-16T14:08:51Z</time>
      </trkpt>
      <trkpt lat="44.46052" lon="6.90802">
        <ele>2542.1564266938</ele>
        <time>2015-07-16T14:09:07Z</time>
      </trkpt>
      <trkpt lat="44.46065" lon="6.90792">
        <ele>2545.3994124008</ele>
        <time>2015-07-16T14:09:24Z</time>
      </trkpt>
      <trkpt lat="44.46083" lon="6.90773">
        <ele>2548.2101059571</ele>
        <time>2015-07-16T14:09:37Z</time>
      </trkpt>
      <trkpt lat="44.46086" lon="6.90769">
        <ele>2548.2101059571</ele>
        <time>2015-07-16T14:09:46Z</time>
      </trkpt>
      <trkpt lat="44.46088" lon="6.90767">
        <ele>2548.2101059571</ele>
        <time>2015-07-16T14:09:52Z</time>
      </trkpt>
      <trkpt lat="44.46109" lon="6.90772">
        <ele>2550.7053868389</ele>
        <time>2015-07-16T14:10:17Z</time>
      </trkpt>
      <trkpt lat="44.4611" lon="6.90773">
        <ele>2550.7053868389</ele>
        <time>2015-07-16T14:10:21Z</time>
      </trkpt>
      <trkpt lat="44.46117" lon="6.90773">
        <ele>2550.7053868389</ele>
        <time>2015-07-16T14:11:01Z</time>
      </trkpt>
      <trkpt lat="44.4612" lon="6.90774">
        <ele>2553.2539679646</ele>
        <time>2015-07-16T14:11:06Z</time>
      </trkpt>
      <trkpt lat="44.46124" lon="6.90777">
        <ele>2553.2539679646</ele>
        <time>2015-07-16T14:11:11Z</time>
      </trkpt>
      <trkpt lat="44.46127" lon="6.9078">
        <ele>2553.2539679646</ele>
        <time>2015-07-16T14:11:16Z</time>
      </trkpt>
      <trkpt lat="44.46136" lon="6.90787">
        <ele>2555.6498315508</ele>
        <time>2015-07-16T14:11:30Z</time>
      </trkpt>
      <trkpt lat="44.46137" lon="6.90787">
        <ele>2555.6498315508</ele>
        <time>2015-07-16T14:11:33Z</time>
      </trkpt>
      <trkpt lat="44.46148" lon="6.90785">
        <ele>2557.8179285708</ele>
        <time>2015-07-16T14:11:51Z</time>
      </trkpt>
      <trkpt lat="44.46152" lon="6.9078">
        <ele>2557.8179285708</ele>
        <time>2015-07-16T14:11:56Z</time>
      </trkpt>
      <trkpt lat="44.46156" lon="6.90773">
        <ele>2559.7615248394</ele>
        <time>2015-07-16T14:12:10Z</time>
      </trkpt>
      <trkpt lat="44.46161" lon="6.90767">
        <ele>2559.7615248394</ele>
        <time>2015-07-16T14:12:11Z</time>
      </trkpt>
      <trkpt lat="44.46167" lon="6.90767">
        <ele>2561.5131944461</ele>
        <time>2015-07-16T14:12:36Z</time>
      </trkpt>
      <trkpt lat="44.46174" lon="6.90769">
        <ele>2561.5131944461</ele>
        <time>2015-07-16T14:12:53Z</time>
      </trkpt>
      <trkpt lat="44.46175" lon="6.9077">
        <ele>2561.5131944461</ele>
        <time>2015-07-16T14:12:56Z</time>
      </trkpt>
      <trkpt lat="44.46171" lon="6.90774">
        <ele>2563.3487303828</ele>
        <time>2015-07-16T14:14:14Z</time>
      </trkpt>
      <trkpt lat="44.46172" lon="6.90774">
        <ele>2563.3487303828</ele>
        <time>2015-07-16T14:14:16Z</time>
      </trkpt>
      <trkpt lat="44.46172" lon="6.90774">
        <ele>2563.3487303828</ele>
        <time>2015-07-16T14:14:24Z</time>
      </trkpt>
      <trkpt lat="44.46181" lon="6.90773">
        <ele>2565.6676149994</ele>
        <time>2015-07-16T14:19:39Z</time>
      </trkpt>
      <trkpt lat="44.46194" lon="6.90779">
        <ele>2567.4119899232</ele>
        <time>2015-07-16T14:19:47Z</time>
      </trkpt>
      <trkpt lat="44.46206" lon="6.90795">
        <ele>2568.5833238131</ele>
        <time>2015-07-16T14:19:48Z</time>
      </trkpt>
      <trkpt lat="44.46214" lon="6.90795">
        <ele>2568.5833238131</ele>
        <time>2015-07-16T14:19:57Z</time>
      </trkpt>
      <trkpt lat="44.46217" lon="6.90796">
        <ele>2569.3719667641</ele>
        <time>2015-07-16T14:20:01Z</time>
      </trkpt>
      <trkpt lat="44.46221" lon="6.90799">
        <ele>2569.3719667641</ele>
        <time>2015-07-16T14:20:06Z</time>
      </trkpt>
      <trkpt lat="44.46227" lon="6.90803">
        <ele>2569.8400933342</ele>
        <time>2015-07-16T14:20:11Z</time>
      </trkpt>
      <trkpt lat="44.46233" lon="6.90807">
        <ele>2569.8400933342</ele>
        <time>2015-07-16T14:20:18Z</time>
      </trkpt>
      <trkpt lat="44.46235" lon="6.90811">
        <ele>2570.0462157788</ele>
        <time>2015-07-16T14:20:21Z</time>
      </trkpt>
      <trkpt lat="44.46237" lon="6.90817">
        <ele>2570.0462157788</ele>
        <time>2015-07-16T14:20:31Z</time>
      </trkpt>
      <trkpt lat="44.46237" lon="6.90823">
        <ele>2570.0596814626</ele>
        <time>2015-07-16T14:20:32Z</time>
      </trkpt>
      <trkpt lat="44.46247" lon="6.90842">
        <ele>2569.9020185241</ele>
        <time>2015-07-16T14:20:56Z</time>
      </trkpt>
      <trkpt lat="44.4626" lon="6.90855">
        <ele>2569.4783128125</ele>
        <time>2015-07-16T14:21:01Z</time>
      </trkpt>
      <trkpt lat="44.46265" lon="6.90856">
        <ele>2569.4783128125</ele>
        <time>2015-07-16T14:21:14Z</time>
      </trkpt>
      <trkpt lat="44.46271" lon="6.90829">
        <ele>2568.9751083072</ele>
        <time>2015-07-16T14:21:39Z</time>
      </trkpt>
      <trkpt lat="44.4628" lon="6.9079">
        <ele>2568.4068551391</ele>
        <time>2015-07-16T14:21:58Z</time>
      </trkpt>
      <trkpt lat="44.46283" lon="6.90783">
        <ele>2568.4068551391</ele>
        <time>2015-07-16T14:22:01Z</time>
      </trkpt>
      <trkpt lat="44.46288" lon="6.90767">
        <ele>2567.7581922001</ele>
        <time>2015-07-16T14:22:18Z</time>
      </trkpt>
      <trkpt lat="44.46295" lon="6.90761">
        <ele>2567.7581922001</ele>
        <time>2015-07-16T14:22:43Z</time>
      </trkpt>
      <trkpt lat="44.46326" lon="6.90747">
        <ele>2566.9429287024</ele>
        <time>2015-07-16T14:23:00Z</time>
      </trkpt>
      <trkpt lat="44.46327" lon="6.90746">
        <ele>2566.9429287024</ele>
        <time>2015-07-16T14:23:01Z</time>
      </trkpt>
      <trkpt lat="44.46331" lon="6.90743">
        <ele>2566.9429287024</ele>
        <time>2015-07-16T14:23:08Z</time>
      </trkpt>
      <trkpt lat="44.46333" lon="6.90742">
        <ele>2566.9429287024</ele>
        <time>2015-07-16T14:23:31Z</time>
      </trkpt>
      <trkpt lat="44.4636" lon="6.90729">
        <ele>2565.9535829805</ele>
        <time>2015-07-16T14:23:59Z</time>
      </trkpt>
      <trkpt lat="44.46361" lon="6.9073">
        <ele>2565.9535829805</ele>
        <time>2015-07-16T14:24:01Z</time>
      </trkpt>
      <trkpt lat="44.46362" lon="6.90734">
        <ele>2565.9535829805</ele>
        <time>2015-07-16T14:24:49Z</time>
      </trkpt>
      <trkpt lat="44.46385" lon="6.90717">
        <ele>2565.3744061363</ele>
        <time>2015-07-16T14:25:02Z</time>
      </trkpt>
      <trkpt lat="44.46389" lon="6.90715">
        <ele>2565.3744061363</ele>
        <time>2015-07-16T14:25:06Z</time>
      </trkpt>
      <trkpt lat="44.46392" lon="6.90712">
        <ele>2565.3744061363</ele>
        <time>2015-07-16T14:25:13Z</time>
      </trkpt>
      <trkpt lat="44.46393" lon="6.90711">
        <ele>2565.3744061363</ele>
        <time>2015-07-16T14:25:24Z</time>
      </trkpt>
      <trkpt lat="44.46406" lon="6.90713">
        <ele>2565.97598465</ele>
        <time>2015-07-16T14:26:02Z</time>
      </trkpt>
      <trkpt lat="44.46407" lon="6.90712">
        <ele>2565.97598465</ele>
        <time>2015-07-16T14:26:06Z</time>
      </trkpt>
      <trkpt lat="44.46412" lon="6.9071">
        <ele>2565.97598465</ele>
        <time>2015-07-16T14:26:16Z</time>
      </trkpt>
      <trkpt lat="44.46413" lon="6.90712">
        <ele>2565.97598465</ele>
        <time>2015-07-16T14:26:38Z</time>
      </trkpt>
      <trkpt lat="44.46422" lon="6.90705">
        <ele>2567.4167938158</ele>
        <time>2015-07-16T14:26:56Z</time>
      </trkpt>
      <trkpt lat="44.46424" lon="6.90706">
        <ele>2567.4167938158</ele>
        <time>2015-07-16T14:27:03Z</time>
      </trkpt>
      <trkpt lat="44.46424" lon="6.90705">
        <ele>2567.4167938158</ele>
        <time>2015-07-16T14:27:06Z</time>
      </trkpt>
      <trkpt lat="44.46425" lon="6.90704">
        <ele>2567.4167938158</ele>
        <time>2015-07-16T14:27:25Z</time>
      </trkpt>
      <trkpt lat="44.46436" lon="6.90701">
        <ele>2569.7381396885</ele>
        <time>2015-07-16T14:27:41Z</time>
      </trkpt>
      <trkpt lat="44.46437" lon="6.907">
        <ele>2569.7381396885</ele>
        <time>2015-07-16T14:27:50Z</time>
      </trkpt>
      <trkpt lat="44.4644" lon="6.90697">
        <ele>2569.7381396885</ele>
        <time>2015-07-16T14:28:02Z</time>
      </trkpt>
      <trkpt lat="44.4644" lon="6.90697">
        <ele>2569.7381396885</ele>
        <time>2015-07-16T14:28:06Z</time>
      </trkpt>
      <trkpt lat="44.46447" lon="6.90696">
        <ele>2572.5433159265</ele>
        <time>2015-07-16T14:28:23Z</time>
      </trkpt>
      <trkpt lat="44.46451" lon="6.90697">
        <ele>2572.5433159265</ele>
        <time>2015-07-16T14:28:28Z</time>
      </trkpt>
      <trkpt lat="44.46453" lon="6.90697">
        <ele>2572.5433159265</ele>
        <time>2015-07-16T14:28:31Z</time>
      </trkpt>
      <trkpt lat="44.46457" lon="6.90699">
        <ele>2576.0540957262</ele>
        <time>2015-07-16T14:28:43Z</time>
      </trkpt>
      <trkpt lat="44.46468" lon="6.90695">
        <ele>2579.8253388851</ele>
        <time>2015-07-16T14:29:05Z</time>
      </trkpt>
      <trkpt lat="44.46469" lon="6.90695">
        <ele>2579.8253388851</ele>
        <time>2015-07-16T14:29:06Z</time>
      </trkpt>
      <trkpt lat="44.46473" lon="6.90693">
        <ele>2579.8253388851</ele>
        <time>2015-07-16T14:29:13Z</time>
      </trkpt>
      <trkpt lat="44.46474" lon="6.90693">
        <ele>2579.8253388851</ele>
        <time>2015-07-16T14:29:16Z</time>
      </trkpt>
      <trkpt lat="44.46476" lon="6.90692">
        <ele>2579.8253388851</ele>
        <time>2015-07-16T14:29:21Z</time>
      </trkpt>
      <trkpt lat="44.46478" lon="6.90694">
        <ele>2583.86167608</ele>
        <time>2015-07-16T14:29:26Z</time>
      </trkpt>
      <trkpt lat="44.46481" lon="6.90694">
        <ele>2583.86167608</ele>
        <time>2015-07-16T14:29:31Z</time>
      </trkpt>
      <trkpt lat="44.46484" lon="6.90694">
        <ele>2583.86167608</ele>
        <time>2015-07-16T14:29:47Z</time>
      </trkpt>
      <trkpt lat="44.46489" lon="6.90695">
        <ele>2588.1665575411</ele>
        <time>2015-07-16T14:30:03Z</time>
      </trkpt>
      <trkpt lat="44.46499" lon="6.90697">
        <ele>2593.0738116197</ele>
        <time>2015-07-16T14:30:07Z</time>
      </trkpt>
      <trkpt lat="44.46501" lon="6.90697">
        <ele>2593.0738116197</ele>
        <time>2015-07-16T14:30:16Z</time>
      </trkpt>
      <trkpt lat="44.46527" lon="6.90703">
        <ele>2599.4674568209</ele>
        <time>2015-07-16T14:31:06Z</time>
      </trkpt>
      <trkpt lat="44.46531" lon="6.90697">
        <ele>2599.4674568209</ele>
        <time>2015-07-16T14:31:11Z</time>
      </trkpt>
      <trkpt lat="44.46541" lon="6.90695">
        <ele>2605.8998462822</ele>
        <time>2015-07-16T14:31:30Z</time>
      </trkpt>
      <trkpt lat="44.46556" lon="6.90689">
        <ele>2612.0527791059</ele>
        <time>2015-07-16T14:31:45Z</time>
      </trkpt>
      <trkpt lat="44.46557" lon="6.90689">
        <ele>2612.0527791059</ele>
        <time>2015-07-16T14:31:46Z</time>
      </trkpt>
      <trkpt lat="44.46562" lon="6.90686">
        <ele>2612.0527791059</ele>
        <time>2015-07-16T14:31:51Z</time>
      </trkpt>
      <trkpt lat="44.46567" lon="6.90685">
        <ele>2617.6899126603</ele>
        <time>2015-07-16T14:31:56Z</time>
      </trkpt>
      <trkpt lat="44.46569" lon="6.90684">
        <ele>2617.6899126603</ele>
        <time>2015-07-16T14:32:01Z</time>
      </trkpt>
      <trkpt lat="44.4657" lon="6.90684">
        <ele>2617.6899126603</ele>
        <time>2015-07-16T14:32:06Z</time>
      </trkpt>
      <trkpt lat="44.46574" lon="6.90682">
        <ele>2617.6899126603</ele>
        <time>2015-07-16T14:32:16Z</time>
      </trkpt>
      <trkpt lat="44.46578" lon="6.90678">
        <ele>2623.2134767433</ele>
        <time>2015-07-16T14:32:21Z</time>
      </trkpt>
      <trkpt lat="44.46583" lon="6.90673">
        <ele>2623.2134767433</ele>
        <time>2015-07-16T14:32:26Z</time>
      </trkpt>
      <trkpt lat="44.46587" lon="6.90668">
        <ele>2628.1319165178</ele>
        <time>2015-07-16T14:32:31Z</time>
      </trkpt>
      <trkpt lat="44.46591" lon="6.90665">
        <ele>2628.1319165178</ele>
        <time>2015-07-16T14:32:36Z</time>
      </trkpt>
      <trkpt lat="44.46596" lon="6.90661">
        <ele>2632.4383596595</ele>
        <time>2015-07-16T14:32:41Z</time>
      </trkpt>
      <trkpt lat="44.46601" lon="6.90658">
        <ele>2632.4383596595</ele>
        <time>2015-07-16T14:32:48Z</time>
      </trkpt>
      <trkpt lat="44.46606" lon="6.90656">
        <ele>2636.056244539</ele>
        <time>2015-07-16T14:32:53Z</time>
      </trkpt>
      <trkpt lat="44.4661" lon="6.90652">
        <ele>2636.056244539</ele>
        <time>2015-07-16T14:33:01Z</time>
      </trkpt>
      <trkpt lat="44.46615" lon="6.90644">
        <ele>2639.1905288708</ele>
        <time>2015-07-16T14:33:15Z</time>
      </trkpt>
      <trkpt lat="44.46616" lon="6.90641">
        <ele>2639.1905288708</ele>
        <time>2015-07-16T14:33:17Z</time>
      </trkpt>
      <trkpt lat="44.46627" lon="6.90634">
        <ele>2642.1046810636</ele>
        <time>2015-07-16T14:33:39Z</time>
      </trkpt>
      <trkpt lat="44.46628" lon="6.90634">
        <ele>2642.1046810636</ele>
        <time>2015-07-16T14:33:41Z</time>
      </trkpt>
      <trkpt lat="44.4663" lon="6.90633">
        <ele>2642.1046810636</ele>
        <time>2015-07-16T14:33:48Z</time>
      </trkpt>
      <trkpt lat="44.46645" lon="6.90621">
        <ele>2644.7841849274</ele>
        <time>2015-07-16T14:34:17Z</time>
      </trkpt>
      <trkpt lat="44.46656" lon="6.90614">
        <ele>2647.2452176433</ele>
        <time>2015-07-16T14:34:41Z</time>
      </trkpt>
      <trkpt lat="44.46658" lon="6.90614">
        <ele>2647.2452176433</ele>
        <time>2015-07-16T14:34:47Z</time>
      </trkpt>
      <trkpt lat="44.46666" lon="6.90614">
        <ele>2649.604397518</ele>
        <time>2015-07-16T14:35:08Z</time>
      </trkpt>
      <trkpt lat="44.46667" lon="6.90611">
        <ele>2649.604397518</ele>
        <time>2015-07-16T14:35:11Z</time>
      </trkpt>
      <trkpt lat="44.4667" lon="6.90608">
        <ele>2649.604397518</ele>
        <time>2015-07-16T14:35:19Z</time>
      </trkpt>
      <trkpt lat="44.46673" lon="6.90607">
        <ele>2649.604397518</ele>
        <time>2015-07-16T14:35:21Z</time>
      </trkpt>
      <trkpt lat="44.46675" lon="6.90607">
        <ele>2652.0854809032</ele>
        <time>2015-07-16T14:35:26Z</time>
      </trkpt>
      <trkpt lat="44.46676" lon="6.90605">
        <ele>2652.0854809032</ele>
        <time>2015-07-16T14:35:31Z</time>
      </trkpt>
      <trkpt lat="44.46679" lon="6.90603">
        <ele>2652.0854809032</ele>
        <time>2015-07-16T14:35:36Z</time>
      </trkpt>
      <trkpt lat="44.4668" lon="6.90601">
        <ele>2652.0854809032</ele>
        <time>2015-07-16T14:35:41Z</time>
      </trkpt>
      <trkpt lat="44.46681" lon="6.90601">
        <ele>2652.0854809032</ele>
        <time>2015-07-16T14:36:07Z</time>
      </trkpt>
      <trkpt lat="44.46696" lon="6.90599">
        <ele>2655.025266878</ele>
        <time>2015-07-16T14:36:31Z</time>
      </trkpt>
      <trkpt lat="44.46688" lon="6.90609">
        <ele>2657.8555622258</ele>
        <time>2015-07-16T14:36:54Z</time>
      </trkpt>
      <trkpt lat="44.46695" lon="6.90617">
        <ele>2657.8555622258</ele>
        <time>2015-07-16T14:37:11Z</time>
      </trkpt>
      <trkpt lat="44.46698" lon="6.90617">
        <ele>2660.6411825899</ele>
        <time>2015-07-16T14:37:16Z</time>
      </trkpt>
      <trkpt lat="44.46703" lon="6.90616">
        <ele>2660.6411825899</ele>
        <time>2015-07-16T14:37:59Z</time>
      </trkpt>
      <trkpt lat="44.46712" lon="6.90616">
        <ele>2663.9035650686</ele>
        <time>2015-07-16T14:38:00Z</time>
      </trkpt>
      <trkpt lat="44.46713" lon="6.90616">
        <ele>2663.9035650686</ele>
        <time>2015-07-16T14:38:11Z</time>
      </trkpt>
      <trkpt lat="44.46719" lon="6.90618">
        <ele>2663.9035650686</ele>
        <time>2015-07-16T14:38:23Z</time>
      </trkpt>
      <trkpt lat="44.46721" lon="6.90617">
        <ele>2663.9035650686</ele>
        <time>2015-07-16T14:38:26Z</time>
      </trkpt>
      <trkpt lat="44.46727" lon="6.90615">
        <ele>2667.2743468229</ele>
        <time>2015-07-16T14:38:37Z</time>
      </trkpt>
      <trkpt lat="44.46741" lon="6.90614">
        <ele>2670.6858268288</ele>
        <time>2015-07-16T14:39:08Z</time>
      </trkpt>
      <trkpt lat="44.46748" lon="6.90611">
        <ele>2670.6858268288</ele>
        <time>2015-07-16T14:39:16Z</time>
      </trkpt>
      <trkpt lat="44.46763" lon="6.90618">
        <ele>2675.4010813498</ele>
        <time>2015-07-16T14:40:11Z</time>
      </trkpt>
      <trkpt lat="44.46766" lon="6.90622">
        <ele>2675.4010813498</ele>
        <time>2015-07-16T14:40:16Z</time>
      </trkpt>
      <trkpt lat="44.46763" lon="6.90634">
        <ele>2681.1024993314</ele>
        <time>2015-07-16T14:40:41Z</time>
      </trkpt>
      <trkpt lat="44.46763" lon="6.90635">
        <ele>2681.1024993314</ele>
        <time>2015-07-16T14:40:46Z</time>
      </trkpt>
      <trkpt lat="44.46769" lon="6.90639">
        <ele>2681.1024993314</ele>
        <time>2015-07-16T14:41:11Z</time>
      </trkpt>
      <trkpt lat="44.4677" lon="6.90644">
        <ele>2686.6861201773</ele>
        <time>2015-07-16T14:41:16Z</time>
      </trkpt>
      <trkpt lat="44.4677" lon="6.90649">
        <ele>2686.6861201773</ele>
        <time>2015-07-16T14:41:21Z</time>
      </trkpt>
      <trkpt lat="44.4677" lon="6.9065">
        <ele>2686.6861201773</ele>
        <time>2015-07-16T14:41:26Z</time>
      </trkpt>
      <trkpt lat="44.46765" lon="6.90648">
        <ele>2691.9653737609</ele>
        <time>2015-07-16T14:43:17Z</time>
      </trkpt>
      <trkpt lat="44.4676" lon="6.90646">
        <ele>2691.9653737609</ele>
        <time>2015-07-16T14:43:26Z</time>
      </trkpt>
      <trkpt lat="44.46772" lon="6.90646">
        <ele>2696.6242687243</ele>
        <time>2015-07-16T14:43:58Z</time>
      </trkpt>
      <trkpt lat="44.46768" lon="6.90644">
        <ele>2696.6242687243</ele>
        <time>2015-07-16T14:44:38Z</time>
      </trkpt>
      <trkpt lat="44.46765" lon="6.90642">
        <ele>2696.6242687243</ele>
        <time>2015-07-16T14:45:00Z</time>
      </trkpt>
      <trkpt lat="44.46757" lon="6.90637">
        <ele>2700.8618846964</ele>
        <time>2015-07-16T14:46:09Z</time>
      </trkpt>
      <trkpt lat="44.4676" lon="6.90639">
        <ele>2700.8618846964</ele>
        <time>2015-07-16T14:46:51Z</time>
      </trkpt>
      <trkpt lat="44.46761" lon="6.90642">
        <ele>2700.8618846964</ele>
        <time>2015-07-16T14:46:56Z</time>
      </trkpt>
      <trkpt lat="44.46761" lon="6.90643">
        <ele>2700.8618846964</ele>
        <time>2015-07-16T14:47:01Z</time>
      </trkpt>
      <trkpt lat="44.4676" lon="6.9064">
        <ele>2700.8618846964</ele>
        <time>2015-07-16T14:48:11Z</time>
      </trkpt>
      <trkpt lat="44.46761" lon="6.90643">
        <ele>2704.5613703304</ele>
        <time>2015-07-16T14:48:16Z</time>
      </trkpt>
      <trkpt lat="44.46763" lon="6.90647">
        <ele>2704.5613703304</ele>
        <time>2015-07-16T14:48:21Z</time>
      </trkpt>
      <trkpt lat="44.46765" lon="6.90652">
        <ele>2704.5613703304</ele>
        <time>2015-07-16T14:48:26Z</time>
      </trkpt>
      <trkpt lat="44.46767" lon="6.90655">
        <ele>2707.7746348005</ele>
        <time>2015-07-16T14:48:36Z</time>
      </trkpt>
      <trkpt lat="44.46768" lon="6.90678">
        <ele>2710.5656892207</ele>
        <time>2015-07-16T14:49:16Z</time>
      </trkpt>
      <trkpt lat="44.46769" lon="6.9068">
        <ele>2710.5656892207</ele>
        <time>2015-07-16T14:49:21Z</time>
      </trkpt>
      <trkpt lat="44.46768" lon="6.90686">
        <ele>2710.5656892207</ele>
        <time>2015-07-16T14:49:51Z</time>
      </trkpt>
      <trkpt lat="44.46768" lon="6.90687">
        <ele>2710.5656892207</ele>
        <time>2015-07-16T14:50:12Z</time>
      </trkpt>
      <trkpt lat="44.46772" lon="6.90689">
        <ele>2712.8798691753</ele>
        <time>2015-07-16T14:50:18Z</time>
      </trkpt>
      <trkpt lat="44.46763" lon="6.90695">
        <ele>2714.6247487171</ele>
        <time>2015-07-16T14:51:16Z</time>
      </trkpt>
      <trkpt lat="44.46759" lon="6.90703">
        <ele>2714.6247487171</ele>
        <time>2015-07-16T14:51:46Z</time>
      </trkpt>
      <trkpt lat="44.46759" lon="6.90707">
        <ele>2715.2840561525</ele>
        <time>2015-07-16T14:51:51Z</time>
      </trkpt>
      <trkpt lat="44.46756" lon="6.90725">
        <ele>2714.8869581121</ele>
        <time>2015-07-16T14:52:22Z</time>
      </trkpt>
      <trkpt lat="44.46757" lon="6.90728">
        <ele>2714.8869581121</ele>
        <time>2015-07-16T14:52:26Z</time>
      </trkpt>
      <trkpt lat="44.46758" lon="6.90731">
        <ele>2714.8869581121</ele>
        <time>2015-07-16T14:52:42Z</time>
      </trkpt>
      <trkpt lat="44.46761" lon="6.90744">
        <ele>2713.5211376128</ele>
        <time>2015-07-16T14:53:02Z</time>
      </trkpt>
      <trkpt lat="44.46763" lon="6.90748">
        <ele>2713.5211376128</ele>
        <time>2015-07-16T14:53:22Z</time>
      </trkpt>
      <trkpt lat="44.46758" lon="6.90761">
        <ele>2710.895881454</ele>
        <time>2015-07-16T14:54:21Z</time>
      </trkpt>
      <trkpt lat="44.46753" lon="6.90772">
        <ele>2707.3506076238</ele>
        <time>2015-07-16T14:54:36Z</time>
      </trkpt>
      <trkpt lat="44.4675" lon="6.90772">
        <ele>2707.3506076238</ele>
        <time>2015-07-16T14:54:41Z</time>
      </trkpt>
      <trkpt lat="44.46756" lon="6.90781">
        <ele>2703.4905341212</ele>
        <time>2015-07-16T14:55:01Z</time>
      </trkpt>
      <trkpt lat="44.46756" lon="6.90782">
        <ele>2703.4905341212</ele>
        <time>2015-07-16T14:55:17Z</time>
      </trkpt>
      <trkpt lat="44.46755" lon="6.90792">
        <ele>2703.4905341212</ele>
        <time>2015-07-16T14:55:23Z</time>
      </trkpt>
      <trkpt lat="44.46755" lon="6.90795">
        <ele>2699.3439736339</ele>
        <time>2015-07-16T14:55:26Z</time>
      </trkpt>
      <trkpt lat="44.46753" lon="6.90807">
        <ele>2699.3439736339</ele>
        <time>2015-07-16T14:56:00Z</time>
      </trkpt>
      <trkpt lat="44.46755" lon="6.90822">
        <ele>2694.7216280981</ele>
        <time>2015-07-16T14:56:21Z</time>
      </trkpt>
      <trkpt lat="44.46753" lon="6.90831">
        <ele>2694.7216280981</ele>
        <time>2015-07-16T14:56:26Z</time>
      </trkpt>
      <trkpt lat="44.46749" lon="6.9087">
        <ele>2690.0977237778</ele>
        <time>2015-07-16T14:57:08Z</time>
      </trkpt>
      <trkpt lat="44.46749" lon="6.90893">
        <ele>2684.8882021226</ele>
        <time>2015-07-16T14:57:26Z</time>
      </trkpt>
      <trkpt lat="44.46746" lon="6.90897">
        <ele>2684.8882021226</ele>
        <time>2015-07-16T14:57:31Z</time>
      </trkpt>
      <trkpt lat="44.46745" lon="6.90899">
        <ele>2684.8882021226</ele>
        <time>2015-07-16T14:57:36Z</time>
      </trkpt>
      <trkpt lat="44.46746" lon="6.90901">
        <ele>2684.8882021226</ele>
        <time>2015-07-16T14:57:41Z</time>
      </trkpt>
      <trkpt lat="44.46745" lon="6.90915">
        <ele>2679.4899658495</ele>
        <time>2015-07-16T14:58:03Z</time>
      </trkpt>
      <trkpt lat="44.46734" lon="6.90938">
        <ele>2674.2132948935</ele>
        <time>2015-07-16T14:58:26Z</time>
      </trkpt>
      <trkpt lat="44.46734" lon="6.90945">
        <ele>2674.2132948935</ele>
        <time>2015-07-16T14:58:38Z</time>
      </trkpt>
      <trkpt lat="44.46735" lon="6.90963">
        <ele>2668.8693769336</ele>
        <time>2015-07-16T14:58:49Z</time>
      </trkpt>
      <trkpt lat="44.4673" lon="6.90975">
        <ele>2663.9027089071</ele>
        <time>2015-07-16T14:59:09Z</time>
      </trkpt>
      <trkpt lat="44.46725" lon="6.90972">
        <ele>2663.9027089071</ele>
        <time>2015-07-16T14:59:11Z</time>
      </trkpt>
      <trkpt lat="44.4672" lon="6.90981">
        <ele>2658.5274944762</ele>
        <time>2015-07-16T14:59:24Z</time>
      </trkpt>
      <trkpt lat="44.46719" lon="6.90984">
        <ele>2658.5274944762</ele>
        <time>2015-07-16T14:59:26Z</time>
      </trkpt>
      <trkpt lat="44.46719" lon="6.90996">
        <ele>2653.2556756878</ele>
        <time>2015-07-16T14:59:36Z</time>
      </trkpt>
      <trkpt lat="44.46713" lon="6.91018">
        <ele>2648.1284519557</ele>
        <time>2015-07-16T15:00:00Z</time>
      </trkpt>
      <trkpt lat="44.467" lon="6.91054">
        <ele>2643.0533577656</ele>
        <time>2015-07-16T15:00:26Z</time>
      </trkpt>
      <trkpt lat="44.46699" lon="6.91062">
        <ele>2643.0533577656</ele>
        <time>2015-07-16T15:00:31Z</time>
      </trkpt>
      <trkpt lat="44.46697" lon="6.91069">
        <ele>2638.2898909656</ele>
        <time>2015-07-16T15:00:36Z</time>
      </trkpt>
      <trkpt lat="44.46695" lon="6.91091">
        <ele>2633.6591278326</ele>
        <time>2015-07-16T15:00:55Z</time>
      </trkpt>
      <trkpt lat="44.46684" lon="6.91137">
        <ele>2628.3458431766</ele>
        <time>2015-07-16T15:01:24Z</time>
      </trkpt>
      <trkpt lat="44.46682" lon="6.91145">
        <ele>2628.3458431766</ele>
        <time>2015-07-16T15:01:26Z</time>
      </trkpt>
      <trkpt lat="44.46681" lon="6.91154">
        <ele>2623.2244887863</ele>
        <time>2015-07-16T15:01:33Z</time>
      </trkpt>
      <trkpt lat="44.46673" lon="6.91168">
        <ele>2617.922444181</ele>
        <time>2015-07-16T15:01:46Z</time>
      </trkpt>
      <trkpt lat="44.46669" lon="6.91181">
        <ele>2612.7428785975</ele>
        <time>2015-07-16T15:01:55Z</time>
      </trkpt>
      <trkpt lat="44.46669" lon="6.91184">
        <ele>2612.7428785975</ele>
        <time>2015-07-16T15:01:56Z</time>
      </trkpt>
      <trkpt lat="44.4667" lon="6.91185">
        <ele>2612.7428785975</ele>
        <time>2015-07-16T15:02:01Z</time>
      </trkpt>
      <trkpt lat="44.46675" lon="6.91193">
        <ele>2607.9513437335</ele>
        <time>2015-07-16T15:02:26Z</time>
      </trkpt>
      <trkpt lat="44.46667" lon="6.91183">
        <ele>2603.2445813347</ele>
        <time>2015-07-16T15:02:59Z</time>
      </trkpt>
      <trkpt lat="44.46664" lon="6.91184">
        <ele>2603.2445813347</ele>
        <time>2015-07-16T15:03:27Z</time>
      </trkpt>
      <trkpt lat="44.46664" lon="6.91186">
        <ele>2603.2445813347</ele>
        <time>2015-07-16T15:03:27Z</time>
      </trkpt>
      <trkpt lat="44.46668" lon="6.91197">
        <ele>2597.4905262533</ele>
        <time>2015-07-16T15:03:31Z</time>
      </trkpt>
      <trkpt lat="44.46669" lon="6.91205">
        <ele>2597.4905262533</ele>
        <time>2015-07-16T15:03:36Z</time>
      </trkpt>
      <trkpt lat="44.4667" lon="6.91214">
        <ele>2591.9051701108</ele>
        <time>2015-07-16T15:03:41Z</time>
      </trkpt>
      <trkpt lat="44.4667" lon="6.91208">
        <ele>2591.9051701108</ele>
        <time>2015-07-16T15:03:49Z</time>
      </trkpt>
      <trkpt lat="44.46664" lon="6.91217">
        <ele>2585.3803965205</ele>
        <time>2015-07-16T15:04:13Z</time>
      </trkpt>
      <trkpt lat="44.46645" lon="6.91239">
        <ele>2578.4767630036</ele>
        <time>2015-07-16T15:04:23Z</time>
      </trkpt>
      <trkpt lat="44.46638" lon="6.91242">
        <ele>2578.4767630036</ele>
        <time>2015-07-16T15:04:31Z</time>
      </trkpt>
      <trkpt lat="44.46632" lon="6.91243">
        <ele>2572.0455803897</ele>
        <time>2015-07-16T15:04:39Z</time>
      </trkpt>
      <trkpt lat="44.46629" lon="6.91246">
        <ele>2572.0455803897</ele>
        <time>2015-07-16T15:04:48Z</time>
      </trkpt>
      <trkpt lat="44.46612" lon="6.91275">
        <ele>2565.0867299633</ele>
        <time>2015-07-16T15:05:13Z</time>
      </trkpt>
      <trkpt lat="44.46584" lon="6.91268">
        <ele>2558.0579177617</ele>
        <time>2015-07-16T15:05:28Z</time>
      </trkpt>
      <trkpt lat="44.46581" lon="6.91265">
        <ele>2558.0579177617</ele>
        <time>2015-07-16T15:05:31Z</time>
      </trkpt>
      <trkpt lat="44.4658" lon="6.91262">
        <ele>2558.0579177617</ele>
        <time>2015-07-16T15:05:41Z</time>
      </trkpt>
      <trkpt lat="44.4656" lon="6.91248">
        <ele>2550.0858295518</ele>
        <time>2015-07-16T15:06:17Z</time>
      </trkpt>
      <trkpt lat="44.46557" lon="6.91255">
        <ele>2550.0858295518</ele>
        <time>2015-07-16T15:06:29Z</time>
      </trkpt>
      <trkpt lat="44.46551" lon="6.91247">
        <ele>2542.3088560664</ele>
        <time>2015-07-16T15:07:06Z</time>
      </trkpt>
      <trkpt lat="44.46549" lon="6.91245">
        <ele>2542.3088560664</ele>
        <time>2015-07-16T15:07:11Z</time>
      </trkpt>
      <trkpt lat="44.46547" lon="6.91247">
        <ele>2542.3088560664</ele>
        <time>2015-07-16T15:07:24Z</time>
      </trkpt>
      <trkpt lat="44.46556" lon="6.91256">
        <ele>2535.2329963853</ele>
        <time>2015-07-16T15:07:31Z</time>
      </trkpt>
      <trkpt lat="44.46556" lon="6.91256">
        <ele>2535.2329963853</ele>
        <time>2015-07-16T15:07:36Z</time>
      </trkpt>
      <trkpt lat="44.46563" lon="6.91302">
        <ele>2528.8633615203</ele>
        <time>2015-07-16T15:08:31Z</time>
      </trkpt>
      <trkpt lat="44.46566" lon="6.91309">
        <ele>2528.8633615203</ele>
        <time>2015-07-16T15:08:36Z</time>
      </trkpt>
      <trkpt lat="44.46574" lon="6.91318">
        <ele>2523.2597609972</ele>
        <time>2015-07-16T15:08:54Z</time>
      </trkpt>
      <trkpt lat="44.46604" lon="6.91342">
        <ele>2518.3019514728</ele>
        <time>2015-07-16T15:09:31Z</time>
      </trkpt>
      <trkpt lat="44.46601" lon="6.91346">
        <ele>2518.3019514728</ele>
        <time>2015-07-16T15:09:36Z</time>
      </trkpt>
      <trkpt lat="44.46609" lon="6.91355">
        <ele>2513.5591078284</ele>
        <time>2015-07-16T15:10:12Z</time>
      </trkpt>
      <trkpt lat="44.46633" lon="6.91355">
        <ele>2508.7317919099</ele>
        <time>2015-07-16T15:10:32Z</time>
      </trkpt>
      <trkpt lat="44.46636" lon="6.91353">
        <ele>2508.7317919099</ele>
        <time>2015-07-16T15:10:36Z</time>
      </trkpt>
      <trkpt lat="44.46638" lon="6.91351">
        <ele>2508.7317919099</ele>
        <time>2015-07-16T15:10:43Z</time>
      </trkpt>
      <trkpt lat="44.46636" lon="6.91354">
        <ele>2508.7317919099</ele>
        <time>2015-07-16T15:11:01Z</time>
      </trkpt>
      <trkpt lat="44.46629" lon="6.91358">
        <ele>2504.2628447359</ele>
        <time>2015-07-16T15:11:06Z</time>
      </trkpt>
      <trkpt lat="44.46625" lon="6.91364">
        <ele>2504.2628447359</ele>
        <time>2015-07-16T15:11:11Z</time>
      </trkpt>
      <trkpt lat="44.46619" lon="6.9137">
        <ele>2500.4313890108</ele>
        <time>2015-07-16T15:11:16Z</time>
      </trkpt>
      <trkpt lat="44.46616" lon="6.91376">
        <ele>2500.4313890108</ele>
        <time>2015-07-16T15:11:27Z</time>
      </trkpt>
      <trkpt lat="44.4661" lon="6.91396">
        <ele>2497.0902915111</ele>
        <time>2015-07-16T15:11:34Z</time>
      </trkpt>
      <trkpt lat="44.46609" lon="6.91399">
        <ele>2497.0902915111</ele>
        <time>2015-07-16T15:11:36Z</time>
      </trkpt>
      <trkpt lat="44.46612" lon="6.91442">
        <ele>2493.8708535836</ele>
        <time>2015-07-16T15:12:03Z</time>
      </trkpt>
      <trkpt lat="44.46612" lon="6.91449">
        <ele>2493.8708535836</ele>
        <time>2015-07-16T15:12:06Z</time>
      </trkpt>
      <trkpt lat="44.46614" lon="6.91453">
        <ele>2493.8708535836</ele>
        <time>2015-07-16T15:12:11Z</time>
      </trkpt>
      <trkpt lat="44.46617" lon="6.91459">
        <ele>2490.7766000136</ele>
        <time>2015-07-16T15:12:19Z</time>
      </trkpt>
      <trkpt lat="44.46634" lon="6.9148">
        <ele>2487.5218710899</ele>
        <time>2015-07-16T15:12:36Z</time>
      </trkpt>
      <trkpt lat="44.46671" lon="6.91482">
        <ele>2483.3233215732</ele>
        <time>2015-07-16T15:13:14Z</time>
      </trkpt>
      <trkpt lat="44.46673" lon="6.91482">
        <ele>2483.3233215732</ele>
        <time>2015-07-16T15:13:16Z</time>
      </trkpt>
      <trkpt lat="44.46682" lon="6.9148">
        <ele>2479.1724305484</ele>
        <time>2015-07-16T15:13:27Z</time>
      </trkpt>
      <trkpt lat="44.46693" lon="6.91487">
        <ele>2475.4254129188</ele>
        <time>2015-07-16T15:13:36Z</time>
      </trkpt>
      <trkpt lat="44.46698" lon="6.91492">
        <ele>2475.4254129188</ele>
        <time>2015-07-16T15:13:50Z</time>
      </trkpt>
      <trkpt lat="44.46709" lon="6.91502">
        <ele>2471.1139424791</ele>
        <time>2015-07-16T15:14:06Z</time>
      </trkpt>
      <trkpt lat="44.46725" lon="6.91506">
        <ele>2466.7544792357</ele>
        <time>2015-07-16T15:14:23Z</time>
      </trkpt>
      <trkpt lat="44.46727" lon="6.91506">
        <ele>2466.7544792357</ele>
        <time>2015-07-16T15:14:35Z</time>
      </trkpt>
      <trkpt lat="44.46746" lon="6.91512">
        <ele>2462.5228460539</ele>
        <time>2015-07-16T15:14:36Z</time>
      </trkpt>
      <trkpt lat="44.46746" lon="6.91511">
        <ele>2462.5228460539</ele>
        <time>2015-07-16T15:14:41Z</time>
      </trkpt>
      <trkpt lat="44.46749" lon="6.9151">
        <ele>2462.5228460539</ele>
        <time>2015-07-16T15:14:51Z</time>
      </trkpt>
      <trkpt lat="44.46755" lon="6.91512">
        <ele>2458.6246442625</ele>
        <time>2015-07-16T15:14:56Z</time>
      </trkpt>
      <trkpt lat="44.46761" lon="6.91509">
        <ele>2458.6246442625</ele>
        <time>2015-07-16T15:15:01Z</time>
      </trkpt>
      <trkpt lat="44.46809" lon="6.91504">
        <ele>2453.5199379072</ele>
        <time>2015-07-16T15:15:38Z</time>
      </trkpt>
      <trkpt lat="44.46814" lon="6.91504">
        <ele>2453.5199379072</ele>
        <time>2015-07-16T15:15:41Z</time>
      </trkpt>
      <trkpt lat="44.46823" lon="6.91495">
        <ele>2448.3070935166</ele>
        <time>2015-07-16T15:16:00Z</time>
      </trkpt>
      <trkpt lat="44.46865" lon="6.91453">
        <ele>2442.5196111003</ele>
        <time>2015-07-16T15:16:36Z</time>
      </trkpt>
      <trkpt lat="44.4687" lon="6.91448">
        <ele>2442.5196111003</ele>
        <time>2015-07-16T15:16:41Z</time>
      </trkpt>
      <trkpt lat="44.46886" lon="6.9144">
        <ele>2437.2831410355</ele>
        <time>2015-07-16T15:17:07Z</time>
      </trkpt>
      <trkpt lat="44.46904" lon="6.91426">
        <ele>2432.5004957155</ele>
        <time>2015-07-16T15:17:19Z</time>
      </trkpt>
      <trkpt lat="44.46905" lon="6.91425">
        <ele>2432.5004957155</ele>
        <time>2015-07-16T15:17:24Z</time>
      </trkpt>
      <trkpt lat="44.46908" lon="6.91421">
        <ele>2432.5004957155</ele>
        <time>2015-07-16T15:17:33Z</time>
      </trkpt>
      <trkpt lat="44.46924" lon="6.91411">
        <ele>2428.2531706865</ele>
        <time>2015-07-16T15:17:41Z</time>
      </trkpt>
      <trkpt lat="44.46927" lon="6.91409">
        <ele>2428.2531706865</ele>
        <time>2015-07-16T15:17:46Z</time>
      </trkpt>
      <trkpt lat="44.46928" lon="6.91409">
        <ele>2428.2531706865</ele>
        <time>2015-07-16T15:17:51Z</time>
      </trkpt>
      <trkpt lat="44.46932" lon="6.91409">
        <ele>2428.2531706865</ele>
        <time>2015-07-16T15:17:56Z</time>
      </trkpt>
      <trkpt lat="44.46936" lon="6.91407">
        <ele>2424.4709559521</ele>
        <time>2015-07-16T15:18:01Z</time>
      </trkpt>
      <trkpt lat="44.46935" lon="6.91402">
        <ele>2424.4709559521</ele>
        <time>2015-07-16T15:18:09Z</time>
      </trkpt>
      <trkpt lat="44.46939" lon="6.91393">
        <ele>2421.2315137609</ele>
        <time>2015-07-16T15:18:14Z</time>
      </trkpt>
      <trkpt lat="44.46942" lon="6.91393">
        <ele>2421.2315137609</ele>
        <time>2015-07-16T15:18:16Z</time>
      </trkpt>
      <trkpt lat="44.46946" lon="6.91398">
        <ele>2421.2315137609</ele>
        <time>2015-07-16T15:18:21Z</time>
      </trkpt>
      <trkpt lat="44.46953" lon="6.91396">
        <ele>2418.1152260661</ele>
        <time>2015-07-16T15:18:34Z</time>
      </trkpt>
      <trkpt lat="44.46955" lon="6.91395">
        <ele>2418.1152260661</ele>
        <time>2015-07-16T15:18:36Z</time>
      </trkpt>
      <trkpt lat="44.46957" lon="6.91392">
        <ele>2418.1152260661</ele>
        <time>2015-07-16T15:18:41Z</time>
      </trkpt>
      <trkpt lat="44.46958" lon="6.91365">
        <ele>2414.7905425922</ele>
        <time>2015-07-16T15:19:03Z</time>
      </trkpt>
      <trkpt lat="44.46978" lon="6.91343">
        <ele>2411.5416719789</ele>
        <time>2015-07-16T15:19:26Z</time>
      </trkpt>
      <trkpt lat="44.46984" lon="6.91342">
        <ele>2411.5416719789</ele>
        <time>2015-07-16T15:19:33Z</time>
      </trkpt>
      <trkpt lat="44.46989" lon="6.91343">
        <ele>2408.7181813061</ele>
        <time>2015-07-16T15:19:38Z</time>
      </trkpt>
      <trkpt lat="44.46993" lon="6.91345">
        <ele>2408.7181813061</ele>
        <time>2015-07-16T15:19:42Z</time>
      </trkpt>
      <trkpt lat="44.4701" lon="6.91341">
        <ele>2405.7492763331</ele>
        <time>2015-07-16T15:20:04Z</time>
      </trkpt>
      <trkpt lat="44.47015" lon="6.91338">
        <ele>2405.7492763331</ele>
        <time>2015-07-16T15:20:06Z</time>
      </trkpt>
      <trkpt lat="44.4702" lon="6.91335">
        <ele>2402.6829628513</ele>
        <time>2015-07-16T15:20:11Z</time>
      </trkpt>
      <trkpt lat="44.47025" lon="6.91331">
        <ele>2402.6829628513</ele>
        <time>2015-07-16T15:20:16Z</time>
      </trkpt>
      <trkpt lat="44.47035" lon="6.91327">
        <ele>2399.8090161588</ele>
        <time>2015-07-16T15:20:23Z</time>
      </trkpt>
      <trkpt lat="44.47038" lon="6.91326">
        <ele>2399.8090161588</ele>
        <time>2015-07-16T15:20:33Z</time>
      </trkpt>
      <trkpt lat="44.47054" lon="6.91325">
        <ele>2397.0207455405</ele>
        <time>2015-07-16T15:20:42Z</time>
      </trkpt>
      <trkpt lat="44.47055" lon="6.91326">
        <ele>2397.0207455405</ele>
        <time>2015-07-16T15:20:42Z</time>
      </trkpt>
      <trkpt lat="44.47061" lon="6.91325">
        <ele>2397.0207455405</ele>
        <time>2015-07-16T15:20:46Z</time>
      </trkpt>
      <trkpt lat="44.47065" lon="6.91323">
        <ele>2394.5073439942</ele>
        <time>2015-07-16T15:20:51Z</time>
      </trkpt>
      <trkpt lat="44.4709" lon="6.91303">
        <ele>2391.3481680909</ele>
        <time>2015-07-16T15:21:18Z</time>
      </trkpt>
      <trkpt lat="44.47117" lon="6.91288">
        <ele>2388.1764505717</ele>
        <time>2015-07-16T15:21:42Z</time>
      </trkpt>
      <trkpt lat="44.47123" lon="6.91285">
        <ele>2388.1764505717</ele>
        <time>2015-07-16T15:21:46Z</time>
      </trkpt>
      <trkpt lat="44.47134" lon="6.91273">
        <ele>2385.1322979371</ele>
        <time>2015-07-16T15:21:59Z</time>
      </trkpt>
      <trkpt lat="44.47154" lon="6.91253">
        <ele>2381.9705861357</ele>
        <time>2015-07-16T15:22:31Z</time>
      </trkpt>
      <trkpt lat="44.47167" lon="6.91243">
        <ele>2379.3869551399</ele>
        <time>2015-07-16T15:22:36Z</time>
      </trkpt>
      <trkpt lat="44.47172" lon="6.91236">
        <ele>2379.3869551399</ele>
        <time>2015-07-16T15:22:44Z</time>
      </trkpt>
      <trkpt lat="44.47173" lon="6.91234">
        <ele>2377.2606571062</ele>
        <time>2015-07-16T15:22:46Z</time>
      </trkpt>
      <trkpt lat="44.47191" lon="6.91211">
        <ele>2375.4210206832</ele>
        <time>2015-07-16T15:23:32Z</time>
      </trkpt>
      <trkpt lat="44.47204" lon="6.91225">
        <ele>2373.8245416482</ele>
        <time>2015-07-16T15:23:36Z</time>
      </trkpt>
      <trkpt lat="44.47216" lon="6.91227">
        <ele>2372.531265168</ele>
        <time>2015-07-16T15:23:45Z</time>
      </trkpt>
      <trkpt lat="44.47217" lon="6.91228">
        <ele>2372.531265168</ele>
        <time>2015-07-16T15:23:46Z</time>
      </trkpt>
      <trkpt lat="44.47223" lon="6.91229">
        <ele>2372.531265168</ele>
        <time>2015-07-16T15:23:51Z</time>
      </trkpt>
      <trkpt lat="44.47226" lon="6.91229">
        <ele>2371.4808579396</ele>
        <time>2015-07-16T15:23:58Z</time>
      </trkpt>
      <trkpt lat="44.47229" lon="6.91228">
        <ele>2371.4808579396</ele>
        <time>2015-07-16T15:24:10Z</time>
      </trkpt>
      <trkpt lat="44.47267" lon="6.91208">
        <ele>2369.752255378</ele>
        <time>2015-07-16T15:24:41Z</time>
      </trkpt>
      <trkpt lat="44.47268" lon="6.91207">
        <ele>2369.752255378</ele>
        <time>2015-07-16T15:24:47Z</time>
      </trkpt>
      <trkpt lat="44.4727" lon="6.91205">
        <ele>2369.752255378</ele>
        <time>2015-07-16T15:24:51Z</time>
      </trkpt>
      <trkpt lat="44.47274" lon="6.91201">
        <ele>2369.752255378</ele>
        <time>2015-07-16T15:25:00Z</time>
      </trkpt>
      <trkpt lat="44.47278" lon="6.91196">
        <ele>2368.1081985359</ele>
        <time>2015-07-16T15:25:06Z</time>
      </trkpt>
      <trkpt lat="44.47292" lon="6.91186">
        <ele>2366.5204013733</ele>
        <time>2015-07-16T15:25:13Z</time>
      </trkpt>
      <trkpt lat="44.47297" lon="6.91182">
        <ele>2366.5204013733</ele>
        <time>2015-07-16T15:25:23Z</time>
      </trkpt>
      <trkpt lat="44.4733" lon="6.91155">
        <ele>2364.8762468242</ele>
        <time>2015-07-16T15:25:47Z</time>
      </trkpt>
      <trkpt lat="44.47335" lon="6.91151">
        <ele>2364.8762468242</ele>
        <time>2015-07-16T15:25:51Z</time>
      </trkpt>
      <trkpt lat="44.47341" lon="6.9115">
        <ele>2363.4896932578</ele>
        <time>2015-07-16T15:26:05Z</time>
      </trkpt>
      <trkpt lat="44.47349" lon="6.91142">
        <ele>2362.18998562</ele>
        <time>2015-07-16T15:26:05Z</time>
      </trkpt>
      <trkpt lat="44.47351" lon="6.91142">
        <ele>2362.18998562</ele>
        <time>2015-07-16T15:26:13Z</time>
      </trkpt>
      <trkpt lat="44.47369" lon="6.91132">
        <ele>2361.1791808134</ele>
        <time>2015-07-16T15:26:31Z</time>
      </trkpt>
      <trkpt lat="44.47371" lon="6.91131">
        <ele>2361.1791808134</ele>
        <time>2015-07-16T15:26:31Z</time>
      </trkpt>
      <trkpt lat="44.47392" lon="6.91118">
        <ele>2359.7071988114</ele>
        <time>2015-07-16T15:26:42Z</time>
      </trkpt>
      <trkpt lat="44.47395" lon="6.91116">
        <ele>2359.7071988114</ele>
        <time>2015-07-16T15:26:46Z</time>
      </trkpt>
      <trkpt lat="44.47401" lon="6.91113">
        <ele>2358.2911311343</ele>
        <time>2015-07-16T15:26:51Z</time>
      </trkpt>
      <trkpt lat="44.47406" lon="6.91111">
        <ele>2358.2911311343</ele>
        <time>2015-07-16T15:26:56Z</time>
      </trkpt>
      <trkpt lat="44.47413" lon="6.91105">
        <ele>2356.7904958393</ele>
        <time>2015-07-16T15:27:14Z</time>
      </trkpt>
      <trkpt lat="44.47425" lon="6.91092">
        <ele>2355.1620826355</ele>
        <time>2015-07-16T15:27:17Z</time>
      </trkpt>
      <trkpt lat="44.47455" lon="6.91055">
        <ele>2352.458559299</ele>
        <time>2015-07-16T15:27:51Z</time>
      </trkpt>
      <trkpt lat="44.47462" lon="6.91056">
        <ele>2352.458559299</ele>
        <time>2015-07-16T15:27:56Z</time>
      </trkpt>
      <trkpt lat="44.47468" lon="6.91055">
        <ele>2349.6788862583</ele>
        <time>2015-07-16T15:28:01Z</time>
      </trkpt>
      <trkpt lat="44.47479" lon="6.91054">
        <ele>2346.9997098554</ele>
        <time>2015-07-16T15:28:11Z</time>
      </trkpt>
      <trkpt lat="44.47486" lon="6.91053">
        <ele>2346.9997098554</ele>
        <time>2015-07-16T15:28:28Z</time>
      </trkpt>
      <trkpt lat="44.47486" lon="6.91053">
        <ele>2346.9997098554</ele>
        <time>2015-07-16T15:28:36Z</time>
      </trkpt>
      <trkpt lat="44.47489" lon="6.91054">
        <ele>2344.9160982132</ele>
        <time>2015-07-16T15:28:41Z</time>
      </trkpt>
      <trkpt lat="44.4749" lon="6.91049">
        <ele>2344.9160982132</ele>
        <time>2015-07-16T15:28:50Z</time>
      </trkpt>
      <trkpt lat="44.47489" lon="6.91048">
        <ele>2344.9160982132</ele>
        <time>2015-07-16T15:28:51Z</time>
      </trkpt>
      <trkpt lat="44.47488" lon="6.91048">
        <ele>2344.9160982132</ele>
        <time>2015-07-16T15:28:56Z</time>
      </trkpt>
      <trkpt lat="44.47481" lon="6.91039">
        <ele>2342.7756399426</ele>
        <time>2015-07-16T15:29:21Z</time>
      </trkpt>
      <trkpt lat="44.4747" lon="6.91006">
        <ele>2340.7668267455</ele>
        <time>2015-07-16T15:29:47Z</time>
      </trkpt>
      <trkpt lat="44.4747" lon="6.90996">
        <ele>2340.7668267455</ele>
        <time>2015-07-16T15:29:52Z</time>
      </trkpt>
      <trkpt lat="44.47471" lon="6.9099">
        <ele>2338.8912010194</ele>
        <time>2015-07-16T15:29:57Z</time>
      </trkpt>
      <trkpt lat="44.47485" lon="6.90971">
        <ele>2337.2364796828</ele>
        <time>2015-07-16T15:30:11Z</time>
      </trkpt>
      <trkpt lat="44.47483" lon="6.9095">
        <ele>2335.5664619042</ele>
        <time>2015-07-16T15:30:28Z</time>
      </trkpt>
      <trkpt lat="44.47475" lon="6.90932">
        <ele>2334.0083941352</ele>
        <time>2015-07-16T15:30:40Z</time>
      </trkpt>
      <trkpt lat="44.47473" lon="6.90926">
        <ele>2334.0083941352</ele>
        <time>2015-07-16T15:30:47Z</time>
      </trkpt>
      <trkpt lat="44.47463" lon="6.90913">
        <ele>2332.3485885707</ele>
        <time>2015-07-16T15:30:54Z</time>
      </trkpt>
      <trkpt lat="44.47459" lon="6.90906">
        <ele>2332.3485885707</ele>
        <time>2015-07-16T15:31:00Z</time>
      </trkpt>
      <trkpt lat="44.47457" lon="6.9089">
        <ele>2330.5192194801</ele>
        <time>2015-07-16T15:31:06Z</time>
      </trkpt>
      <trkpt lat="44.47496" lon="6.90881">
        <ele>2328.832783583</ele>
        <time>2015-07-16T15:31:46Z</time>
      </trkpt>
      <trkpt lat="44.47502" lon="6.90876">
        <ele>2328.832783583</ele>
        <time>2015-07-16T15:31:51Z</time>
      </trkpt>
      <trkpt lat="44.47512" lon="6.90874">
        <ele>2327.0453802408</ele>
        <time>2015-07-16T15:32:08Z</time>
      </trkpt>
      <trkpt lat="44.47522" lon="6.90866">
        <ele>2325.2341079796</ele>
        <time>2015-07-16T15:32:17Z</time>
      </trkpt>
      <trkpt lat="44.47527" lon="6.90859">
        <ele>2325.2341079796</ele>
        <time>2015-07-16T15:32:35Z</time>
      </trkpt>
      <trkpt lat="44.47549" lon="6.90837">
        <ele>2323.2400507844</ele>
        <time>2015-07-16T15:32:42Z</time>
      </trkpt>
      <trkpt lat="44.47554" lon="6.90834">
        <ele>2323.2400507844</ele>
        <time>2015-07-16T15:32:51Z</time>
      </trkpt>
      <trkpt lat="44.47557" lon="6.90835">
        <ele>2323.2400507844</ele>
        <time>2015-07-16T15:32:56Z</time>
      </trkpt>
      <trkpt lat="44.47568" lon="6.90825">
        <ele>2321.0175106332</ele>
        <time>2015-07-16T15:33:37Z</time>
      </trkpt>
      <trkpt lat="44.47565" lon="6.90822">
        <ele>2321.0175106332</ele>
        <time>2015-07-16T15:33:41Z</time>
      </trkpt>
      <trkpt lat="44.47561" lon="6.90819">
        <ele>2321.0175106332</ele>
        <time>2015-07-16T15:33:46Z</time>
      </trkpt>
      <trkpt lat="44.47556" lon="6.90812">
        <ele>2319.014912013</ele>
        <time>2015-07-16T15:33:52Z</time>
      </trkpt>
      <trkpt lat="44.47553" lon="6.90807">
        <ele>2319.014912013</ele>
        <time>2015-07-16T15:34:12Z</time>
      </trkpt>
      <trkpt lat="44.47531" lon="6.90775">
        <ele>2316.8978823856</ele>
        <time>2015-07-16T15:34:39Z</time>
      </trkpt>
      <trkpt lat="44.4751" lon="6.90738">
        <ele>2314.7461643279</ele>
        <time>2015-07-16T15:34:51Z</time>
      </trkpt>
      <trkpt lat="44.47484" lon="6.90687">
        <ele>2312.3312292745</ele>
        <time>2015-07-16T15:35:31Z</time>
      </trkpt>
      <trkpt lat="44.47465" lon="6.90641">
        <ele>2309.2548434115</ele>
        <time>2015-07-16T15:35:51Z</time>
      </trkpt>
      <trkpt lat="44.47461" lon="6.90633">
        <ele>2309.2548434115</ele>
        <time>2015-07-16T15:35:56Z</time>
      </trkpt>
      <trkpt lat="44.4745" lon="6.9059">
        <ele>2305.6687843026</ele>
        <time>2015-07-16T15:36:25Z</time>
      </trkpt>
      <trkpt lat="44.47448" lon="6.90541">
        <ele>2301.5422633244</ele>
        <time>2015-07-16T15:36:46Z</time>
      </trkpt>
      <trkpt lat="44.47449" lon="6.90532">
        <ele>2301.5422633244</ele>
        <time>2015-07-16T15:36:52Z</time>
      </trkpt>
      <trkpt lat="44.47456" lon="6.90496">
        <ele>2296.8051049644</ele>
        <time>2015-07-16T15:37:14Z</time>
      </trkpt>
      <trkpt lat="44.47456" lon="6.90461">
        <ele>2291.9849050269</ele>
        <time>2015-07-16T15:37:36Z</time>
      </trkpt>
      <trkpt lat="44.4746" lon="6.90445">
        <ele>2287.4698827746</ele>
        <time>2015-07-16T15:37:51Z</time>
      </trkpt>
      <trkpt lat="44.4746" lon="6.90401">
        <ele>2282.6533404972</ele>
        <time>2015-07-16T15:38:17Z</time>
      </trkpt>
      <trkpt lat="44.47469" lon="6.90393">
        <ele>2277.9106971027</ele>
        <time>2015-07-16T15:38:31Z</time>
      </trkpt>
      <trkpt lat="44.47477" lon="6.90386">
        <ele>2277.9106971027</ele>
        <time>2015-07-16T15:38:51Z</time>
      </trkpt>
      <trkpt lat="44.47484" lon="6.90367">
        <ele>2273.0995684872</ele>
        <time>2015-07-16T15:38:56Z</time>
      </trkpt>
      <trkpt lat="44.4748" lon="6.90335">
        <ele>2268.2610971105</ele>
        <time>2015-07-16T15:39:29Z</time>
      </trkpt>
      <trkpt lat="44.4748" lon="6.90327">
        <ele>2268.2610971105</ele>
        <time>2015-07-16T15:39:52Z</time>
      </trkpt>
      <trkpt lat="44.47477" lon="6.90333">
        <ele>2263.5919264429</ele>
        <time>2015-07-16T15:39:59Z</time>
      </trkpt>
      <trkpt lat="44.47496" lon="6.90371">
        <ele>2259.706023303</ele>
        <time>2015-07-16T15:40:33Z</time>
      </trkpt>
      <trkpt lat="44.47522" lon="6.90371">
        <ele>2256.391754752</ele>
        <time>2015-07-16T15:40:52Z</time>
      </trkpt>
      <trkpt lat="44.47528" lon="6.90372">
        <ele>2256.391754752</ele>
        <time>2015-07-16T15:40:58Z</time>
      </trkpt>
      <trkpt lat="44.4759" lon="6.90343">
        <ele>2252.7451780354</ele>
        <time>2015-07-16T15:41:56Z</time>
      </trkpt>
      <trkpt lat="44.47595" lon="6.90343">
        <ele>2252.7451780354</ele>
        <time>2015-07-16T15:42:09Z</time>
      </trkpt>
      <trkpt lat="44.47598" lon="6.90344">
        <ele>2252.7451780354</ele>
        <time>2015-07-16T15:42:15Z</time>
      </trkpt>
      <trkpt lat="44.47618" lon="6.90335">
        <ele>2249.7453756274</ele>
        <time>2015-07-16T15:42:34Z</time>
      </trkpt>
      <trkpt lat="44.47628" lon="6.90328">
        <ele>2247.1014599999</ele>
        <time>2015-07-16T15:42:50Z</time>
      </trkpt>
      <trkpt lat="44.47628" lon="6.90328">
        <ele>2247.1014599999</ele>
        <time>2015-07-16T15:43:00Z</time>
      </trkpt>
      <trkpt lat="44.4763" lon="6.90324">
        <ele>2247.1014599999</ele>
        <time>2015-07-16T15:43:17Z</time>
      </trkpt>
      <trkpt lat="44.47654" lon="6.90313">
        <ele>2245.0616077236</ele>
        <time>2015-07-16T15:43:37Z</time>
      </trkpt>
      <trkpt lat="44.47649" lon="6.90286">
        <ele>2243.1766478605</ele>
        <time>2015-07-16T15:43:58Z</time>
      </trkpt>
      <trkpt lat="44.47649" lon="6.90286">
        <ele>2243.1766478605</ele>
        <time>2015-07-16T15:44:08Z</time>
      </trkpt>
      <trkpt lat="44.47649" lon="6.90282">
        <ele>2243.1766478605</ele>
        <time>2015-07-16T15:44:11Z</time>
      </trkpt>
      <trkpt lat="44.47652" lon="6.90259">
        <ele>2241.3757476374</ele>
        <time>2015-07-16T15:44:27Z</time>
      </trkpt>
      <trkpt lat="44.47658" lon="6.90254">
        <ele>2241.3757476374</ele>
        <time>2015-07-16T15:44:31Z</time>
      </trkpt>
      <trkpt lat="44.47663" lon="6.90252">
        <ele>2239.8235414076</ele>
        <time>2015-07-16T15:44:36Z</time>
      </trkpt>
      <trkpt lat="44.47668" lon="6.90249">
        <ele>2239.8235414076</ele>
        <time>2015-07-16T15:44:41Z</time>
      </trkpt>
      <trkpt lat="44.47676" lon="6.90244">
        <ele>2238.397995334</ele>
        <time>2015-07-16T15:44:53Z</time>
      </trkpt>
      <trkpt lat="44.4768" lon="6.90238">
        <ele>2238.397995334</ele>
        <time>2015-07-16T15:44:56Z</time>
      </trkpt>
      <trkpt lat="44.477" lon="6.90218">
        <ele>2236.8703434759</ele>
        <time>2015-07-16T15:45:28Z</time>
      </trkpt>
      <trkpt lat="44.47697" lon="6.90248">
        <ele>2235.2738607078</ele>
        <time>2015-07-16T15:45:53Z</time>
      </trkpt>
      <trkpt lat="44.47693" lon="6.90267">
        <ele>2233.8268880057</ele>
        <time>2015-07-16T15:46:00Z</time>
      </trkpt>
      <trkpt lat="44.47707" lon="6.903">
        <ele>2232.2845474122</ele>
        <time>2015-07-16T15:46:24Z</time>
      </trkpt>
      <trkpt lat="44.47711" lon="6.90299">
        <ele>2232.2845474122</ele>
        <time>2015-07-16T15:46:26Z</time>
      </trkpt>
      <trkpt lat="44.47719" lon="6.90275">
        <ele>2230.9101901912</ele>
        <time>2015-07-16T15:46:43Z</time>
      </trkpt>
      <trkpt lat="44.47719" lon="6.90272">
        <ele>2230.9101901912</ele>
        <time>2015-07-16T15:46:53Z</time>
      </trkpt>
      <trkpt lat="44.47724" lon="6.9027">
        <ele>2230.9101901912</ele>
        <time>2015-07-16T15:46:58Z</time>
      </trkpt>
      <trkpt lat="44.47728" lon="6.90294">
        <ele>2228.7079986407</ele>
        <time>2015-07-16T15:47:30Z</time>
      </trkpt>
      <trkpt lat="44.47734" lon="6.9031">
        <ele>2226.2996299968</ele>
        <time>2015-07-16T15:47:56Z</time>
      </trkpt>
      <trkpt lat="44.47736" lon="6.90315">
        <ele>2226.2996299968</ele>
        <time>2015-07-16T15:48:02Z</time>
      </trkpt>
      <trkpt lat="44.47739" lon="6.90322">
        <ele>2223.9302133195</ele>
        <time>2015-07-16T15:48:10Z</time>
      </trkpt>
      <trkpt lat="44.47739" lon="6.90321">
        <ele>2223.9302133195</ele>
        <time>2015-07-16T15:48:13Z</time>
      </trkpt>
      <trkpt lat="44.47739" lon="6.90321">
        <ele>2223.9302133195</ele>
        <time>2015-07-16T15:48:20Z</time>
      </trkpt>
      <trkpt lat="44.47743" lon="6.90332">
        <ele>2219.3768859649</ele>
        <time>2015-07-16T15:56:57Z</time>
      </trkpt>
      <trkpt lat="44.47744" lon="6.90331">
        <ele>2219.3768859649</ele>
        <time>2015-07-16T15:57:07Z</time>
      </trkpt>
      <trkpt lat="44.47744" lon="6.90332">
        <ele>2219.3768859649</ele>
        <time>2015-07-16T15:57:13Z</time>
      </trkpt>
      <trkpt lat="44.47758" lon="6.9035">
        <ele>2215.2698245156</ele>
        <time>2015-07-16T15:59:01Z</time>
      </trkpt>
      <trkpt lat="44.47774" lon="6.90358">
        <ele>2211.5372098189</ele>
        <time>2015-07-16T15:59:16Z</time>
      </trkpt>
      <trkpt lat="44.47775" lon="6.90359">
        <ele>2211.5372098189</ele>
        <time>2015-07-16T15:59:16Z</time>
      </trkpt>
      <trkpt lat="44.47791" lon="6.90368">
        <ele>2208.1258512463</ele>
        <time>2015-07-16T15:59:37Z</time>
      </trkpt>
      <trkpt lat="44.4781" lon="6.90409">
        <ele>2204.3370456841</ele>
        <time>2015-07-16T16:00:01Z</time>
      </trkpt>
      <trkpt lat="44.47816" lon="6.90411">
        <ele>2204.3370456841</ele>
        <time>2015-07-16T16:00:06Z</time>
      </trkpt>
      <trkpt lat="44.47821" lon="6.90412">
        <ele>2200.907916581</ele>
        <time>2015-07-16T16:00:11Z</time>
      </trkpt>
      <trkpt lat="44.47835" lon="6.90458">
        <ele>2196.6037179543</ele>
        <time>2015-07-16T16:00:59Z</time>
      </trkpt>
      <trkpt lat="44.47838" lon="6.90461">
        <ele>2196.6037179543</ele>
        <time>2015-07-16T16:01:01Z</time>
      </trkpt>
      <trkpt lat="44.47874" lon="6.9051">
        <ele>2191.2339534082</ele>
        <time>2015-07-16T16:01:57Z</time>
      </trkpt>
      <trkpt lat="44.47882" lon="6.9052">
        <ele>2186.181456452</ele>
        <time>2015-07-16T16:02:14Z</time>
      </trkpt>
      <trkpt lat="44.47902" lon="6.9054">
        <ele>2181.1124766228</ele>
        <time>2015-07-16T16:02:36Z</time>
      </trkpt>
      <trkpt lat="44.47915" lon="6.90544">
        <ele>2176.6400580199</ele>
        <time>2015-07-16T16:02:56Z</time>
      </trkpt>
      <trkpt lat="44.47941" lon="6.90551">
        <ele>2171.615520967</ele>
        <time>2015-07-16T16:03:01Z</time>
      </trkpt>
      <trkpt lat="44.47944" lon="6.90552">
        <ele>2171.615520967</ele>
        <time>2015-07-16T16:03:12Z</time>
      </trkpt>
      <trkpt lat="44.47959" lon="6.90556">
        <ele>2166.6044676056</ele>
        <time>2015-07-16T16:03:29Z</time>
      </trkpt>
      <trkpt lat="44.47975" lon="6.90561">
        <ele>2161.7993437323</ele>
        <time>2015-07-16T16:03:36Z</time>
      </trkpt>
      <trkpt lat="44.47981" lon="6.90562">
        <ele>2161.7993437323</ele>
        <time>2015-07-16T16:03:46Z</time>
      </trkpt>
      <trkpt lat="44.47987" lon="6.90575">
        <ele>2157.0318913266</ele>
        <time>2015-07-16T16:03:59Z</time>
      </trkpt>
      <trkpt lat="44.47997" lon="6.90566">
        <ele>2152.3621437961</ele>
        <time>2015-07-16T16:04:21Z</time>
      </trkpt>
      <trkpt lat="44.47999" lon="6.90573">
        <ele>2152.3621437961</ele>
        <time>2015-07-16T16:04:21Z</time>
      </trkpt>
      <trkpt lat="44.47996" lon="6.90578">
        <ele>2147.9317819643</ele>
        <time>2015-07-16T16:04:38Z</time>
      </trkpt>
      <trkpt lat="44.48001" lon="6.90588">
        <ele>2147.9317819643</ele>
        <time>2015-07-16T16:04:46Z</time>
      </trkpt>
      <trkpt lat="44.48016" lon="6.90578">
        <ele>2143.0210117263</ele>
        <time>2015-07-16T16:04:59Z</time>
      </trkpt>
      <trkpt lat="44.48019" lon="6.90577">
        <ele>2143.0210117263</ele>
        <time>2015-07-16T16:05:03Z</time>
      </trkpt>
      <trkpt lat="44.48052" lon="6.90608">
        <ele>2136.4741381253</ele>
        <time>2015-07-16T16:06:01Z</time>
      </trkpt>
      <trkpt lat="44.48051" lon="6.90616">
        <ele>2136.4741381253</ele>
        <time>2015-07-16T16:06:07Z</time>
      </trkpt>
      <trkpt lat="44.48091" lon="6.90663">
        <ele>2128.6659077255</ele>
        <time>2015-07-16T16:07:05Z</time>
      </trkpt>
      <trkpt lat="44.48091" lon="6.90664">
        <ele>2128.6659077255</ele>
        <time>2015-07-16T16:07:06Z</time>
      </trkpt>
      <trkpt lat="44.48097" lon="6.90671">
        <ele>2128.6659077255</ele>
        <time>2015-07-16T16:07:46Z</time>
      </trkpt>
      <trkpt lat="44.481" lon="6.90677">
        <ele>2120.8115724852</ele>
        <time>2015-07-16T16:07:51Z</time>
      </trkpt>
      <trkpt lat="44.481" lon="6.90683">
        <ele>2120.8115724852</ele>
        <time>2015-07-16T16:07:56Z</time>
      </trkpt>
      <trkpt lat="44.48101" lon="6.90686">
        <ele>2120.8115724852</ele>
        <time>2015-07-16T16:08:01Z</time>
      </trkpt>
      <trkpt lat="44.48101" lon="6.90692">
        <ele>2113.820885566</ele>
        <time>2015-07-16T16:08:06Z</time>
      </trkpt>
      <trkpt lat="44.48099" lon="6.90697">
        <ele>2113.820885566</ele>
        <time>2015-07-16T16:08:11Z</time>
      </trkpt>
      <trkpt lat="44.48099" lon="6.90701">
        <ele>2113.820885566</ele>
        <time>2015-07-16T16:08:16Z</time>
      </trkpt>
      <trkpt lat="44.481" lon="6.90706">
        <ele>2107.5830053522</ele>
        <time>2015-07-16T16:08:21Z</time>
      </trkpt>
      <trkpt lat="44.48101" lon="6.90712">
        <ele>2107.5830053522</ele>
        <time>2015-07-16T16:08:26Z</time>
      </trkpt>
      <trkpt lat="44.48101" lon="6.90722">
        <ele>2101.9064310311</ele>
        <time>2015-07-16T16:08:31Z</time>
      </trkpt>
      <trkpt lat="44.48101" lon="6.90724">
        <ele>2101.9064310311</ele>
        <time>2015-07-16T16:08:36Z</time>
      </trkpt>
      <trkpt lat="44.481" lon="6.90724">
        <ele>2101.9064310311</ele>
        <time>2015-07-16T16:08:41Z</time>
      </trkpt>
      <trkpt lat="44.48102" lon="6.90731">
        <ele>2101.9064310311</ele>
        <time>2015-07-16T16:09:01Z</time>
      </trkpt>
      <trkpt lat="44.48104" lon="6.90738">
        <ele>2096.2228226216</ele>
        <time>2015-07-16T16:09:06Z</time>
      </trkpt>
      <trkpt lat="44.48098" lon="6.90767">
        <ele>2090.999742005</ele>
        <time>2015-07-16T16:09:30Z</time>
      </trkpt>
      <trkpt lat="44.48097" lon="6.90825">
        <ele>2085.7609778732</ele>
        <time>2015-07-16T16:10:09Z</time>
      </trkpt>
      <trkpt lat="44.48097" lon="6.90826">
        <ele>2085.7609778732</ele>
        <time>2015-07-16T16:10:17Z</time>
      </trkpt>
      <trkpt lat="44.48112" lon="6.90848">
        <ele>2080.5262698195</ele>
        <time>2015-07-16T16:11:03Z</time>
      </trkpt>
      <trkpt lat="44.48127" lon="6.90905">
        <ele>2075.4289585582</ele>
        <time>2015-07-16T16:12:06Z</time>
      </trkpt>
      <trkpt lat="44.48128" lon="6.90906">
        <ele>2075.4289585582</ele>
        <time>2015-07-16T16:12:12Z</time>
      </trkpt>
      <trkpt lat="44.48128" lon="6.90913">
        <ele>2075.4289585582</ele>
        <time>2015-07-16T16:12:26Z</time>
      </trkpt>
      <trkpt lat="44.4813" lon="6.9092">
        <ele>2070.7072732202</ele>
        <time>2015-07-16T16:12:32Z</time>
      </trkpt>
      <trkpt lat="44.48131" lon="6.9092">
        <ele>2070.7072732202</ele>
        <time>2015-07-16T16:12:49Z</time>
      </trkpt>
      <trkpt lat="44.4813" lon="6.90949">
        <ele>2066.3212769351</ele>
        <time>2015-07-16T16:12:50Z</time>
      </trkpt>
      <trkpt lat="44.4813" lon="6.9095">
        <ele>2066.3212769351</ele>
        <time>2015-07-16T16:12:51Z</time>
      </trkpt>
      <trkpt lat="44.4813" lon="6.90954">
        <ele>2066.3212769351</ele>
        <time>2015-07-16T16:13:03Z</time>
      </trkpt>
      <trkpt lat="44.48134" lon="6.91003">
        <ele>2061.9301889147</ele>
        <time>2015-07-16T16:13:26Z</time>
      </trkpt>
      <trkpt lat="44.4813" lon="6.91035">
        <ele>2057.6360072582</ele>
        <time>2015-07-16T16:14:04Z</time>
      </trkpt>
      <trkpt lat="44.48148" lon="6.91041">
        <ele>2053.8498317987</ele>
        <time>2015-07-16T16:14:11Z</time>
      </trkpt>
      <trkpt lat="44.48153" lon="6.91044">
        <ele>2053.8498317987</ele>
        <time>2015-07-16T16:14:18Z</time>
      </trkpt>
      <trkpt lat="44.48148" lon="6.91047">
        <ele>2050.677163643</ele>
        <time>2015-07-16T16:14:24Z</time>
      </trkpt>
      <trkpt lat="44.48148" lon="6.91047">
        <ele>2050.677163643</ele>
        <time>2015-07-16T16:14:26Z</time>
      </trkpt>
      <trkpt lat="44.48139" lon="6.91053">
        <ele>2048.1418314686</ele>
        <time>2015-07-16T16:14:39Z</time>
      </trkpt>
      <trkpt lat="44.4814" lon="6.91058">
        <ele>2048.1418314686</ele>
        <time>2015-07-16T16:14:41Z</time>
      </trkpt>
      <trkpt lat="44.48159" lon="6.91087">
        <ele>2045.0534649972</ele>
        <time>2015-07-16T16:15:05Z</time>
      </trkpt>
      <trkpt lat="44.48162" lon="6.91094">
        <ele>2045.0534649972</ele>
        <time>2015-07-16T16:15:12Z</time>
      </trkpt>
      <trkpt lat="44.48188" lon="6.91137">
        <ele>2041.0599593174</ele>
        <time>2015-07-16T16:15:40Z</time>
      </trkpt>
      <trkpt lat="44.48189" lon="6.91138">
        <ele>2041.0599593174</ele>
        <time>2015-07-16T16:15:48Z</time>
      </trkpt>
      <trkpt lat="44.48196" lon="6.9115">
        <ele>2037.4659803947</ele>
        <time>2015-07-16T16:15:48Z</time>
      </trkpt>
      <trkpt lat="44.48197" lon="6.91154">
        <ele>2037.4659803947</ele>
        <time>2015-07-16T16:16:00Z</time>
      </trkpt>
      <trkpt lat="44.48187" lon="6.91166">
        <ele>2033.9659918634</ele>
        <time>2015-07-16T16:16:03Z</time>
      </trkpt>
      <trkpt lat="44.48182" lon="6.91184">
        <ele>2030.7089108688</ele>
        <time>2015-07-16T16:16:09Z</time>
      </trkpt>
      <trkpt lat="44.48183" lon="6.91186">
        <ele>2030.7089108688</ele>
        <time>2015-07-16T16:16:13Z</time>
      </trkpt>
      <trkpt lat="44.48177" lon="6.91221">
        <ele>2026.9240843597</ele>
        <time>2015-07-16T16:16:31Z</time>
      </trkpt>
      <trkpt lat="44.48171" lon="6.91242">
        <ele>2023.2967925776</ele>
        <time>2015-07-16T16:16:44Z</time>
      </trkpt>
      <trkpt lat="44.48168" lon="6.91246">
        <ele>2023.2967925776</ele>
        <time>2015-07-16T16:16:46Z</time>
      </trkpt>
      <trkpt lat="44.48168" lon="6.91255">
        <ele>2019.928296237</ele>
        <time>2015-07-16T16:16:55Z</time>
      </trkpt>
      <trkpt lat="44.48165" lon="6.91268">
        <ele>2016.6955093925</ele>
        <time>2015-07-16T16:17:03Z</time>
      </trkpt>
      <trkpt lat="44.48165" lon="6.91274">
        <ele>2016.6955093925</ele>
        <time>2015-07-16T16:17:08Z</time>
      </trkpt>
      <trkpt lat="44.48166" lon="6.91275">
        <ele>2016.6955093925</ele>
        <time>2015-07-16T16:17:12Z</time>
      </trkpt>
      <trkpt lat="44.48167" lon="6.9128">
        <ele>2013.5992912088</ele>
        <time>2015-07-16T16:17:19Z</time>
      </trkpt>
      <trkpt lat="44.48167" lon="6.91281">
        <ele>2013.5992912088</ele>
        <time>2015-07-16T16:17:26Z</time>
      </trkpt>
      <trkpt lat="44.48156" lon="6.91303">
        <ele>2010.553593903</ele>
        <time>2015-07-16T16:17:38Z</time>
      </trkpt>
      <trkpt lat="44.48156" lon="6.91305">
        <ele>2010.553593903</ele>
        <time>2015-07-16T16:17:39Z</time>
      </trkpt>
      <trkpt lat="44.48156" lon="6.91308">
        <ele>2010.553593903</ele>
        <time>2015-07-16T16:17:44Z</time>
      </trkpt>
      <trkpt lat="44.48145" lon="6.91335">
        <ele>2007.2479876901</ele>
        <time>2015-07-16T16:17:57Z</time>
      </trkpt>
      <trkpt lat="44.48141" lon="6.91349">
        <ele>2004.1738031112</ele>
        <time>2015-07-16T16:18:05Z</time>
      </trkpt>
      <trkpt lat="44.48141" lon="6.91351">
        <ele>2004.1738031112</ele>
        <time>2015-07-16T16:18:06Z</time>
      </trkpt>
      <trkpt lat="44.48143" lon="6.9136">
        <ele>2004.1738031112</ele>
        <time>2015-07-16T16:18:12Z</time>
      </trkpt>
      <trkpt lat="44.48142" lon="6.91378">
        <ele>2001.0218757846</ele>
        <time>2015-07-16T16:18:21Z</time>
      </trkpt>
      <trkpt lat="44.48142" lon="6.91382">
        <ele>2001.0218757846</ele>
        <time>2015-07-16T16:18:33Z</time>
      </trkpt>
      <trkpt lat="44.48127" lon="6.91386">
        <ele>1997.8086486128</ele>
        <time>2015-07-16T16:18:37Z</time>
      </trkpt>
      <trkpt lat="44.48122" lon="6.91388">
        <ele>1997.8086486128</ele>
        <time>2015-07-16T16:18:42Z</time>
      </trkpt>
      <trkpt lat="44.48111" lon="6.91402">
        <ele>1994.0884241534</ele>
        <time>2015-07-16T16:19:03Z</time>
      </trkpt>
      <trkpt lat="44.48096" lon="6.91436">
        <ele>1989.4353117792</ele>
        <time>2015-07-16T16:20:06Z</time>
      </trkpt>
      <trkpt lat="44.48099" lon="6.91442">
        <ele>1989.4353117792</ele>
        <time>2015-07-16T16:20:17Z</time>
      </trkpt>
      <trkpt lat="44.48082" lon="6.9146">
        <ele>1985.2731808022</ele>
        <time>2015-07-16T16:21:06Z</time>
      </trkpt>
      <trkpt lat="44.48092" lon="6.91469">
        <ele>1981.4788710126</ele>
        <time>2015-07-16T16:21:11Z</time>
      </trkpt>
      <trkpt lat="44.48089" lon="6.91476">
        <ele>1981.4788710126</ele>
        <time>2015-07-16T16:21:23Z</time>
      </trkpt>
      <trkpt lat="44.4812" lon="6.91514">
        <ele>1977.9949371024</ele>
        <time>2015-07-16T16:22:06Z</time>
      </trkpt>
      <trkpt lat="44.4812" lon="6.91523">
        <ele>1977.9949371024</ele>
        <time>2015-07-16T16:22:11Z</time>
      </trkpt>
      <trkpt lat="44.48082" lon="6.91573">
        <ele>1974.6376378557</ele>
        <time>2015-07-16T16:23:11Z</time>
      </trkpt>
      <trkpt lat="44.48129" lon="6.91572">
        <ele>1970.6167520806</ele>
        <time>2015-07-16T16:23:51Z</time>
      </trkpt>
      <trkpt lat="44.48137" lon="6.91569">
        <ele>1970.6167520806</ele>
        <time>2015-07-16T16:23:56Z</time>
      </trkpt>
      <trkpt lat="44.48142" lon="6.91568">
        <ele>1966.4702042223</ele>
        <time>2015-07-16T16:24:01Z</time>
      </trkpt>
      <trkpt lat="44.48146" lon="6.91571">
        <ele>1966.4702042223</ele>
        <time>2015-07-16T16:24:06Z</time>
      </trkpt>
      <trkpt lat="44.48149" lon="6.91576">
        <ele>1966.4702042223</ele>
        <time>2015-07-16T16:24:11Z</time>
      </trkpt>
      <trkpt lat="44.48146" lon="6.91579">
        <ele>1962.0194890202</ele>
        <time>2015-07-16T16:24:16Z</time>
      </trkpt>
      <trkpt lat="44.48138" lon="6.91578">
        <ele>1962.0194890202</ele>
        <time>2015-07-16T16:24:21Z</time>
      </trkpt>
      <trkpt lat="44.48146" lon="6.91585">
        <ele>1957.6765654195</ele>
        <time>2015-07-16T16:24:39Z</time>
      </trkpt>
      <trkpt lat="44.48121" lon="6.91579">
        <ele>1953.3617212963</ele>
        <time>2015-07-16T16:25:11Z</time>
      </trkpt>
      <trkpt lat="44.48007" lon="6.91621">
        <ele>1945.9026707132</ele>
        <time>2015-07-16T16:26:17Z</time>
      </trkpt>
      <trkpt lat="44.47941" lon="6.91663">
        <ele>1936.9805630305</ele>
        <time>2015-07-16T16:27:16Z</time>
      </trkpt>
      <trkpt lat="44.47933" lon="6.91666">
        <ele>1936.9805630305</ele>
        <time>2015-07-16T16:27:21Z</time>
      </trkpt>
      <trkpt lat="44.47866" lon="6.91699">
        <ele>1926.0243069354</ele>
        <time>2015-07-16T16:28:13Z</time>
      </trkpt>
      <trkpt lat="44.4783" lon="6.91799">
        <ele>1913.3606823044</ele>
        <time>2015-07-16T16:29:18Z</time>
      </trkpt>
      <trkpt lat="44.47825" lon="6.91849">
        <ele>1901.0409060791</ele>
        <time>2015-07-16T16:30:16Z</time>
      </trkpt>
      <trkpt lat="44.47831" lon="6.91859">
        <ele>1901.0409060791</ele>
        <time>2015-07-16T16:30:24Z</time>
      </trkpt>
      <trkpt lat="44.47832" lon="6.91859">
        <ele>1890.2150266948</ele>
        <time>2015-07-16T16:30:26Z</time>
      </trkpt>
      <trkpt lat="44.47832" lon="6.91859">
        <ele>1890.2150266948</ele>
        <time>2015-07-16T16:30:34Z</time>
      </trkpt>
      <trkpt lat="44.4783" lon="6.91867">
        <ele>1890.2150266948</ele>
        <time>2015-07-16T16:31:46Z</time>
      </trkpt>
      <trkpt lat="44.47824" lon="6.91883">
        <ele>1881.0219155608</ele>
        <time>2015-07-16T16:31:59Z</time>
      </trkpt>
      <trkpt lat="44.47822" lon="6.91889">
        <ele>1881.0219155608</ele>
        <time>2015-07-16T16:32:06Z</time>
      </trkpt>
      <trkpt lat="44.47816" lon="6.9191">
        <ele>1872.908108501</ele>
        <time>2015-07-16T16:32:16Z</time>
      </trkpt>
      <trkpt lat="44.47814" lon="6.91921">
        <ele>1872.908108501</ele>
        <time>2015-07-16T16:32:23Z</time>
      </trkpt>
      <trkpt lat="44.47816" lon="6.91934">
        <ele>1865.6025032649</ele>
        <time>2015-07-16T16:32:26Z</time>
      </trkpt>
      <trkpt lat="44.47813" lon="6.91944">
        <ele>1865.6025032649</ele>
        <time>2015-07-16T16:32:31Z</time>
      </trkpt>
      <trkpt lat="44.47812" lon="6.91952">
        <ele>1859.1540099995</ele>
        <time>2015-07-16T16:32:36Z</time>
      </trkpt>
      <trkpt lat="44.47811" lon="6.91961">
        <ele>1859.1540099995</ele>
        <time>2015-07-16T16:32:41Z</time>
      </trkpt>
      <trkpt lat="44.4781" lon="6.91968">
        <ele>1853.5188039454</ele>
        <time>2015-07-16T16:32:46Z</time>
      </trkpt>
      <trkpt lat="44.47807" lon="6.91978">
        <ele>1853.5188039454</ele>
        <time>2015-07-16T16:32:56Z</time>
      </trkpt>
      <trkpt lat="44.47792" lon="6.92008">
        <ele>1848.5384444184</ele>
        <time>2015-07-16T16:33:16Z</time>
      </trkpt>
      <trkpt lat="44.47789" lon="6.92016">
        <ele>1848.5384444184</ele>
        <time>2015-07-16T16:33:21Z</time>
      </trkpt>
      <trkpt lat="44.47786" lon="6.9203">
        <ele>1844.0063958676</ele>
        <time>2015-07-16T16:33:28Z</time>
      </trkpt>
      <trkpt lat="44.47786" lon="6.92035">
        <ele>1844.0063958676</ele>
        <time>2015-07-16T16:33:31Z</time>
      </trkpt>
      <trkpt lat="44.47784" lon="6.92044">
        <ele>1840.1765476382</ele>
        <time>2015-07-16T16:33:36Z</time>
      </trkpt>
      <trkpt lat="44.47783" lon="6.92055">
        <ele>1840.1765476382</ele>
        <time>2015-07-16T16:33:41Z</time>
      </trkpt>
      <trkpt lat="44.47769" lon="6.92113">
        <ele>1836.7343346762</ele>
        <time>2015-07-16T16:34:17Z</time>
      </trkpt>
      <trkpt lat="44.47768" lon="6.92114">
        <ele>1836.7343346762</ele>
        <time>2015-07-16T16:34:18Z</time>
      </trkpt>
      <trkpt lat="44.47768" lon="6.92117">
        <ele>1836.7343346762</ele>
        <time>2015-07-16T16:34:25Z</time>
      </trkpt>
      <trkpt lat="44.47742" lon="6.92216">
        <ele>1833.2861481075</ele>
        <time>2015-07-16T16:35:18Z</time>
      </trkpt>
      <trkpt lat="44.4774" lon="6.92222">
        <ele>1833.2861481075</ele>
        <time>2015-07-16T16:35:26Z</time>
      </trkpt>
      <trkpt lat="44.47724" lon="6.92269">
        <ele>1830.432696237</ele>
        <time>2015-07-16T16:36:17Z</time>
      </trkpt>
      <trkpt lat="44.47708" lon="6.92315">
        <ele>1827.7488055237</ele>
        <time>2015-07-16T16:36:21Z</time>
      </trkpt>
      <trkpt lat="44.47704" lon="6.92323">
        <ele>1827.7488055237</ele>
        <time>2015-07-16T16:36:26Z</time>
      </trkpt>
      <trkpt lat="44.47696" lon="6.92421">
        <ele>1825.329937356</ele>
        <time>2015-07-16T16:37:21Z</time>
      </trkpt>
      <trkpt lat="44.47685" lon="6.92453">
        <ele>1823.4510716097</ele>
        <time>2015-07-16T16:38:19Z</time>
      </trkpt>
      <trkpt lat="44.47669" lon="6.9252">
        <ele>1821.3134220975</ele>
        <time>2015-07-16T16:38:21Z</time>
      </trkpt>
      <trkpt lat="44.4767" lon="6.92528">
        <ele>1821.3134220975</ele>
        <time>2015-07-16T16:38:34Z</time>
      </trkpt>
      <trkpt lat="44.47661" lon="6.92549">
        <ele>1819.0422634507</ele>
        <time>2015-07-16T16:38:39Z</time>
      </trkpt>
      <trkpt lat="44.47662" lon="6.92551">
        <ele>1819.0422634507</ele>
        <time>2015-07-16T16:38:49Z</time>
      </trkpt>
      <trkpt lat="44.47668" lon="6.9257">
        <ele>1816.8837598021</ele>
        <time>2015-07-16T16:39:19Z</time>
      </trkpt>
      <trkpt lat="44.47661" lon="6.92609">
        <ele>1815.2386539276</ele>
        <time>2015-07-16T16:39:19Z</time>
      </trkpt>
      <trkpt lat="44.47662" lon="6.92623">
        <ele>1813.4248675276</ele>
        <time>2015-07-16T16:39:21Z</time>
      </trkpt>
      <trkpt lat="44.47661" lon="6.92633">
        <ele>1813.4248675276</ele>
        <time>2015-07-16T16:39:26Z</time>
      </trkpt>
      <trkpt lat="44.47642" lon="6.92692">
        <ele>1810.9839253233</ele>
        <time>2015-07-16T16:40:08Z</time>
      </trkpt>
      <trkpt lat="44.47632" lon="6.92709">
        <ele>1809.0493039035</ele>
        <time>2015-07-16T16:40:20Z</time>
      </trkpt>
      <trkpt lat="44.47623" lon="6.92729">
        <ele>1807.1855816773</ele>
        <time>2015-07-16T16:40:21Z</time>
      </trkpt>
      <trkpt lat="44.47617" lon="6.92756">
        <ele>1805.1622057845</ele>
        <time>2015-07-16T16:40:41Z</time>
      </trkpt>
      <trkpt lat="44.47614" lon="6.92771">
        <ele>1802.996748587</ele>
        <time>2015-07-16T16:41:00Z</time>
      </trkpt>
      <trkpt lat="44.47604" lon="6.92822">
        <ele>1801.2825123062</ele>
        <time>2015-07-16T16:41:21Z</time>
      </trkpt>
      <trkpt lat="44.47602" lon="6.92823">
        <ele>1801.2825123062</ele>
        <time>2015-07-16T16:41:21Z</time>
      </trkpt>
      <trkpt lat="44.47599" lon="6.92831">
        <ele>1801.2825123062</ele>
        <time>2015-07-16T16:41:34Z</time>
      </trkpt>
      <trkpt lat="44.47565" lon="6.92922">
        <ele>1796.9797673766</ele>
        <time>2015-07-16T16:42:23Z</time>
      </trkpt>
      <trkpt lat="44.47562" lon="6.92927">
        <ele>1796.9797673766</ele>
        <time>2015-07-16T16:42:26Z</time>
      </trkpt>
      <trkpt lat="44.4756" lon="6.92933">
        <ele>1793.0872129305</ele>
        <time>2015-07-16T16:42:31Z</time>
      </trkpt>
      <trkpt lat="44.47544" lon="6.92963">
        <ele>1789.2695037694</ele>
        <time>2015-07-16T16:42:51Z</time>
      </trkpt>
      <trkpt lat="44.47538" lon="6.92974">
        <ele>1785.8211724517</ele>
        <time>2015-07-16T16:43:07Z</time>
      </trkpt>
      <trkpt lat="44.47515" lon="6.93008">
        <ele>1782.3081148447</ele>
        <time>2015-07-16T16:43:26Z</time>
      </trkpt>
      <trkpt lat="44.47508" lon="6.93021">
        <ele>1779.2507852808</ele>
        <time>2015-07-16T16:43:31Z</time>
      </trkpt>
      <trkpt lat="44.47501" lon="6.93033">
        <ele>1776.6403236227</ele>
        <time>2015-07-16T16:43:41Z</time>
      </trkpt>
      <trkpt lat="44.475" lon="6.93034">
        <ele>1776.6403236227</ele>
        <time>2015-07-16T16:44:08Z</time>
      </trkpt>
      <trkpt lat="44.47488" lon="6.93084">
        <ele>1773.0407383235</ele>
        <time>2015-07-16T16:44:23Z</time>
      </trkpt>
      <trkpt lat="44.47495" lon="6.93078">
        <ele>1773.0407383235</ele>
        <time>2015-07-16T16:44:26Z</time>
      </trkpt>
      <trkpt lat="44.47501" lon="6.93068">
        <ele>1769.6031816629</ele>
        <time>2015-07-16T16:44:35Z</time>
      </trkpt>
      <trkpt lat="44.47502" lon="6.93068">
        <ele>1769.6031816629</ele>
        <time>2015-07-16T16:44:36Z</time>
      </trkpt>
      <trkpt lat="44.47535" lon="6.93042">
        <ele>1766.1978330119</ele>
        <time>2015-07-16T16:45:06Z</time>
      </trkpt>
      <trkpt lat="44.47539" lon="6.93037">
        <ele>1766.1978330119</ele>
        <time>2015-07-16T16:45:23Z</time>
      </trkpt>
      <trkpt lat="44.47556" lon="6.93027">
        <ele>1762.8918260056</ele>
        <time>2015-07-16T16:45:26Z</time>
      </trkpt>
      <trkpt lat="44.47557" lon="6.93032">
        <ele>1762.8918260056</ele>
        <time>2015-07-16T16:45:31Z</time>
      </trkpt>
      <trkpt lat="44.47529" lon="6.93082">
        <ele>1759.3581422487</ele>
        <time>2015-07-16T16:46:17Z</time>
      </trkpt>
      <trkpt lat="44.47525" lon="6.93109">
        <ele>1756.2457123982</ele>
        <time>2015-07-16T16:46:26Z</time>
      </trkpt>
      <trkpt lat="44.4752" lon="6.93115">
        <ele>1756.2457123982</ele>
        <time>2015-07-16T16:46:31Z</time>
      </trkpt>
      <trkpt lat="44.47505" lon="6.93124">
        <ele>1753.405387663</ele>
        <time>2015-07-16T16:46:43Z</time>
      </trkpt>
      <trkpt lat="44.47498" lon="6.93137">
        <ele>1750.9001160246</ele>
        <time>2015-07-16T16:46:50Z</time>
      </trkpt>
      <trkpt lat="44.47475" lon="6.93183">
        <ele>1748.1677500391</ele>
        <time>2015-07-16T16:47:26Z</time>
      </trkpt>
      <trkpt lat="44.47468" lon="6.93187">
        <ele>1748.1677500391</ele>
        <time>2015-07-16T16:47:31Z</time>
      </trkpt>
      <trkpt lat="44.47462" lon="6.93257">
        <ele>1744.6305748286</ele>
        <time>2015-07-16T16:48:26Z</time>
      </trkpt>
      <trkpt lat="44.47463" lon="6.93259">
        <ele>1744.6305748286</ele>
        <time>2015-07-16T16:48:31Z</time>
      </trkpt>
      <trkpt lat="44.47463" lon="6.93264">
        <ele>1744.6305748286</ele>
        <time>2015-07-16T16:48:36Z</time>
      </trkpt>
      <trkpt lat="44.47465" lon="6.93271">
        <ele>1741.3409375362</ele>
        <time>2015-07-16T16:48:48Z</time>
      </trkpt>
      <trkpt lat="44.47465" lon="6.93276">
        <ele>1741.3409375362</ele>
        <time>2015-07-16T16:48:51Z</time>
      </trkpt>
      <trkpt lat="44.47458" lon="6.93306">
        <ele>1738.1924917754</ele>
        <time>2015-07-16T16:49:26Z</time>
      </trkpt>
      <trkpt lat="44.47456" lon="6.93319">
        <ele>1735.3314313375</ele>
        <time>2015-07-16T16:49:45Z</time>
      </trkpt>
      <trkpt lat="44.47453" lon="6.9334">
        <ele>1732.4169683887</ele>
        <time>2015-07-16T16:49:53Z</time>
      </trkpt>
      <trkpt lat="44.47443" lon="6.93365">
        <ele>1729.5803711423</ele>
        <time>2015-07-16T16:50:11Z</time>
      </trkpt>
      <trkpt lat="44.47441" lon="6.93369">
        <ele>1729.5803711423</ele>
        <time>2015-07-16T16:50:26Z</time>
      </trkpt>
      <trkpt lat="44.47433" lon="6.93391">
        <ele>1726.9143495282</ele>
        <time>2015-07-16T16:50:35Z</time>
      </trkpt>
      <trkpt lat="44.47424" lon="6.93433">
        <ele>1724.072114203</ele>
        <time>2015-07-16T16:50:51Z</time>
      </trkpt>
      <trkpt lat="44.47417" lon="6.93459">
        <ele>1721.0067769545</ele>
        <time>2015-07-16T16:51:06Z</time>
      </trkpt>
      <trkpt lat="44.47404" lon="6.93491">
        <ele>1717.1424248486</ele>
        <time>2015-07-16T16:51:31Z</time>
      </trkpt>
      <trkpt lat="44.47361" lon="6.93517">
        <ele>1713.446559451</ele>
        <time>2015-07-16T16:52:28Z</time>
      </trkpt>
      <trkpt lat="44.47344" lon="6.93549">
        <ele>1708.0915366342</ele>
        <time>2015-07-16T16:52:31Z</time>
      </trkpt>
      <trkpt lat="44.47326" lon="6.93635">
        <ele>1699.7345722068</ele>
        <time>2015-07-16T16:53:31Z</time>
      </trkpt>
      <trkpt lat="44.47325" lon="6.93643">
        <ele>1699.7345722068</ele>
        <time>2015-07-16T16:53:41Z</time>
      </trkpt>
      <trkpt lat="44.47335" lon="6.93695">
        <ele>1689.4169514762</ele>
        <time>2015-07-16T16:54:16Z</time>
      </trkpt>
      <trkpt lat="44.47339" lon="6.93719">
        <ele>1679.2762808737</ele>
        <time>2015-07-16T16:54:31Z</time>
      </trkpt>
      <trkpt lat="44.47341" lon="6.93728">
        <ele>1679.2762808737</ele>
        <time>2015-07-16T16:54:36Z</time>
      </trkpt>
      <trkpt lat="44.47343" lon="6.93735">
        <ele>1669.6209190568</ele>
        <time>2015-07-16T16:54:41Z</time>
      </trkpt>
      <trkpt lat="44.47346" lon="6.93744">
        <ele>1669.6209190568</ele>
        <time>2015-07-16T16:54:46Z</time>
      </trkpt>
      <trkpt lat="44.47349" lon="6.93751">
        <ele>1660.6774831775</ele>
        <time>2015-07-16T16:54:51Z</time>
      </trkpt>
      <trkpt lat="44.4735" lon="6.9376">
        <ele>1660.6774831775</ele>
        <time>2015-07-16T16:54:56Z</time>
      </trkpt>
      <trkpt lat="44.47355" lon="6.9381">
        <ele>1651.5441604158</ele>
        <time>2015-07-16T16:55:25Z</time>
      </trkpt>
      <trkpt lat="44.47355" lon="6.93812">
        <ele>1651.5441604158</ele>
        <time>2015-07-16T16:55:26Z</time>
      </trkpt>
      <trkpt lat="44.47355" lon="6.93821">
        <ele>1651.5441604158</ele>
        <time>2015-07-16T16:55:31Z</time>
      </trkpt>
      <trkpt lat="44.47345" lon="6.93858">
        <ele>1642.3801150161</ele>
        <time>2015-07-16T16:55:53Z</time>
      </trkpt>
      <trkpt lat="44.47318" lon="6.93915">
        <ele>1633.6497468373</ele>
        <time>2015-07-16T16:56:32Z</time>
      </trkpt>
      <trkpt lat="44.47315" lon="6.93923">
        <ele>1633.6497468373</ele>
        <time>2015-07-16T16:56:45Z</time>
      </trkpt>
      <trkpt lat="44.47303" lon="6.94019">
        <ele>1625.4216151168</ele>
        <time>2015-07-16T16:57:31Z</time>
      </trkpt>
      <trkpt lat="44.473" lon="6.94026">
        <ele>1625.4216151168</ele>
        <time>2015-07-16T16:57:36Z</time>
      </trkpt>
      <trkpt lat="44.47301" lon="6.94112">
        <ele>1618.1178573773</ele>
        <time>2015-07-16T16:58:43Z</time>
      </trkpt>
      <trkpt lat="44.47303" lon="6.94115">
        <ele>1618.1178573773</ele>
        <time>2015-07-16T16:58:47Z</time>
      </trkpt>
      <trkpt lat="44.47316" lon="6.94164">
        <ele>1611.7088156014</ele>
        <time>2015-07-16T16:59:32Z</time>
      </trkpt>
      <trkpt lat="44.4733" lon="6.94204">
        <ele>1605.8471778828</ele>
        <time>2015-07-16T16:59:37Z</time>
      </trkpt>
      <trkpt lat="44.47325" lon="6.94273">
        <ele>1599.6184741043</ele>
        <time>2015-07-16T17:00:36Z</time>
      </trkpt>
      <trkpt lat="44.47332" lon="6.94282">
        <ele>1594.1793093691</ele>
        <time>2015-07-16T17:00:43Z</time>
      </trkpt>
      <trkpt lat="44.47333" lon="6.94281">
        <ele>1594.1793093691</ele>
        <time>2015-07-16T17:00:46Z</time>
      </trkpt>
      <trkpt lat="44.47339" lon="6.94276">
        <ele>1594.1793093691</ele>
        <time>2015-07-16T17:02:34Z</time>
      </trkpt>
      <trkpt lat="44.47342" lon="6.94279">
        <ele>1588.4083510017</ele>
        <time>2015-07-16T17:02:36Z</time>
      </trkpt>
      <trkpt lat="44.47345" lon="6.94333">
        <ele>1583.0254648667</ele>
        <time>2015-07-16T17:03:15Z</time>
      </trkpt>
      <trkpt lat="44.47344" lon="6.94337">
        <ele>1583.0254648667</ele>
        <time>2015-07-16T17:03:16Z</time>
      </trkpt>
      <trkpt lat="44.47338" lon="6.94347">
        <ele>1578.2927859581</ele>
        <time>2015-07-16T17:03:21Z</time>
      </trkpt>
      <trkpt lat="44.47338" lon="6.94347">
        <ele>1578.2927859581</ele>
        <time>2015-07-16T17:03:26Z</time>
      </trkpt>
      <trkpt lat="44.47333" lon="6.94353">
        <ele>1578.2927859581</ele>
        <time>2015-07-16T17:03:31Z</time>
      </trkpt>
      <trkpt lat="44.4733" lon="6.94357">
        <ele>1573.7017540148</ele>
        <time>2015-07-16T17:03:36Z</time>
      </trkpt>
      <trkpt lat="44.47326" lon="6.94362">
        <ele>1573.7017540148</ele>
        <time>2015-07-16T17:03:41Z</time>
      </trkpt>
      <trkpt lat="44.47323" lon="6.94365">
        <ele>1573.7017540148</ele>
        <time>2015-07-16T17:03:46Z</time>
      </trkpt>
      <trkpt lat="44.47322" lon="6.94368">
        <ele>1569.6740379858</ele>
        <time>2015-07-16T17:03:57Z</time>
      </trkpt>
      <trkpt lat="44.47329" lon="6.94386">
        <ele>1566.195037518</ele>
        <time>2015-07-16T17:04:07Z</time>
      </trkpt>
      <trkpt lat="44.4733" lon="6.94393">
        <ele>1566.195037518</ele>
        <time>2015-07-16T17:04:15Z</time>
      </trkpt>
      <trkpt lat="44.4733" lon="6.94393">
        <ele>1566.195037518</ele>
        <time>2015-07-16T17:04:16Z</time>
      </trkpt>
      <trkpt lat="44.47338" lon="6.94396">
        <ele>1563.177449694</ele>
        <time>2015-07-16T17:04:31Z</time>
      </trkpt>
      <trkpt lat="44.47348" lon="6.9441">
        <ele>1560.5245236715</ele>
        <time>2015-07-16T17:04:39Z</time>
      </trkpt>
      <trkpt lat="44.47349" lon="6.94413">
        <ele>1560.5245236715</ele>
        <time>2015-07-16T17:04:48Z</time>
      </trkpt>
      <trkpt lat="44.47313" lon="6.94464">
        <ele>1557.4681405383</ele>
        <time>2015-07-16T17:05:36Z</time>
      </trkpt>
      <trkpt lat="44.47315" lon="6.9457">
        <ele>1554.407290943</ele>
        <time>2015-07-16T17:06:36Z</time>
      </trkpt>
      <trkpt lat="44.47317" lon="6.9458">
        <ele>1554.407290943</ele>
        <time>2015-07-16T17:06:41Z</time>
      </trkpt>
      <trkpt lat="44.47315" lon="6.94611">
        <ele>1551.6107121939</ele>
        <time>2015-07-16T17:07:01Z</time>
      </trkpt>
      <trkpt lat="44.47317" lon="6.94643">
        <ele>1548.8510374414</ele>
        <time>2015-07-16T17:07:32Z</time>
      </trkpt>
      <trkpt lat="44.47317" lon="6.94667">
        <ele>1546.3209777034</ele>
        <time>2015-07-16T17:07:40Z</time>
      </trkpt>
      <trkpt lat="44.47318" lon="6.94669">
        <ele>1546.3209777034</ele>
        <time>2015-07-16T17:07:41Z</time>
      </trkpt>
      <trkpt lat="44.47325" lon="6.94706">
        <ele>1543.9534444534</ele>
        <time>2015-07-16T17:08:02Z</time>
      </trkpt>
      <trkpt lat="44.47339" lon="6.94739">
        <ele>1541.4696661654</ele>
        <time>2015-07-16T17:08:26Z</time>
      </trkpt>
      <trkpt lat="44.47345" lon="6.94754">
        <ele>1539.2169749176</ele>
        <time>2015-07-16T17:08:35Z</time>
      </trkpt>
      <trkpt lat="44.47345" lon="6.94756">
        <ele>1539.2169749176</ele>
        <time>2015-07-16T17:08:36Z</time>
      </trkpt>
      <trkpt lat="44.47341" lon="6.94767">
        <ele>1537.1274918869</ele>
        <time>2015-07-16T17:08:49Z</time>
      </trkpt>
      <trkpt lat="44.4733" lon="6.94809">
        <ele>1534.4606146878</ele>
        <time>2015-07-16T17:09:06Z</time>
      </trkpt>
      <trkpt lat="44.47334" lon="6.94835">
        <ele>1531.6847408565</ele>
        <time>2015-07-16T17:09:19Z</time>
      </trkpt>
      <trkpt lat="44.47335" lon="6.9484">
        <ele>1531.6847408565</ele>
        <time>2015-07-16T17:09:25Z</time>
      </trkpt>
      <trkpt lat="44.47336" lon="6.94863">
        <ele>1528.7298767002</ele>
        <time>2015-07-16T17:09:36Z</time>
      </trkpt>
      <trkpt lat="44.47338" lon="6.94873">
        <ele>1528.7298767002</ele>
        <time>2015-07-16T17:09:41Z</time>
      </trkpt>
      <trkpt lat="44.47345" lon="6.94899">
        <ele>1525.7335391383</ele>
        <time>2015-07-16T17:10:09Z</time>
      </trkpt>
      <trkpt lat="44.4735" lon="6.94912">
        <ele>1522.7657345475</ele>
        <time>2015-07-16T17:10:13Z</time>
      </trkpt>
      <trkpt lat="44.47369" lon="6.95045">
        <ele>1517.6432349599</ele>
        <time>2015-07-16T17:11:39Z</time>
      </trkpt>
      <trkpt lat="44.47372" lon="6.9505">
        <ele>1517.6432349599</ele>
        <time>2015-07-16T17:11:43Z</time>
      </trkpt>
      <trkpt lat="44.47373" lon="6.95052">
        <ele>1517.6432349599</ele>
        <time>2015-07-16T17:11:51Z</time>
      </trkpt>
      <trkpt lat="44.47377" lon="6.95058">
        <ele>1512.730337229</ele>
        <time>2015-07-16T17:12:08Z</time>
      </trkpt>
      <trkpt lat="44.47408" lon="6.9513">
        <ele>1506.5567618403</ele>
        <time>2015-07-16T17:12:41Z</time>
      </trkpt>
      <trkpt lat="44.4741" lon="6.95135">
        <ele>1506.5567618403</ele>
        <time>2015-07-16T17:12:54Z</time>
      </trkpt>
      <trkpt lat="44.47448" lon="6.9519">
        <ele>1499.4787957688</ele>
        <time>2015-07-16T17:13:32Z</time>
      </trkpt>
      <trkpt lat="44.47467" lon="6.95206">
        <ele>1492.7514841758</ele>
        <time>2015-07-16T17:13:40Z</time>
      </trkpt>
      <trkpt lat="44.47467" lon="6.95208">
        <ele>1492.7514841758</ele>
        <time>2015-07-16T17:13:41Z</time>
      </trkpt>
      <trkpt lat="44.47487" lon="6.95235">
        <ele>1486.0668207764</ele>
        <time>2015-07-16T17:14:08Z</time>
      </trkpt>
      <trkpt lat="44.47517" lon="6.95282">
        <ele>1479.2690439302</ele>
        <time>2015-07-16T17:14:41Z</time>
      </trkpt>
      <trkpt lat="44.47522" lon="6.95289">
        <ele>1479.2690439302</ele>
        <time>2015-07-16T17:14:46Z</time>
      </trkpt>
      <trkpt lat="44.47529" lon="6.95312">
        <ele>1472.833846672</ele>
        <time>2015-07-16T17:15:41Z</time>
      </trkpt>
      <trkpt lat="44.47565" lon="6.9538">
        <ele>1466.1201249942</ele>
        <time>2015-07-16T17:15:46Z</time>
      </trkpt>
      <trkpt lat="44.47607" lon="6.95471">
        <ele>1458.6931528509</ele>
        <time>2015-07-16T17:16:46Z</time>
      </trkpt>
      <trkpt lat="44.47608" lon="6.9548">
        <ele>1458.6931528509</ele>
        <time>2015-07-16T17:16:51Z</time>
      </trkpt>
      <trkpt lat="44.4761" lon="6.95489">
        <ele>1452.0111361126</ele>
        <time>2015-07-16T17:16:56Z</time>
      </trkpt>
      <trkpt lat="44.47611" lon="6.95496">
        <ele>1452.0111361126</ele>
        <time>2015-07-16T17:17:01Z</time>
      </trkpt>
      <trkpt lat="44.47612" lon="6.95502">
        <ele>1445.866618427</ele>
        <time>2015-07-16T17:17:06Z</time>
      </trkpt>
      <trkpt lat="44.47611" lon="6.95549">
        <ele>1439.8064090448</ele>
        <time>2015-07-16T17:17:32Z</time>
      </trkpt>
      <trkpt lat="44.4761" lon="6.95564">
        <ele>1434.3181968273</ele>
        <time>2015-07-16T17:17:40Z</time>
      </trkpt>
      <trkpt lat="44.4761" lon="6.95566">
        <ele>1434.3181968273</ele>
        <time>2015-07-16T17:17:41Z</time>
      </trkpt>
      <trkpt lat="44.47609" lon="6.95571">
        <ele>1434.3181968273</ele>
        <time>2015-07-16T17:17:46Z</time>
      </trkpt>
      <trkpt lat="44.47608" lon="6.95586">
        <ele>1429.1748381207</ele>
        <time>2015-07-16T17:17:51Z</time>
      </trkpt>
      <trkpt lat="44.47607" lon="6.95602">
        <ele>1424.424226823</ele>
        <time>2015-07-16T17:18:04Z</time>
      </trkpt>
      <trkpt lat="44.4761" lon="6.95662">
        <ele>1419.5475239696</ele>
        <time>2015-07-16T17:18:31Z</time>
      </trkpt>
      <trkpt lat="44.4761" lon="6.95668">
        <ele>1419.5475239696</ele>
        <time>2015-07-16T17:18:36Z</time>
      </trkpt>
      <trkpt lat="44.4761" lon="6.95682">
        <ele>1415.2171728262</ele>
        <time>2015-07-16T17:18:41Z</time>
      </trkpt>
      <trkpt lat="44.47609" lon="6.95688">
        <ele>1415.2171728262</ele>
        <time>2015-07-16T17:18:46Z</time>
      </trkpt>
      <trkpt lat="44.47604" lon="6.95699">
        <ele>1411.2764190746</ele>
        <time>2015-07-16T17:18:51Z</time>
      </trkpt>
      <trkpt lat="44.47603" lon="6.95707">
        <ele>1411.2764190746</ele>
        <time>2015-07-16T17:18:56Z</time>
      </trkpt>
      <trkpt lat="44.47605" lon="6.95718">
        <ele>1407.607694627</ele>
        <time>2015-07-16T17:19:01Z</time>
      </trkpt>
      <trkpt lat="44.47612" lon="6.95805">
        <ele>1403.4527562481</ele>
        <time>2015-07-16T17:19:46Z</time>
      </trkpt>
      <trkpt lat="44.4761" lon="6.95814">
        <ele>1403.4527562481</ele>
        <time>2015-07-16T17:19:51Z</time>
      </trkpt>
      <trkpt lat="44.47608" lon="6.95823">
        <ele>1399.9406001597</ele>
        <time>2015-07-16T17:19:56Z</time>
      </trkpt>
      <trkpt lat="44.47609" lon="6.95832">
        <ele>1399.9406001597</ele>
        <time>2015-07-16T17:20:01Z</time>
      </trkpt>
      <trkpt lat="44.47609" lon="6.95842">
        <ele>1396.9193376952</ele>
        <time>2015-07-16T17:20:06Z</time>
      </trkpt>
      <trkpt lat="44.47609" lon="6.95851">
        <ele>1396.9193376952</ele>
        <time>2015-07-16T17:20:26Z</time>
      </trkpt>
      <trkpt lat="44.47612" lon="6.95924">
        <ele>1393.8577502009</ele>
        <time>2015-07-16T17:20:49Z</time>
      </trkpt>
      <trkpt lat="44.47612" lon="6.95927">
        <ele>1393.8577502009</ele>
        <time>2015-07-16T17:20:51Z</time>
      </trkpt>
      <trkpt lat="44.47611" lon="6.95936">
        <ele>1393.8577502009</ele>
        <time>2015-07-16T17:20:56Z</time>
      </trkpt>
      <trkpt lat="44.4761" lon="6.9594">
        <ele>1391.2437153038</ele>
        <time>2015-07-16T17:21:01Z</time>
      </trkpt>
      <trkpt lat="44.47622" lon="6.96037">
        <ele>1389.2398146984</ele>
        <time>2015-07-16T17:21:51Z</time>
      </trkpt>
      <trkpt lat="44.47624" lon="6.96045">
        <ele>1389.2398146984</ele>
        <time>2015-07-16T17:21:56Z</time>
      </trkpt>
      <trkpt lat="44.47628" lon="6.96053">
        <ele>1387.7644373704</ele>
        <time>2015-07-16T17:22:01Z</time>
      </trkpt>
      <trkpt lat="44.47632" lon="6.96061">
        <ele>1387.7644373704</ele>
        <time>2015-07-16T17:22:06Z</time>
      </trkpt>
      <trkpt lat="44.47637" lon="6.96069">
        <ele>1386.7549566309</ele>
        <time>2015-07-16T17:22:11Z</time>
      </trkpt>
      <trkpt lat="44.47641" lon="6.96079">
        <ele>1386.7549566309</ele>
        <time>2015-07-16T17:22:16Z</time>
      </trkpt>
      <trkpt lat="44.47661" lon="6.96133">
        <ele>1386.7862136689</ele>
        <time>2015-07-16T17:22:53Z</time>
      </trkpt>
      <trkpt lat="44.47662" lon="6.96137">
        <ele>1386.7862136689</ele>
        <time>2015-07-16T17:22:56Z</time>
      </trkpt>
      <trkpt lat="44.47659" lon="6.96138">
        <ele>1386.7862136689</ele>
        <time>2015-07-16T17:23:04Z</time>
      </trkpt>
      <trkpt lat="44.47659" lon="6.9614">
        <ele>1386.7862136689</ele>
        <time>2015-07-16T17:23:06Z</time>
      </trkpt>
      <trkpt lat="44.47679" lon="6.96212">
        <ele>1387.6962822773</ele>
        <time>2015-07-16T17:23:51Z</time>
      </trkpt>
      <trkpt lat="44.47681" lon="6.96221">
        <ele>1387.6962822773</ele>
        <time>2015-07-16T17:23:56Z</time>
      </trkpt>
      <trkpt lat="44.47683" lon="6.96227">
        <ele>1388.7851876356</ele>
        <time>2015-07-16T17:24:01Z</time>
      </trkpt>
      <trkpt lat="44.47684" lon="6.96234">
        <ele>1388.7851876356</ele>
        <time>2015-07-16T17:24:13Z</time>
      </trkpt>
      <trkpt lat="44.47697" lon="6.96302">
        <ele>1389.7210942463</ele>
        <time>2015-07-16T17:24:41Z</time>
      </trkpt>
      <trkpt lat="44.477" lon="6.96317">
        <ele>1390.7592155693</ele>
        <time>2015-07-16T17:24:51Z</time>
      </trkpt>
      <trkpt lat="44.477" lon="6.96318">
        <ele>1390.7592155693</ele>
        <time>2015-07-16T17:24:51Z</time>
      </trkpt>
      <trkpt lat="44.47701" lon="6.96328">
        <ele>1390.7592155693</ele>
        <time>2015-07-16T17:24:56Z</time>
      </trkpt>
      <trkpt lat="44.47702" lon="6.96337">
        <ele>1391.7468712863</ele>
        <time>2015-07-16T17:25:01Z</time>
      </trkpt>
      <trkpt lat="44.47704" lon="6.96347">
        <ele>1391.7468712863</ele>
        <time>2015-07-16T17:25:06Z</time>
      </trkpt>
      <trkpt lat="44.47704" lon="6.96355">
        <ele>1392.7015297834</ele>
        <time>2015-07-16T17:25:11Z</time>
      </trkpt>
      <trkpt lat="44.47705" lon="6.96363">
        <ele>1392.7015297834</ele>
        <time>2015-07-16T17:25:16Z</time>
      </trkpt>
      <trkpt lat="44.47705" lon="6.96371">
        <ele>1393.5677070938</ele>
        <time>2015-07-16T17:25:21Z</time>
      </trkpt>
      <trkpt lat="44.47709" lon="6.96379">
        <ele>1393.5677070938</ele>
        <time>2015-07-16T17:25:26Z</time>
      </trkpt>
      <trkpt lat="44.4771" lon="6.96383">
        <ele>1394.2945588293</ele>
        <time>2015-07-16T17:25:31Z</time>
      </trkpt>
      <trkpt lat="44.477" lon="6.96389">
        <ele>1394.8933447904</ele>
        <time>2015-07-16T17:25:51Z</time>
      </trkpt>
      <trkpt lat="44.477" lon="6.96388">
        <ele>1394.8933447904</ele>
        <time>2015-07-16T17:25:56Z</time>
      </trkpt>
    </trkseg>
  </trk>
</gpx>